<?xml version="1.0" encoding="UTF-8" standalone="no" ?>
<gpx xmlns="http://www.topografix.com/GPX/1/1" xmlns:xsi="http://www.w3.org/2001/XMLSchema-instance" xsi:schemaLocation="http://www.topografix.com/GPX/1/1 http://www.topografix.com/GPX/1/1/gpx.xsd" version="1.1" creator="VisuGPX - https://www.visugpx.com">
  <metadata>
    <name>Sortie vtt 12-01-14</name>
    <desc><![CDATA[Sortie vtt 12-01-14]]></desc>
  </metadata>
  <trk>
    <name><![CDATA[Sortie vtt 12-01-14_1]]></name>
    <trkseg>
      <trkpt lat="45.36428" lon="4.13498">
        <ele>731.6</ele>
        <time>2014-01-12T12:49:04Z</time>
      </trkpt>
      <trkpt lat="45.36428" lon="4.13498">
        <ele>723.8</ele>
        <time>2014-01-12T12:51:22Z</time>
      </trkpt>
      <trkpt lat="45.36426" lon="4.13517">
        <ele>726.2</ele>
        <time>2014-01-12T12:51:30Z</time>
      </trkpt>
      <trkpt lat="45.36444" lon="4.13539">
        <ele>730.9</ele>
        <time>2014-01-12T12:51:37Z</time>
      </trkpt>
      <trkpt lat="45.3646" lon="4.13562">
        <ele>732.4</ele>
        <time>2014-01-12T12:51:43Z</time>
      </trkpt>
      <trkpt lat="45.36479" lon="4.13596">
        <ele>731.5</ele>
        <time>2014-01-12T12:51:50Z</time>
      </trkpt>
      <trkpt lat="45.36494" lon="4.13631">
        <ele>731.4</ele>
        <time>2014-01-12T12:51:56Z</time>
      </trkpt>
      <trkpt lat="45.36503" lon="4.13662">
        <ele>731.5</ele>
        <time>2014-01-12T12:52:01Z</time>
      </trkpt>
      <trkpt lat="45.36502" lon="4.13705">
        <ele>731.1</ele>
        <time>2014-01-12T12:52:07Z</time>
      </trkpt>
      <trkpt lat="45.36475" lon="4.13747">
        <ele>730.1</ele>
        <time>2014-01-12T12:52:13Z</time>
      </trkpt>
      <trkpt lat="45.36441" lon="4.13783">
        <ele>729.2</ele>
        <time>2014-01-12T12:52:19Z</time>
      </trkpt>
      <trkpt lat="45.36424" lon="4.13811">
        <ele>728</ele>
        <time>2014-01-12T12:52:25Z</time>
      </trkpt>
      <trkpt lat="45.3641" lon="4.13838">
        <ele>727.3</ele>
        <time>2014-01-12T12:52:32Z</time>
      </trkpt>
      <trkpt lat="45.36391" lon="4.13861">
        <ele>726.7</ele>
        <time>2014-01-12T12:52:39Z</time>
      </trkpt>
      <trkpt lat="45.36366" lon="4.13884">
        <ele>725.9</ele>
        <time>2014-01-12T12:52:46Z</time>
      </trkpt>
      <trkpt lat="45.36359" lon="4.13911">
        <ele>725.9</ele>
        <time>2014-01-12T12:52:53Z</time>
      </trkpt>
      <trkpt lat="45.36345" lon="4.13934">
        <ele>725.5</ele>
        <time>2014-01-12T12:53:00Z</time>
      </trkpt>
      <trkpt lat="45.36323" lon="4.13954">
        <ele>725.7</ele>
        <time>2014-01-12T12:53:07Z</time>
      </trkpt>
      <trkpt lat="45.36296" lon="4.13976">
        <ele>725.3</ele>
        <time>2014-01-12T12:53:14Z</time>
      </trkpt>
      <trkpt lat="45.3627" lon="4.1399">
        <ele>725.2</ele>
        <time>2014-01-12T12:53:19Z</time>
      </trkpt>
      <trkpt lat="45.36253" lon="4.14002">
        <ele>725.4</ele>
        <time>2014-01-12T12:53:22Z</time>
      </trkpt>
      <trkpt lat="45.36235" lon="4.14011">
        <ele>725.3</ele>
        <time>2014-01-12T12:53:25Z</time>
      </trkpt>
      <trkpt lat="45.36203" lon="4.14031">
        <ele>725.4</ele>
        <time>2014-01-12T12:53:31Z</time>
      </trkpt>
      <trkpt lat="45.36175" lon="4.14052">
        <ele>725.7</ele>
        <time>2014-01-12T12:53:37Z</time>
      </trkpt>
      <trkpt lat="45.3615" lon="4.14076">
        <ele>726.1</ele>
        <time>2014-01-12T12:53:43Z</time>
      </trkpt>
      <trkpt lat="45.36126" lon="4.14108">
        <ele>725.8</ele>
        <time>2014-01-12T12:53:49Z</time>
      </trkpt>
      <trkpt lat="45.36125" lon="4.14166">
        <ele>724.6</ele>
        <time>2014-01-12T12:53:55Z</time>
      </trkpt>
      <trkpt lat="45.3612" lon="4.1423">
        <ele>721.9</ele>
        <time>2014-01-12T12:54:01Z</time>
      </trkpt>
      <trkpt lat="45.36123" lon="4.14294">
        <ele>718.8</ele>
        <time>2014-01-12T12:54:07Z</time>
      </trkpt>
      <trkpt lat="45.36135" lon="4.14347">
        <ele>716.6</ele>
        <time>2014-01-12T12:54:13Z</time>
      </trkpt>
      <trkpt lat="45.3613" lon="4.14416">
        <ele>713.9</ele>
        <time>2014-01-12T12:54:20Z</time>
      </trkpt>
      <trkpt lat="45.36123" lon="4.14466">
        <ele>712.4</ele>
        <time>2014-01-12T12:54:25Z</time>
      </trkpt>
      <trkpt lat="45.36133" lon="4.14537">
        <ele>708.8</ele>
        <time>2014-01-12T12:54:31Z</time>
      </trkpt>
      <trkpt lat="45.36131" lon="4.14597">
        <ele>706.1</ele>
        <time>2014-01-12T12:54:36Z</time>
      </trkpt>
      <trkpt lat="45.36129" lon="4.14671">
        <ele>701.3</ele>
        <time>2014-01-12T12:54:43Z</time>
      </trkpt>
      <trkpt lat="45.36129" lon="4.1473">
        <ele>696.7</ele>
        <time>2014-01-12T12:54:49Z</time>
      </trkpt>
      <trkpt lat="45.36104" lon="4.14775">
        <ele>693.1</ele>
        <time>2014-01-12T12:54:55Z</time>
      </trkpt>
      <trkpt lat="45.36072" lon="4.1479">
        <ele>690</ele>
        <time>2014-01-12T12:55:01Z</time>
      </trkpt>
      <trkpt lat="45.36041" lon="4.14808">
        <ele>687.6</ele>
        <time>2014-01-12T12:55:07Z</time>
      </trkpt>
      <trkpt lat="45.36024" lon="4.14869">
        <ele>684.4</ele>
        <time>2014-01-12T12:55:14Z</time>
      </trkpt>
      <trkpt lat="45.36008" lon="4.14921">
        <ele>681.7</ele>
        <time>2014-01-12T12:55:19Z</time>
      </trkpt>
      <trkpt lat="45.35981" lon="4.14975">
        <ele>678.4</ele>
        <time>2014-01-12T12:55:25Z</time>
      </trkpt>
      <trkpt lat="45.35956" lon="4.15035">
        <ele>674.8</ele>
        <time>2014-01-12T12:55:31Z</time>
      </trkpt>
      <trkpt lat="45.35933" lon="4.1511">
        <ele>670.7</ele>
        <time>2014-01-12T12:55:38Z</time>
      </trkpt>
      <trkpt lat="45.35935" lon="4.15163">
        <ele>667.9</ele>
        <time>2014-01-12T12:55:44Z</time>
      </trkpt>
      <trkpt lat="45.35935" lon="4.15201">
        <ele>665.5</ele>
        <time>2014-01-12T12:55:49Z</time>
      </trkpt>
      <trkpt lat="45.35928" lon="4.15249">
        <ele>663.2</ele>
        <time>2014-01-12T12:55:55Z</time>
      </trkpt>
      <trkpt lat="45.35917" lon="4.15302">
        <ele>661.1</ele>
        <time>2014-01-12T12:56:02Z</time>
      </trkpt>
      <trkpt lat="45.35903" lon="4.15332">
        <ele>658.9</ele>
        <time>2014-01-12T12:56:07Z</time>
      </trkpt>
      <trkpt lat="45.35877" lon="4.15376">
        <ele>656.1</ele>
        <time>2014-01-12T12:56:13Z</time>
      </trkpt>
      <trkpt lat="45.35857" lon="4.15437">
        <ele>652</ele>
        <time>2014-01-12T12:56:20Z</time>
      </trkpt>
      <trkpt lat="45.35843" lon="4.15483">
        <ele>649.3</ele>
        <time>2014-01-12T12:56:25Z</time>
      </trkpt>
      <trkpt lat="45.35845" lon="4.15551">
        <ele>644.1</ele>
        <time>2014-01-12T12:56:31Z</time>
      </trkpt>
      <trkpt lat="45.35849" lon="4.15629">
        <ele>638.4</ele>
        <time>2014-01-12T12:56:38Z</time>
      </trkpt>
      <trkpt lat="45.35852" lon="4.15686">
        <ele>633.9</ele>
        <time>2014-01-12T12:56:44Z</time>
      </trkpt>
      <trkpt lat="45.35835" lon="4.15727">
        <ele>628.5</ele>
        <time>2014-01-12T12:56:50Z</time>
      </trkpt>
      <trkpt lat="45.35799" lon="4.1574">
        <ele>622.2</ele>
        <time>2014-01-12T12:56:55Z</time>
      </trkpt>
      <trkpt lat="45.35749" lon="4.15705">
        <ele>615.5</ele>
        <time>2014-01-12T12:57:02Z</time>
      </trkpt>
      <trkpt lat="45.35713" lon="4.15719">
        <ele>611</ele>
        <time>2014-01-12T12:57:07Z</time>
      </trkpt>
      <trkpt lat="45.35678" lon="4.15738">
        <ele>601.3</ele>
        <time>2014-01-12T12:57:13Z</time>
      </trkpt>
      <trkpt lat="45.35647" lon="4.15754">
        <ele>594.2</ele>
        <time>2014-01-12T12:57:19Z</time>
      </trkpt>
      <trkpt lat="45.35616" lon="4.15784">
        <ele>589.2</ele>
        <time>2014-01-12T12:57:24Z</time>
      </trkpt>
      <trkpt lat="45.35569" lon="4.1581">
        <ele>584.6</ele>
        <time>2014-01-12T12:57:31Z</time>
      </trkpt>
      <trkpt lat="45.35522" lon="4.15819">
        <ele>581.8</ele>
        <time>2014-01-12T12:57:38Z</time>
      </trkpt>
      <trkpt lat="45.35481" lon="4.15833">
        <ele>579.6</ele>
        <time>2014-01-12T12:57:43Z</time>
      </trkpt>
      <trkpt lat="45.35434" lon="4.15818">
        <ele>574.4</ele>
        <time>2014-01-12T12:57:51Z</time>
      </trkpt>
      <trkpt lat="45.35426" lon="4.15766">
        <ele>570</ele>
        <time>2014-01-12T12:57:57Z</time>
      </trkpt>
      <trkpt lat="45.35396" lon="4.15731">
        <ele>566.4</ele>
        <time>2014-01-12T12:58:02Z</time>
      </trkpt>
      <trkpt lat="45.35376" lon="4.15703">
        <ele>564.4</ele>
        <time>2014-01-12T12:58:05Z</time>
      </trkpt>
      <trkpt lat="45.35332" lon="4.15672">
        <ele>560.9</ele>
        <time>2014-01-12T12:58:10Z</time>
      </trkpt>
      <trkpt lat="45.35299" lon="4.15676">
        <ele>558.1</ele>
        <time>2014-01-12T12:58:13Z</time>
      </trkpt>
      <trkpt lat="45.35246" lon="4.15713">
        <ele>553.3</ele>
        <time>2014-01-12T12:58:19Z</time>
      </trkpt>
      <trkpt lat="45.35225" lon="4.15744">
        <ele>547.9</ele>
        <time>2014-01-12T12:58:25Z</time>
      </trkpt>
      <trkpt lat="45.35201" lon="4.15785">
        <ele>540.6</ele>
        <time>2014-01-12T12:58:34Z</time>
      </trkpt>
      <trkpt lat="45.35207" lon="4.15818">
        <ele>538.8</ele>
        <time>2014-01-12T12:58:37Z</time>
      </trkpt>
      <trkpt lat="45.35197" lon="4.15888">
        <ele>533.4</ele>
        <time>2014-01-12T12:58:43Z</time>
      </trkpt>
      <trkpt lat="45.35193" lon="4.15976">
        <ele>527.3</ele>
        <time>2014-01-12T12:58:49Z</time>
      </trkpt>
      <trkpt lat="45.35187" lon="4.16062">
        <ele>521.3</ele>
        <time>2014-01-12T12:58:55Z</time>
      </trkpt>
      <trkpt lat="45.35184" lon="4.16144">
        <ele>515.5</ele>
        <time>2014-01-12T12:59:01Z</time>
      </trkpt>
      <trkpt lat="45.35176" lon="4.16198">
        <ele>509.8</ele>
        <time>2014-01-12T12:59:07Z</time>
      </trkpt>
      <trkpt lat="45.35183" lon="4.1624">
        <ele>503.6</ele>
        <time>2014-01-12T12:59:13Z</time>
      </trkpt>
      <trkpt lat="45.35219" lon="4.16291">
        <ele>496.2</ele>
        <time>2014-01-12T12:59:20Z</time>
      </trkpt>
      <trkpt lat="45.35221" lon="4.16342">
        <ele>491.2</ele>
        <time>2014-01-12T12:59:26Z</time>
      </trkpt>
      <trkpt lat="45.35205" lon="4.16362">
        <ele>486.2</ele>
        <time>2014-01-12T12:59:32Z</time>
      </trkpt>
      <trkpt lat="45.35191" lon="4.16368">
        <ele>481.4</ele>
        <time>2014-01-12T12:59:39Z</time>
      </trkpt>
      <trkpt lat="45.35166" lon="4.16372">
        <ele>477.2</ele>
        <time>2014-01-12T12:59:47Z</time>
      </trkpt>
      <trkpt lat="45.35149" lon="4.16367">
        <ele>473.1</ele>
        <time>2014-01-12T12:59:54Z</time>
      </trkpt>
      <trkpt lat="45.35136" lon="4.16372">
        <ele>470.2</ele>
        <time>2014-01-12T13:00:02Z</time>
      </trkpt>
      <trkpt lat="45.35136" lon="4.16372">
        <ele>470.2</ele>
        <time>2014-01-12T13:00:09Z</time>
      </trkpt>
      <trkpt lat="45.35136" lon="4.16372">
        <ele>508.3</ele>
        <time>2014-01-12T13:00:09Z</time>
      </trkpt>
      <trkpt lat="45.35136" lon="4.16372">
        <ele>508.3</ele>
        <time>2014-01-12T13:00:26Z</time>
      </trkpt>
      <trkpt lat="45.35131" lon="4.16404">
        <ele>468.6</ele>
        <time>2014-01-12T13:00:26Z</time>
      </trkpt>
      <trkpt lat="45.35135" lon="4.16419">
        <ele>467.5</ele>
        <time>2014-01-12T13:00:33Z</time>
      </trkpt>
      <trkpt lat="45.35147" lon="4.16419">
        <ele>464.9</ele>
        <time>2014-01-12T13:00:43Z</time>
      </trkpt>
      <trkpt lat="45.35166" lon="4.16445">
        <ele>460.7</ele>
        <time>2014-01-12T13:01:03Z</time>
      </trkpt>
      <trkpt lat="45.35189" lon="4.16466">
        <ele>458.9</ele>
        <time>2014-01-12T13:01:19Z</time>
      </trkpt>
      <trkpt lat="45.35204" lon="4.16481">
        <ele>457.9</ele>
        <time>2014-01-12T13:01:35Z</time>
      </trkpt>
      <trkpt lat="45.35222" lon="4.16497">
        <ele>457.2</ele>
        <time>2014-01-12T13:01:48Z</time>
      </trkpt>
      <trkpt lat="45.35241" lon="4.16512">
        <ele>458.2</ele>
        <time>2014-01-12T13:02:02Z</time>
      </trkpt>
      <trkpt lat="45.35255" lon="4.16532">
        <ele>460.2</ele>
        <time>2014-01-12T13:02:17Z</time>
      </trkpt>
      <trkpt lat="45.35249" lon="4.16555">
        <ele>464.1</ele>
        <time>2014-01-12T13:02:36Z</time>
      </trkpt>
      <trkpt lat="45.35249" lon="4.16555">
        <ele>464.1</ele>
        <time>2014-01-12T13:02:44Z</time>
      </trkpt>
      <trkpt lat="45.35249" lon="4.16555">
        <ele>542</ele>
        <time>2014-01-12T13:02:44Z</time>
      </trkpt>
      <trkpt lat="45.35249" lon="4.16555">
        <ele>542</ele>
        <time>2014-01-12T13:03:25Z</time>
      </trkpt>
      <trkpt lat="45.35249" lon="4.16597">
        <ele>486</ele>
        <time>2014-01-12T13:03:25Z</time>
      </trkpt>
      <trkpt lat="45.35249" lon="4.16626">
        <ele>489.9</ele>
        <time>2014-01-12T13:03:37Z</time>
      </trkpt>
      <trkpt lat="45.35243" lon="4.16659">
        <ele>494.4</ele>
        <time>2014-01-12T13:03:51Z</time>
      </trkpt>
      <trkpt lat="45.35255" lon="4.16679">
        <ele>498.2</ele>
        <time>2014-01-12T13:04:03Z</time>
      </trkpt>
      <trkpt lat="45.35261" lon="4.16703">
        <ele>502.7</ele>
        <time>2014-01-12T13:04:17Z</time>
      </trkpt>
      <trkpt lat="45.35267" lon="4.16737">
        <ele>507.8</ele>
        <time>2014-01-12T13:04:32Z</time>
      </trkpt>
      <trkpt lat="45.35277" lon="4.16754">
        <ele>511.4</ele>
        <time>2014-01-12T13:04:41Z</time>
      </trkpt>
      <trkpt lat="45.35285" lon="4.16767">
        <ele>515.9</ele>
        <time>2014-01-12T13:04:50Z</time>
      </trkpt>
      <trkpt lat="45.35295" lon="4.16794">
        <ele>523.3</ele>
        <time>2014-01-12T13:05:07Z</time>
      </trkpt>
      <trkpt lat="45.35306" lon="4.16811">
        <ele>529.7</ele>
        <time>2014-01-12T13:05:20Z</time>
      </trkpt>
      <trkpt lat="45.35317" lon="4.16825">
        <ele>535.2</ele>
        <time>2014-01-12T13:05:30Z</time>
      </trkpt>
      <trkpt lat="45.35331" lon="4.16851">
        <ele>544.8</ele>
        <time>2014-01-12T13:05:45Z</time>
      </trkpt>
      <trkpt lat="45.35341" lon="4.16878">
        <ele>551.2</ele>
        <time>2014-01-12T13:05:57Z</time>
      </trkpt>
      <trkpt lat="45.35349" lon="4.16899">
        <ele>555.6</ele>
        <time>2014-01-12T13:06:05Z</time>
      </trkpt>
      <trkpt lat="45.35354" lon="4.16918">
        <ele>558.2</ele>
        <time>2014-01-12T13:06:11Z</time>
      </trkpt>
      <trkpt lat="45.35362" lon="4.16952">
        <ele>562.8</ele>
        <time>2014-01-12T13:06:19Z</time>
      </trkpt>
      <trkpt lat="45.35367" lon="4.16975">
        <ele>565.7</ele>
        <time>2014-01-12T13:06:25Z</time>
      </trkpt>
      <trkpt lat="45.35381" lon="4.17008">
        <ele>567.9</ele>
        <time>2014-01-12T13:06:32Z</time>
      </trkpt>
      <trkpt lat="45.35396" lon="4.17042">
        <ele>567.2</ele>
        <time>2014-01-12T13:06:39Z</time>
      </trkpt>
      <trkpt lat="45.35403" lon="4.17065">
        <ele>567.1</ele>
        <time>2014-01-12T13:06:44Z</time>
      </trkpt>
      <trkpt lat="45.35415" lon="4.17091">
        <ele>568.3</ele>
        <time>2014-01-12T13:06:52Z</time>
      </trkpt>
      <trkpt lat="45.35428" lon="4.17113">
        <ele>570.8</ele>
        <time>2014-01-12T13:06:59Z</time>
      </trkpt>
      <trkpt lat="45.35441" lon="4.17133">
        <ele>573.8</ele>
        <time>2014-01-12T13:07:06Z</time>
      </trkpt>
      <trkpt lat="45.35457" lon="4.17163">
        <ele>575.1</ele>
        <time>2014-01-12T13:07:15Z</time>
      </trkpt>
      <trkpt lat="45.35456" lon="4.17197">
        <ele>577.1</ele>
        <time>2014-01-12T13:07:23Z</time>
      </trkpt>
      <trkpt lat="45.35447" lon="4.17222">
        <ele>579.1</ele>
        <time>2014-01-12T13:07:31Z</time>
      </trkpt>
      <trkpt lat="45.35442" lon="4.17255">
        <ele>581.3</ele>
        <time>2014-01-12T13:07:42Z</time>
      </trkpt>
      <trkpt lat="45.3544" lon="4.17285">
        <ele>582.5</ele>
        <time>2014-01-12T13:07:50Z</time>
      </trkpt>
      <trkpt lat="45.35441" lon="4.17317">
        <ele>582.9</ele>
        <time>2014-01-12T13:07:57Z</time>
      </trkpt>
      <trkpt lat="45.35441" lon="4.17342">
        <ele>582.7</ele>
        <time>2014-01-12T13:08:03Z</time>
      </trkpt>
      <trkpt lat="45.35456" lon="4.17349">
        <ele>583.9</ele>
        <time>2014-01-12T13:08:09Z</time>
      </trkpt>
      <trkpt lat="45.35475" lon="4.17342">
        <ele>586.1</ele>
        <time>2014-01-12T13:08:15Z</time>
      </trkpt>
      <trkpt lat="45.35492" lon="4.17336">
        <ele>588.5</ele>
        <time>2014-01-12T13:08:21Z</time>
      </trkpt>
      <trkpt lat="45.35511" lon="4.17329">
        <ele>592</ele>
        <time>2014-01-12T13:08:28Z</time>
      </trkpt>
      <trkpt lat="45.35529" lon="4.17321">
        <ele>594.1</ele>
        <time>2014-01-12T13:08:35Z</time>
      </trkpt>
      <trkpt lat="45.3555" lon="4.17315">
        <ele>598.4</ele>
        <time>2014-01-12T13:08:44Z</time>
      </trkpt>
      <trkpt lat="45.35562" lon="4.17308">
        <ele>600.3</ele>
        <time>2014-01-12T13:08:49Z</time>
      </trkpt>
      <trkpt lat="45.35584" lon="4.17297">
        <ele>603.3</ele>
        <time>2014-01-12T13:08:58Z</time>
      </trkpt>
      <trkpt lat="45.35607" lon="4.17288">
        <ele>604.8</ele>
        <time>2014-01-12T13:09:07Z</time>
      </trkpt>
      <trkpt lat="45.35631" lon="4.17281">
        <ele>607.2</ele>
        <time>2014-01-12T13:09:16Z</time>
      </trkpt>
      <trkpt lat="45.35644" lon="4.17278">
        <ele>608.8</ele>
        <time>2014-01-12T13:09:21Z</time>
      </trkpt>
      <trkpt lat="45.35654" lon="4.17274">
        <ele>610.7</ele>
        <time>2014-01-12T13:09:26Z</time>
      </trkpt>
      <trkpt lat="45.35678" lon="4.17262">
        <ele>613.7</ele>
        <time>2014-01-12T13:09:36Z</time>
      </trkpt>
      <trkpt lat="45.35689" lon="4.1726">
        <ele>614.9</ele>
        <time>2014-01-12T13:09:40Z</time>
      </trkpt>
      <trkpt lat="45.35713" lon="4.17253">
        <ele>617.2</ele>
        <time>2014-01-12T13:09:49Z</time>
      </trkpt>
      <trkpt lat="45.35735" lon="4.17248">
        <ele>618.7</ele>
        <time>2014-01-12T13:09:57Z</time>
      </trkpt>
      <trkpt lat="45.35759" lon="4.17249">
        <ele>619.6</ele>
        <time>2014-01-12T13:10:05Z</time>
      </trkpt>
      <trkpt lat="45.35775" lon="4.17248">
        <ele>619.7</ele>
        <time>2014-01-12T13:10:11Z</time>
      </trkpt>
      <trkpt lat="45.35788" lon="4.17243">
        <ele>621.3</ele>
        <time>2014-01-12T13:10:16Z</time>
      </trkpt>
      <trkpt lat="45.35805" lon="4.17241">
        <ele>624.6</ele>
        <time>2014-01-12T13:10:23Z</time>
      </trkpt>
      <trkpt lat="45.3582" lon="4.17239">
        <ele>627.3</ele>
        <time>2014-01-12T13:10:29Z</time>
      </trkpt>
      <trkpt lat="45.35833" lon="4.17234">
        <ele>631.2</ele>
        <time>2014-01-12T13:10:35Z</time>
      </trkpt>
      <trkpt lat="45.35846" lon="4.17229">
        <ele>633</ele>
        <time>2014-01-12T13:10:40Z</time>
      </trkpt>
      <trkpt lat="45.3586" lon="4.17223">
        <ele>634.5</ele>
        <time>2014-01-12T13:10:45Z</time>
      </trkpt>
      <trkpt lat="45.35886" lon="4.17215">
        <ele>635.5</ele>
        <time>2014-01-12T13:10:52Z</time>
      </trkpt>
      <trkpt lat="45.35909" lon="4.17211">
        <ele>634.8</ele>
        <time>2014-01-12T13:10:58Z</time>
      </trkpt>
      <trkpt lat="45.3592" lon="4.17208">
        <ele>634.2</ele>
        <time>2014-01-12T13:11:01Z</time>
      </trkpt>
      <trkpt lat="45.35943" lon="4.17204">
        <ele>634.5</ele>
        <time>2014-01-12T13:11:07Z</time>
      </trkpt>
      <trkpt lat="45.35968" lon="4.17194">
        <ele>633.8</ele>
        <time>2014-01-12T13:11:14Z</time>
      </trkpt>
      <trkpt lat="45.3598" lon="4.17184">
        <ele>633.6</ele>
        <time>2014-01-12T13:11:18Z</time>
      </trkpt>
      <trkpt lat="45.35992" lon="4.17177">
        <ele>633.3</ele>
        <time>2014-01-12T13:11:21Z</time>
      </trkpt>
      <trkpt lat="45.36012" lon="4.17161">
        <ele>634.3</ele>
        <time>2014-01-12T13:11:27Z</time>
      </trkpt>
      <trkpt lat="45.36032" lon="4.17143">
        <ele>635.9</ele>
        <time>2014-01-12T13:11:33Z</time>
      </trkpt>
      <trkpt lat="45.36047" lon="4.17129">
        <ele>637.3</ele>
        <time>2014-01-12T13:11:38Z</time>
      </trkpt>
      <trkpt lat="45.36064" lon="4.17108">
        <ele>638.8</ele>
        <time>2014-01-12T13:11:44Z</time>
      </trkpt>
      <trkpt lat="45.3608" lon="4.17089">
        <ele>639.4</ele>
        <time>2014-01-12T13:11:49Z</time>
      </trkpt>
      <trkpt lat="45.36097" lon="4.17072">
        <ele>640.8</ele>
        <time>2014-01-12T13:11:55Z</time>
      </trkpt>
      <trkpt lat="45.36116" lon="4.17058">
        <ele>641.6</ele>
        <time>2014-01-12T13:12:01Z</time>
      </trkpt>
      <trkpt lat="45.36134" lon="4.1705">
        <ele>642.2</ele>
        <time>2014-01-12T13:12:07Z</time>
      </trkpt>
      <trkpt lat="45.36157" lon="4.17051">
        <ele>644.3</ele>
        <time>2014-01-12T13:12:14Z</time>
      </trkpt>
      <trkpt lat="45.36181" lon="4.17061">
        <ele>645.2</ele>
        <time>2014-01-12T13:12:21Z</time>
      </trkpt>
      <trkpt lat="45.362" lon="4.17072">
        <ele>646.5</ele>
        <time>2014-01-12T13:12:27Z</time>
      </trkpt>
      <trkpt lat="45.36222" lon="4.17093">
        <ele>649.1</ele>
        <time>2014-01-12T13:12:35Z</time>
      </trkpt>
      <trkpt lat="45.36236" lon="4.17106">
        <ele>650.4</ele>
        <time>2014-01-12T13:12:40Z</time>
      </trkpt>
      <trkpt lat="45.36251" lon="4.17121">
        <ele>650.9</ele>
        <time>2014-01-12T13:12:45Z</time>
      </trkpt>
      <trkpt lat="45.36266" lon="4.17127">
        <ele>652.8</ele>
        <time>2014-01-12T13:12:51Z</time>
      </trkpt>
      <trkpt lat="45.36289" lon="4.17129">
        <ele>654.1</ele>
        <time>2014-01-12T13:12:57Z</time>
      </trkpt>
      <trkpt lat="45.36314" lon="4.17129">
        <ele>654.5</ele>
        <time>2014-01-12T13:13:03Z</time>
      </trkpt>
      <trkpt lat="45.36338" lon="4.17122">
        <ele>656.3</ele>
        <time>2014-01-12T13:13:09Z</time>
      </trkpt>
      <trkpt lat="45.36362" lon="4.17115">
        <ele>657.7</ele>
        <time>2014-01-12T13:13:15Z</time>
      </trkpt>
      <trkpt lat="45.36384" lon="4.1711">
        <ele>658.1</ele>
        <time>2014-01-12T13:13:21Z</time>
      </trkpt>
      <trkpt lat="45.36402" lon="4.17102">
        <ele>659.9</ele>
        <time>2014-01-12T13:13:27Z</time>
      </trkpt>
      <trkpt lat="45.36419" lon="4.17092">
        <ele>659.3</ele>
        <time>2014-01-12T13:13:32Z</time>
      </trkpt>
      <trkpt lat="45.3644" lon="4.17081">
        <ele>660.3</ele>
        <time>2014-01-12T13:13:38Z</time>
      </trkpt>
      <trkpt lat="45.36451" lon="4.17077">
        <ele>660.8</ele>
        <time>2014-01-12T13:13:41Z</time>
      </trkpt>
      <trkpt lat="45.36472" lon="4.17068">
        <ele>661.2</ele>
        <time>2014-01-12T13:13:47Z</time>
      </trkpt>
      <trkpt lat="45.36493" lon="4.17059">
        <ele>662.6</ele>
        <time>2014-01-12T13:13:54Z</time>
      </trkpt>
      <trkpt lat="45.36516" lon="4.17053">
        <ele>662.4</ele>
        <time>2014-01-12T13:14:01Z</time>
      </trkpt>
      <trkpt lat="45.3654" lon="4.17044">
        <ele>661.1</ele>
        <time>2014-01-12T13:14:08Z</time>
      </trkpt>
      <trkpt lat="45.36558" lon="4.17036">
        <ele>660.5</ele>
        <time>2014-01-12T13:14:14Z</time>
      </trkpt>
      <trkpt lat="45.36574" lon="4.17033">
        <ele>659.9</ele>
        <time>2014-01-12T13:14:19Z</time>
      </trkpt>
      <trkpt lat="45.36591" lon="4.1703">
        <ele>661.4</ele>
        <time>2014-01-12T13:14:25Z</time>
      </trkpt>
      <trkpt lat="45.36617" lon="4.17037">
        <ele>663.3</ele>
        <time>2014-01-12T13:14:34Z</time>
      </trkpt>
      <trkpt lat="45.36642" lon="4.17048">
        <ele>664.6</ele>
        <time>2014-01-12T13:14:42Z</time>
      </trkpt>
      <trkpt lat="45.36661" lon="4.1706">
        <ele>664.3</ele>
        <time>2014-01-12T13:14:50Z</time>
      </trkpt>
      <trkpt lat="45.36673" lon="4.17073">
        <ele>663.8</ele>
        <time>2014-01-12T13:14:56Z</time>
      </trkpt>
      <trkpt lat="45.36696" lon="4.17094">
        <ele>662.1</ele>
        <time>2014-01-12T13:15:04Z</time>
      </trkpt>
      <trkpt lat="45.36712" lon="4.17106">
        <ele>662.4</ele>
        <time>2014-01-12T13:15:10Z</time>
      </trkpt>
      <trkpt lat="45.36729" lon="4.17121">
        <ele>663.6</ele>
        <time>2014-01-12T13:15:17Z</time>
      </trkpt>
      <trkpt lat="45.36745" lon="4.1713">
        <ele>664.5</ele>
        <time>2014-01-12T13:15:23Z</time>
      </trkpt>
      <trkpt lat="45.36762" lon="4.17134">
        <ele>665.4</ele>
        <time>2014-01-12T13:15:29Z</time>
      </trkpt>
      <trkpt lat="45.36774" lon="4.17134">
        <ele>667</ele>
        <time>2014-01-12T13:15:34Z</time>
      </trkpt>
      <trkpt lat="45.3679" lon="4.17136">
        <ele>670</ele>
        <time>2014-01-12T13:15:41Z</time>
      </trkpt>
      <trkpt lat="45.36812" lon="4.17137">
        <ele>674.6</ele>
        <time>2014-01-12T13:15:51Z</time>
      </trkpt>
      <trkpt lat="45.36825" lon="4.17121">
        <ele>682.3</ele>
        <time>2014-01-12T13:15:59Z</time>
      </trkpt>
      <trkpt lat="45.3684" lon="4.17095">
        <ele>687</ele>
        <time>2014-01-12T13:16:09Z</time>
      </trkpt>
      <trkpt lat="45.36851" lon="4.17076">
        <ele>690.2</ele>
        <time>2014-01-12T13:16:16Z</time>
      </trkpt>
      <trkpt lat="45.36858" lon="4.17054">
        <ele>691.9</ele>
        <time>2014-01-12T13:16:22Z</time>
      </trkpt>
      <trkpt lat="45.36881" lon="4.17027">
        <ele>694.3</ele>
        <time>2014-01-12T13:16:31Z</time>
      </trkpt>
      <trkpt lat="45.36902" lon="4.17011">
        <ele>695.1</ele>
        <time>2014-01-12T13:16:37Z</time>
      </trkpt>
      <trkpt lat="45.36932" lon="4.17002">
        <ele>695.8</ele>
        <time>2014-01-12T13:16:43Z</time>
      </trkpt>
      <trkpt lat="45.36961" lon="4.16976">
        <ele>696.4</ele>
        <time>2014-01-12T13:16:51Z</time>
      </trkpt>
      <trkpt lat="45.36974" lon="4.16948">
        <ele>696</ele>
        <time>2014-01-12T13:16:58Z</time>
      </trkpt>
      <trkpt lat="45.36975" lon="4.16923">
        <ele>697.1</ele>
        <time>2014-01-12T13:17:05Z</time>
      </trkpt>
      <trkpt lat="45.36976" lon="4.16895">
        <ele>698.9</ele>
        <time>2014-01-12T13:17:13Z</time>
      </trkpt>
      <trkpt lat="45.36983" lon="4.16862">
        <ele>701.4</ele>
        <time>2014-01-12T13:17:23Z</time>
      </trkpt>
      <trkpt lat="45.36986" lon="4.16825">
        <ele>704</ele>
        <time>2014-01-12T13:17:33Z</time>
      </trkpt>
      <trkpt lat="45.36987" lon="4.16788">
        <ele>706.8</ele>
        <time>2014-01-12T13:17:43Z</time>
      </trkpt>
      <trkpt lat="45.36987" lon="4.16764">
        <ele>708.7</ele>
        <time>2014-01-12T13:17:49Z</time>
      </trkpt>
      <trkpt lat="45.36998" lon="4.16725">
        <ele>710.3</ele>
        <time>2014-01-12T13:17:59Z</time>
      </trkpt>
      <trkpt lat="45.37009" lon="4.1669">
        <ele>711.5</ele>
        <time>2014-01-12T13:18:08Z</time>
      </trkpt>
      <trkpt lat="45.37019" lon="4.16663">
        <ele>712.4</ele>
        <time>2014-01-12T13:18:16Z</time>
      </trkpt>
      <trkpt lat="45.37029" lon="4.16635">
        <ele>712.9</ele>
        <time>2014-01-12T13:18:24Z</time>
      </trkpt>
      <trkpt lat="45.37044" lon="4.16616">
        <ele>713.9</ele>
        <time>2014-01-12T13:18:31Z</time>
      </trkpt>
      <trkpt lat="45.37063" lon="4.16602">
        <ele>716.1</ele>
        <time>2014-01-12T13:18:39Z</time>
      </trkpt>
      <trkpt lat="45.37082" lon="4.16581">
        <ele>718.8</ele>
        <time>2014-01-12T13:18:48Z</time>
      </trkpt>
      <trkpt lat="45.37099" lon="4.16558">
        <ele>721.7</ele>
        <time>2014-01-12T13:18:56Z</time>
      </trkpt>
      <trkpt lat="45.37109" lon="4.16536">
        <ele>724.2</ele>
        <time>2014-01-12T13:19:04Z</time>
      </trkpt>
      <trkpt lat="45.37114" lon="4.16517">
        <ele>726</ele>
        <time>2014-01-12T13:19:10Z</time>
      </trkpt>
      <trkpt lat="45.37117" lon="4.16486">
        <ele>727.7</ele>
        <time>2014-01-12T13:19:19Z</time>
      </trkpt>
      <trkpt lat="45.37119" lon="4.16451">
        <ele>729</ele>
        <time>2014-01-12T13:19:28Z</time>
      </trkpt>
      <trkpt lat="45.37127" lon="4.16422">
        <ele>728.5</ele>
        <time>2014-01-12T13:19:37Z</time>
      </trkpt>
      <trkpt lat="45.37137" lon="4.16399">
        <ele>728.4</ele>
        <time>2014-01-12T13:19:45Z</time>
      </trkpt>
      <trkpt lat="45.3714" lon="4.16376">
        <ele>727.5</ele>
        <time>2014-01-12T13:19:51Z</time>
      </trkpt>
      <trkpt lat="45.37142" lon="4.16352">
        <ele>726.9</ele>
        <time>2014-01-12T13:19:57Z</time>
      </trkpt>
      <trkpt lat="45.37148" lon="4.16328">
        <ele>726.3</ele>
        <time>2014-01-12T13:20:04Z</time>
      </trkpt>
      <trkpt lat="45.37157" lon="4.16296">
        <ele>727</ele>
        <time>2014-01-12T13:20:13Z</time>
      </trkpt>
      <trkpt lat="45.37173" lon="4.16258">
        <ele>728</ele>
        <time>2014-01-12T13:20:23Z</time>
      </trkpt>
      <trkpt lat="45.37187" lon="4.16232">
        <ele>728.4</ele>
        <time>2014-01-12T13:20:29Z</time>
      </trkpt>
      <trkpt lat="45.37196" lon="4.16212">
        <ele>729.2</ele>
        <time>2014-01-12T13:20:35Z</time>
      </trkpt>
      <trkpt lat="45.37208" lon="4.16173">
        <ele>730</ele>
        <time>2014-01-12T13:20:43Z</time>
      </trkpt>
      <trkpt lat="45.37215" lon="4.16142">
        <ele>729.9</ele>
        <time>2014-01-12T13:20:49Z</time>
      </trkpt>
      <trkpt lat="45.37222" lon="4.16102">
        <ele>729.5</ele>
        <time>2014-01-12T13:20:56Z</time>
      </trkpt>
      <trkpt lat="45.37231" lon="4.16068">
        <ele>729.5</ele>
        <time>2014-01-12T13:21:02Z</time>
      </trkpt>
      <trkpt lat="45.37239" lon="4.16041">
        <ele>729.5</ele>
        <time>2014-01-12T13:21:07Z</time>
      </trkpt>
      <trkpt lat="45.37249" lon="4.16013">
        <ele>728.2</ele>
        <time>2014-01-12T13:21:13Z</time>
      </trkpt>
      <trkpt lat="45.37263" lon="4.1599">
        <ele>725.7</ele>
        <time>2014-01-12T13:21:20Z</time>
      </trkpt>
      <trkpt lat="45.37282" lon="4.15978">
        <ele>724.3</ele>
        <time>2014-01-12T13:21:28Z</time>
      </trkpt>
      <trkpt lat="45.37303" lon="4.15971">
        <ele>724.3</ele>
        <time>2014-01-12T13:21:34Z</time>
      </trkpt>
      <trkpt lat="45.37317" lon="4.15966">
        <ele>724</ele>
        <time>2014-01-12T13:21:38Z</time>
      </trkpt>
      <trkpt lat="45.37347" lon="4.15957">
        <ele>723.7</ele>
        <time>2014-01-12T13:21:47Z</time>
      </trkpt>
      <trkpt lat="45.37368" lon="4.15951">
        <ele>723.4</ele>
        <time>2014-01-12T13:21:53Z</time>
      </trkpt>
      <trkpt lat="45.37383" lon="4.15947">
        <ele>723.9</ele>
        <time>2014-01-12T13:21:58Z</time>
      </trkpt>
      <trkpt lat="45.374" lon="4.15942">
        <ele>724.6</ele>
        <time>2014-01-12T13:22:05Z</time>
      </trkpt>
      <trkpt lat="45.37414" lon="4.1594">
        <ele>725.8</ele>
        <time>2014-01-12T13:22:11Z</time>
      </trkpt>
      <trkpt lat="45.37425" lon="4.15938">
        <ele>728.4</ele>
        <time>2014-01-12T13:22:18Z</time>
      </trkpt>
      <trkpt lat="45.37445" lon="4.15934">
        <ele>730.4</ele>
        <time>2014-01-12T13:22:28Z</time>
      </trkpt>
      <trkpt lat="45.3746" lon="4.15934">
        <ele>731.9</ele>
        <time>2014-01-12T13:22:37Z</time>
      </trkpt>
      <trkpt lat="45.37483" lon="4.15927">
        <ele>735.2</ele>
        <time>2014-01-12T13:22:49Z</time>
      </trkpt>
      <trkpt lat="45.37502" lon="4.15926">
        <ele>736.9</ele>
        <time>2014-01-12T13:22:59Z</time>
      </trkpt>
      <trkpt lat="45.3752" lon="4.15923">
        <ele>739.1</ele>
        <time>2014-01-12T13:23:09Z</time>
      </trkpt>
      <trkpt lat="45.37532" lon="4.15914">
        <ele>739.4</ele>
        <time>2014-01-12T13:23:17Z</time>
      </trkpt>
      <trkpt lat="45.37547" lon="4.159">
        <ele>741.4</ele>
        <time>2014-01-12T13:23:27Z</time>
      </trkpt>
      <trkpt lat="45.37565" lon="4.15882">
        <ele>743.3</ele>
        <time>2014-01-12T13:23:37Z</time>
      </trkpt>
      <trkpt lat="45.37581" lon="4.15865">
        <ele>746</ele>
        <time>2014-01-12T13:23:46Z</time>
      </trkpt>
      <trkpt lat="45.37591" lon="4.15853">
        <ele>747.8</ele>
        <time>2014-01-12T13:23:52Z</time>
      </trkpt>
      <trkpt lat="45.37601" lon="4.15833">
        <ele>750.6</ele>
        <time>2014-01-12T13:24:01Z</time>
      </trkpt>
      <trkpt lat="45.3761" lon="4.1581">
        <ele>753.7</ele>
        <time>2014-01-12T13:24:11Z</time>
      </trkpt>
      <trkpt lat="45.37626" lon="4.15781">
        <ele>754.6</ele>
        <time>2014-01-12T13:24:21Z</time>
      </trkpt>
      <trkpt lat="45.37642" lon="4.15765">
        <ele>755</ele>
        <time>2014-01-12T13:24:27Z</time>
      </trkpt>
      <trkpt lat="45.37664" lon="4.15744">
        <ele>755.4</ele>
        <time>2014-01-12T13:24:33Z</time>
      </trkpt>
      <trkpt lat="45.37685" lon="4.15717">
        <ele>755.9</ele>
        <time>2014-01-12T13:24:39Z</time>
      </trkpt>
      <trkpt lat="45.3771" lon="4.15685">
        <ele>756.3</ele>
        <time>2014-01-12T13:24:46Z</time>
      </trkpt>
      <trkpt lat="45.37729" lon="4.15667">
        <ele>756.7</ele>
        <time>2014-01-12T13:24:52Z</time>
      </trkpt>
      <trkpt lat="45.37756" lon="4.1566">
        <ele>756.5</ele>
        <time>2014-01-12T13:24:57Z</time>
      </trkpt>
      <trkpt lat="45.37789" lon="4.15662">
        <ele>757.5</ele>
        <time>2014-01-12T13:25:02Z</time>
      </trkpt>
      <trkpt lat="45.37801" lon="4.15667">
        <ele>756.3</ele>
        <time>2014-01-12T13:25:05Z</time>
      </trkpt>
      <trkpt lat="45.37817" lon="4.15677">
        <ele>754.9</ele>
        <time>2014-01-12T13:25:11Z</time>
      </trkpt>
      <trkpt lat="45.37834" lon="4.15686">
        <ele>751</ele>
        <time>2014-01-12T13:25:19Z</time>
      </trkpt>
      <trkpt lat="45.37853" lon="4.15711">
        <ele>748.9</ele>
        <time>2014-01-12T13:25:31Z</time>
      </trkpt>
      <trkpt lat="45.37855" lon="4.15734">
        <ele>748.7</ele>
        <time>2014-01-12T13:25:38Z</time>
      </trkpt>
      <trkpt lat="45.37868" lon="4.1576">
        <ele>748</ele>
        <time>2014-01-12T13:25:47Z</time>
      </trkpt>
      <trkpt lat="45.37883" lon="4.1576">
        <ele>750</ele>
        <time>2014-01-12T13:25:56Z</time>
      </trkpt>
      <trkpt lat="45.37895" lon="4.15737">
        <ele>752.3</ele>
        <time>2014-01-12T13:26:04Z</time>
      </trkpt>
      <trkpt lat="45.37914" lon="4.15706">
        <ele>754</ele>
        <time>2014-01-12T13:26:13Z</time>
      </trkpt>
      <trkpt lat="45.37929" lon="4.15689">
        <ele>755.8</ele>
        <time>2014-01-12T13:26:19Z</time>
      </trkpt>
      <trkpt lat="45.3795" lon="4.15672">
        <ele>758.7</ele>
        <time>2014-01-12T13:26:26Z</time>
      </trkpt>
      <trkpt lat="45.3796" lon="4.15664">
        <ele>759.2</ele>
        <time>2014-01-12T13:26:29Z</time>
      </trkpt>
      <trkpt lat="45.37978" lon="4.15633">
        <ele>759.7</ele>
        <time>2014-01-12T13:26:36Z</time>
      </trkpt>
      <trkpt lat="45.37988" lon="4.156">
        <ele>759.7</ele>
        <time>2014-01-12T13:26:42Z</time>
      </trkpt>
      <trkpt lat="45.37999" lon="4.1557">
        <ele>761.4</ele>
        <time>2014-01-12T13:26:48Z</time>
      </trkpt>
      <trkpt lat="45.38011" lon="4.15548">
        <ele>762.6</ele>
        <time>2014-01-12T13:26:54Z</time>
      </trkpt>
      <trkpt lat="45.38029" lon="4.15569">
        <ele>762.2</ele>
        <time>2014-01-12T13:27:03Z</time>
      </trkpt>
      <trkpt lat="45.38034" lon="4.15592">
        <ele>762.4</ele>
        <time>2014-01-12T13:27:11Z</time>
      </trkpt>
      <trkpt lat="45.38032" lon="4.15616">
        <ele>762.7</ele>
        <time>2014-01-12T13:27:19Z</time>
      </trkpt>
      <trkpt lat="45.38042" lon="4.15665">
        <ele>763.1</ele>
        <time>2014-01-12T13:27:31Z</time>
      </trkpt>
      <trkpt lat="45.38048" lon="4.15692">
        <ele>762.9</ele>
        <time>2014-01-12T13:27:39Z</time>
      </trkpt>
      <trkpt lat="45.3805" lon="4.15716">
        <ele>762.9</ele>
        <time>2014-01-12T13:27:45Z</time>
      </trkpt>
      <trkpt lat="45.38051" lon="4.15742">
        <ele>763.7</ele>
        <time>2014-01-12T13:27:55Z</time>
      </trkpt>
      <trkpt lat="45.38055" lon="4.15766">
        <ele>764.2</ele>
        <time>2014-01-12T13:28:06Z</time>
      </trkpt>
      <trkpt lat="45.38058" lon="4.1579">
        <ele>764.2</ele>
        <time>2014-01-12T13:28:16Z</time>
      </trkpt>
      <trkpt lat="45.38062" lon="4.15816">
        <ele>765.7</ele>
        <time>2014-01-12T13:28:26Z</time>
      </trkpt>
      <trkpt lat="45.38066" lon="4.15843">
        <ele>768.1</ele>
        <time>2014-01-12T13:28:37Z</time>
      </trkpt>
      <trkpt lat="45.38069" lon="4.15855">
        <ele>769.7</ele>
        <time>2014-01-12T13:28:43Z</time>
      </trkpt>
      <trkpt lat="45.38069" lon="4.15855">
        <ele>778.4</ele>
        <time>2014-01-12T13:28:50Z</time>
      </trkpt>
      <trkpt lat="45.38069" lon="4.15855">
        <ele>778.4</ele>
        <time>2014-01-12T13:28:55Z</time>
      </trkpt>
      <trkpt lat="45.38077" lon="4.15836">
        <ele>775.1</ele>
        <time>2014-01-12T13:28:55Z</time>
      </trkpt>
      <trkpt lat="45.38087" lon="4.15814">
        <ele>781.3</ele>
        <time>2014-01-12T13:29:08Z</time>
      </trkpt>
      <trkpt lat="45.38095" lon="4.15802">
        <ele>784.2</ele>
        <time>2014-01-12T13:29:16Z</time>
      </trkpt>
      <trkpt lat="45.38108" lon="4.15795">
        <ele>786.8</ele>
        <time>2014-01-12T13:29:28Z</time>
      </trkpt>
      <trkpt lat="45.3811" lon="4.15813">
        <ele>788.8</ele>
        <time>2014-01-12T13:29:37Z</time>
      </trkpt>
      <trkpt lat="45.38119" lon="4.15841">
        <ele>792.2</ele>
        <time>2014-01-12T13:29:50Z</time>
      </trkpt>
      <trkpt lat="45.38136" lon="4.15873">
        <ele>793.6</ele>
        <time>2014-01-12T13:30:02Z</time>
      </trkpt>
      <trkpt lat="45.38149" lon="4.15905">
        <ele>794.7</ele>
        <time>2014-01-12T13:30:08Z</time>
      </trkpt>
      <trkpt lat="45.38155" lon="4.15923">
        <ele>795.1</ele>
        <time>2014-01-12T13:30:11Z</time>
      </trkpt>
      <trkpt lat="45.38149" lon="4.15959">
        <ele>794.4</ele>
        <time>2014-01-12T13:30:17Z</time>
      </trkpt>
      <trkpt lat="45.38133" lon="4.15988">
        <ele>794.6</ele>
        <time>2014-01-12T13:30:23Z</time>
      </trkpt>
      <trkpt lat="45.3812" lon="4.16015">
        <ele>794.6</ele>
        <time>2014-01-12T13:30:28Z</time>
      </trkpt>
      <trkpt lat="45.38113" lon="4.16045">
        <ele>794.9</ele>
        <time>2014-01-12T13:30:33Z</time>
      </trkpt>
      <trkpt lat="45.38108" lon="4.16075">
        <ele>795.8</ele>
        <time>2014-01-12T13:30:38Z</time>
      </trkpt>
      <trkpt lat="45.38106" lon="4.16106">
        <ele>796.7</ele>
        <time>2014-01-12T13:30:44Z</time>
      </trkpt>
      <trkpt lat="45.381" lon="4.16141">
        <ele>797.3</ele>
        <time>2014-01-12T13:30:52Z</time>
      </trkpt>
      <trkpt lat="45.38113" lon="4.16176">
        <ele>795.6</ele>
        <time>2014-01-12T13:31:00Z</time>
      </trkpt>
      <trkpt lat="45.38128" lon="4.162">
        <ele>793.8</ele>
        <time>2014-01-12T13:31:06Z</time>
      </trkpt>
      <trkpt lat="45.3814" lon="4.16224">
        <ele>792.6</ele>
        <time>2014-01-12T13:31:11Z</time>
      </trkpt>
      <trkpt lat="45.38151" lon="4.16255">
        <ele>791.4</ele>
        <time>2014-01-12T13:31:16Z</time>
      </trkpt>
      <trkpt lat="45.38159" lon="4.16292">
        <ele>790.4</ele>
        <time>2014-01-12T13:31:21Z</time>
      </trkpt>
      <trkpt lat="45.38159" lon="4.16296">
        <ele>790.3</ele>
        <time>2014-01-12T13:31:22Z</time>
      </trkpt>
      <trkpt lat="45.38159" lon="4.16296">
        <ele>788.9</ele>
        <time>2014-01-12T13:31:27Z</time>
      </trkpt>
      <trkpt lat="45.38159" lon="4.16296">
        <ele>788.9</ele>
        <time>2014-01-12T13:31:29Z</time>
      </trkpt>
      <trkpt lat="45.38161" lon="4.16306">
        <ele>788.5</ele>
        <time>2014-01-12T13:31:29Z</time>
      </trkpt>
      <trkpt lat="45.38169" lon="4.16346">
        <ele>786.8</ele>
        <time>2014-01-12T13:31:35Z</time>
      </trkpt>
      <trkpt lat="45.38177" lon="4.16384">
        <ele>784.7</ele>
        <time>2014-01-12T13:31:40Z</time>
      </trkpt>
      <trkpt lat="45.38183" lon="4.16407">
        <ele>783.1</ele>
        <time>2014-01-12T13:31:43Z</time>
      </trkpt>
      <trkpt lat="45.38198" lon="4.16449">
        <ele>780.6</ele>
        <time>2014-01-12T13:31:49Z</time>
      </trkpt>
      <trkpt lat="45.38223" lon="4.16454">
        <ele>779.5</ele>
        <time>2014-01-12T13:31:55Z</time>
      </trkpt>
      <trkpt lat="45.38254" lon="4.16438">
        <ele>779.3</ele>
        <time>2014-01-12T13:32:01Z</time>
      </trkpt>
      <trkpt lat="45.38294" lon="4.16439">
        <ele>777.9</ele>
        <time>2014-01-12T13:32:07Z</time>
      </trkpt>
      <trkpt lat="45.3833" lon="4.16489">
        <ele>775.7</ele>
        <time>2014-01-12T13:32:14Z</time>
      </trkpt>
      <trkpt lat="45.38341" lon="4.16523">
        <ele>772.9</ele>
        <time>2014-01-12T13:32:19Z</time>
      </trkpt>
      <trkpt lat="45.38353" lon="4.16561">
        <ele>770.2</ele>
        <time>2014-01-12T13:32:26Z</time>
      </trkpt>
      <trkpt lat="45.38393" lon="4.16598">
        <ele>768</ele>
        <time>2014-01-12T13:32:32Z</time>
      </trkpt>
      <trkpt lat="45.38414" lon="4.16607">
        <ele>766.8</ele>
        <time>2014-01-12T13:32:36Z</time>
      </trkpt>
      <trkpt lat="45.38457" lon="4.16577">
        <ele>764.7</ele>
        <time>2014-01-12T13:32:44Z</time>
      </trkpt>
      <trkpt lat="45.38481" lon="4.16569">
        <ele>762.1</ele>
        <time>2014-01-12T13:32:52Z</time>
      </trkpt>
      <trkpt lat="45.38494" lon="4.16572">
        <ele>761.2</ele>
        <time>2014-01-12T13:32:58Z</time>
      </trkpt>
      <trkpt lat="45.38509" lon="4.16584">
        <ele>759.9</ele>
        <time>2014-01-12T13:33:05Z</time>
      </trkpt>
      <trkpt lat="45.38513" lon="4.16599">
        <ele>757.4</ele>
        <time>2014-01-12T13:33:14Z</time>
      </trkpt>
      <trkpt lat="45.38524" lon="4.16629">
        <ele>751.8</ele>
        <time>2014-01-12T13:33:31Z</time>
      </trkpt>
      <trkpt lat="45.38533" lon="4.16652">
        <ele>749.1</ele>
        <time>2014-01-12T13:33:43Z</time>
      </trkpt>
      <trkpt lat="45.38538" lon="4.16672">
        <ele>746.6</ele>
        <time>2014-01-12T13:33:54Z</time>
      </trkpt>
      <trkpt lat="45.38552" lon="4.16713">
        <ele>743.7</ele>
        <time>2014-01-12T13:34:07Z</time>
      </trkpt>
      <trkpt lat="45.38569" lon="4.16742">
        <ele>741.7</ele>
        <time>2014-01-12T13:34:19Z</time>
      </trkpt>
      <trkpt lat="45.38586" lon="4.16784">
        <ele>740.9</ele>
        <time>2014-01-12T13:34:28Z</time>
      </trkpt>
      <trkpt lat="45.38592" lon="4.16806">
        <ele>741</ele>
        <time>2014-01-12T13:34:32Z</time>
      </trkpt>
      <trkpt lat="45.38596" lon="4.1683">
        <ele>742</ele>
        <time>2014-01-12T13:34:37Z</time>
      </trkpt>
      <trkpt lat="45.38607" lon="4.16861">
        <ele>743.7</ele>
        <time>2014-01-12T13:34:43Z</time>
      </trkpt>
      <trkpt lat="45.3863" lon="4.16889">
        <ele>745.1</ele>
        <time>2014-01-12T13:34:50Z</time>
      </trkpt>
      <trkpt lat="45.38646" lon="4.16905">
        <ele>744.3</ele>
        <time>2014-01-12T13:34:55Z</time>
      </trkpt>
      <trkpt lat="45.38655" lon="4.16924">
        <ele>742.6</ele>
        <time>2014-01-12T13:35:01Z</time>
      </trkpt>
      <trkpt lat="45.38667" lon="4.16947">
        <ele>741.9</ele>
        <time>2014-01-12T13:35:09Z</time>
      </trkpt>
      <trkpt lat="45.38679" lon="4.16965">
        <ele>743.2</ele>
        <time>2014-01-12T13:35:17Z</time>
      </trkpt>
      <trkpt lat="45.38688" lon="4.1698">
        <ele>744.4</ele>
        <time>2014-01-12T13:35:23Z</time>
      </trkpt>
      <trkpt lat="45.38693" lon="4.16996">
        <ele>745.9</ele>
        <time>2014-01-12T13:35:29Z</time>
      </trkpt>
      <trkpt lat="45.38695" lon="4.17019">
        <ele>748.6</ele>
        <time>2014-01-12T13:35:39Z</time>
      </trkpt>
      <trkpt lat="45.38694" lon="4.17046">
        <ele>751.6</ele>
        <time>2014-01-12T13:35:50Z</time>
      </trkpt>
      <trkpt lat="45.38697" lon="4.17085">
        <ele>755.5</ele>
        <time>2014-01-12T13:36:03Z</time>
      </trkpt>
      <trkpt lat="45.38702" lon="4.17114">
        <ele>758.7</ele>
        <time>2014-01-12T13:36:13Z</time>
      </trkpt>
      <trkpt lat="45.38703" lon="4.17135">
        <ele>761.7</ele>
        <time>2014-01-12T13:36:21Z</time>
      </trkpt>
      <trkpt lat="45.38706" lon="4.17165">
        <ele>765.8</ele>
        <time>2014-01-12T13:36:32Z</time>
      </trkpt>
      <trkpt lat="45.38709" lon="4.17189">
        <ele>769.5</ele>
        <time>2014-01-12T13:36:42Z</time>
      </trkpt>
      <trkpt lat="45.38708" lon="4.17213">
        <ele>772.5</ele>
        <time>2014-01-12T13:36:52Z</time>
      </trkpt>
      <trkpt lat="45.3872" lon="4.17242">
        <ele>775.7</ele>
        <time>2014-01-12T13:37:05Z</time>
      </trkpt>
      <trkpt lat="45.38726" lon="4.1726">
        <ele>778.9</ele>
        <time>2014-01-12T13:37:15Z</time>
      </trkpt>
      <trkpt lat="45.38723" lon="4.17282">
        <ele>783</ele>
        <time>2014-01-12T13:37:27Z</time>
      </trkpt>
      <trkpt lat="45.38721" lon="4.17313">
        <ele>786.3</ele>
        <time>2014-01-12T13:37:43Z</time>
      </trkpt>
      <trkpt lat="45.38744" lon="4.17327">
        <ele>788.3</ele>
        <time>2014-01-12T13:37:59Z</time>
      </trkpt>
      <trkpt lat="45.38758" lon="4.17334">
        <ele>790.2</ele>
        <time>2014-01-12T13:38:10Z</time>
      </trkpt>
      <trkpt lat="45.38773" lon="4.1734">
        <ele>791.4</ele>
        <time>2014-01-12T13:38:19Z</time>
      </trkpt>
      <trkpt lat="45.38789" lon="4.17363">
        <ele>792.3</ele>
        <time>2014-01-12T13:38:33Z</time>
      </trkpt>
      <trkpt lat="45.3879" lon="4.17387">
        <ele>793.5</ele>
        <time>2014-01-12T13:38:42Z</time>
      </trkpt>
      <trkpt lat="45.38792" lon="4.1741">
        <ele>793.4</ele>
        <time>2014-01-12T13:38:50Z</time>
      </trkpt>
      <trkpt lat="45.38795" lon="4.17429">
        <ele>793.6</ele>
        <time>2014-01-12T13:38:57Z</time>
      </trkpt>
      <trkpt lat="45.38806" lon="4.17458">
        <ele>795.4</ele>
        <time>2014-01-12T13:39:09Z</time>
      </trkpt>
      <trkpt lat="45.38825" lon="4.17471">
        <ele>797.2</ele>
        <time>2014-01-12T13:39:21Z</time>
      </trkpt>
      <trkpt lat="45.38842" lon="4.17493">
        <ele>799.8</ele>
        <time>2014-01-12T13:39:35Z</time>
      </trkpt>
      <trkpt lat="45.38852" lon="4.17506">
        <ele>801.1</ele>
        <time>2014-01-12T13:39:43Z</time>
      </trkpt>
      <trkpt lat="45.38867" lon="4.17523">
        <ele>803.5</ele>
        <time>2014-01-12T13:39:54Z</time>
      </trkpt>
      <trkpt lat="45.3889" lon="4.17524">
        <ele>805.8</ele>
        <time>2014-01-12T13:40:05Z</time>
      </trkpt>
      <trkpt lat="45.38906" lon="4.17525">
        <ele>808.9</ele>
        <time>2014-01-12T13:40:13Z</time>
      </trkpt>
      <trkpt lat="45.38926" lon="4.17539">
        <ele>810.1</ele>
        <time>2014-01-12T13:40:24Z</time>
      </trkpt>
      <trkpt lat="45.38939" lon="4.17561">
        <ele>811.6</ele>
        <time>2014-01-12T13:40:34Z</time>
      </trkpt>
      <trkpt lat="45.38954" lon="4.17593">
        <ele>812.6</ele>
        <time>2014-01-12T13:40:44Z</time>
      </trkpt>
      <trkpt lat="45.38964" lon="4.17607">
        <ele>813.2</ele>
        <time>2014-01-12T13:40:50Z</time>
      </trkpt>
      <trkpt lat="45.38973" lon="4.17625">
        <ele>813.6</ele>
        <time>2014-01-12T13:40:57Z</time>
      </trkpt>
      <trkpt lat="45.38977" lon="4.17644">
        <ele>814.6</ele>
        <time>2014-01-12T13:41:02Z</time>
      </trkpt>
      <trkpt lat="45.3899" lon="4.17676">
        <ele>815.1</ele>
        <time>2014-01-12T13:41:08Z</time>
      </trkpt>
      <trkpt lat="45.39013" lon="4.17695">
        <ele>816.2</ele>
        <time>2014-01-12T13:41:14Z</time>
      </trkpt>
      <trkpt lat="45.39068" lon="4.17711">
        <ele>815.4</ele>
        <time>2014-01-12T13:41:20Z</time>
      </trkpt>
      <trkpt lat="45.391" lon="4.17726">
        <ele>814.6</ele>
        <time>2014-01-12T13:41:23Z</time>
      </trkpt>
      <trkpt lat="45.39161" lon="4.17753">
        <ele>808.8</ele>
        <time>2014-01-12T13:41:29Z</time>
      </trkpt>
      <trkpt lat="45.39212" lon="4.1776">
        <ele>804</ele>
        <time>2014-01-12T13:41:34Z</time>
      </trkpt>
      <trkpt lat="45.39243" lon="4.17776">
        <ele>801.4</ele>
        <time>2014-01-12T13:41:37Z</time>
      </trkpt>
      <trkpt lat="45.39298" lon="4.17832">
        <ele>796.3</ele>
        <time>2014-01-12T13:41:45Z</time>
      </trkpt>
      <trkpt lat="45.39311" lon="4.17887">
        <ele>794.4</ele>
        <time>2014-01-12T13:41:52Z</time>
      </trkpt>
      <trkpt lat="45.3931" lon="4.17931">
        <ele>792.5</ele>
        <time>2014-01-12T13:41:57Z</time>
      </trkpt>
      <trkpt lat="45.39307" lon="4.17981">
        <ele>790.4</ele>
        <time>2014-01-12T13:42:02Z</time>
      </trkpt>
      <trkpt lat="45.39296" lon="4.18032">
        <ele>787.4</ele>
        <time>2014-01-12T13:42:07Z</time>
      </trkpt>
      <trkpt lat="45.39281" lon="4.18095">
        <ele>785.3</ele>
        <time>2014-01-12T13:42:13Z</time>
      </trkpt>
      <trkpt lat="45.39262" lon="4.18156">
        <ele>783.1</ele>
        <time>2014-01-12T13:42:19Z</time>
      </trkpt>
      <trkpt lat="45.39236" lon="4.1821">
        <ele>780.3</ele>
        <time>2014-01-12T13:42:25Z</time>
      </trkpt>
      <trkpt lat="45.39234" lon="4.18259">
        <ele>777.9</ele>
        <time>2014-01-12T13:42:31Z</time>
      </trkpt>
      <trkpt lat="45.39234" lon="4.18295">
        <ele>775.2</ele>
        <time>2014-01-12T13:42:37Z</time>
      </trkpt>
      <trkpt lat="45.39232" lon="4.18345">
        <ele>772.3</ele>
        <time>2014-01-12T13:42:43Z</time>
      </trkpt>
      <trkpt lat="45.39235" lon="4.18388">
        <ele>769.8</ele>
        <time>2014-01-12T13:42:49Z</time>
      </trkpt>
      <trkpt lat="45.39246" lon="4.18415">
        <ele>766.2</ele>
        <time>2014-01-12T13:42:55Z</time>
      </trkpt>
      <trkpt lat="45.39264" lon="4.18458">
        <ele>763.8</ele>
        <time>2014-01-12T13:43:02Z</time>
      </trkpt>
      <trkpt lat="45.39293" lon="4.18443">
        <ele>762.9</ele>
        <time>2014-01-12T13:43:07Z</time>
      </trkpt>
      <trkpt lat="45.3934" lon="4.18444">
        <ele>761.6</ele>
        <time>2014-01-12T13:43:13Z</time>
      </trkpt>
      <trkpt lat="45.3938" lon="4.18473">
        <ele>761.1</ele>
        <time>2014-01-12T13:43:19Z</time>
      </trkpt>
      <trkpt lat="45.39397" lon="4.18479">
        <ele>760.2</ele>
        <time>2014-01-12T13:43:25Z</time>
      </trkpt>
      <trkpt lat="45.39418" lon="4.18489">
        <ele>763.2</ele>
        <time>2014-01-12T13:43:36Z</time>
      </trkpt>
      <trkpt lat="45.39431" lon="4.18496">
        <ele>764.4</ele>
        <time>2014-01-12T13:43:42Z</time>
      </trkpt>
      <trkpt lat="45.39446" lon="4.18499">
        <ele>767</ele>
        <time>2014-01-12T13:43:49Z</time>
      </trkpt>
      <trkpt lat="45.39468" lon="4.18513">
        <ele>768.7</ele>
        <time>2014-01-12T13:43:58Z</time>
      </trkpt>
      <trkpt lat="45.39487" lon="4.18527">
        <ele>770.5</ele>
        <time>2014-01-12T13:44:06Z</time>
      </trkpt>
      <trkpt lat="45.39505" lon="4.18541">
        <ele>773.1</ele>
        <time>2014-01-12T13:44:14Z</time>
      </trkpt>
      <trkpt lat="45.39523" lon="4.1855">
        <ele>774.2</ele>
        <time>2014-01-12T13:44:21Z</time>
      </trkpt>
      <trkpt lat="45.39548" lon="4.18562">
        <ele>774.7</ele>
        <time>2014-01-12T13:44:29Z</time>
      </trkpt>
      <trkpt lat="45.39577" lon="4.18569">
        <ele>774.7</ele>
        <time>2014-01-12T13:44:36Z</time>
      </trkpt>
      <trkpt lat="45.39605" lon="4.18566">
        <ele>774.6</ele>
        <time>2014-01-12T13:44:41Z</time>
      </trkpt>
      <trkpt lat="45.3964" lon="4.18561">
        <ele>773.7</ele>
        <time>2014-01-12T13:44:46Z</time>
      </trkpt>
      <trkpt lat="45.39676" lon="4.18557">
        <ele>772.2</ele>
        <time>2014-01-12T13:44:51Z</time>
      </trkpt>
      <trkpt lat="45.39715" lon="4.18542">
        <ele>771.4</ele>
        <time>2014-01-12T13:44:57Z</time>
      </trkpt>
      <trkpt lat="45.39749" lon="4.18518">
        <ele>771.9</ele>
        <time>2014-01-12T13:45:03Z</time>
      </trkpt>
      <trkpt lat="45.39781" lon="4.1852">
        <ele>772.4</ele>
        <time>2014-01-12T13:45:09Z</time>
      </trkpt>
      <trkpt lat="45.39804" lon="4.1853">
        <ele>774.9</ele>
        <time>2014-01-12T13:45:15Z</time>
      </trkpt>
      <trkpt lat="45.39824" lon="4.18535">
        <ele>774.2</ele>
        <time>2014-01-12T13:45:21Z</time>
      </trkpt>
      <trkpt lat="45.39844" lon="4.18533">
        <ele>776.2</ele>
        <time>2014-01-12T13:45:28Z</time>
      </trkpt>
      <trkpt lat="45.39861" lon="4.18524">
        <ele>778.4</ele>
        <time>2014-01-12T13:45:34Z</time>
      </trkpt>
      <trkpt lat="45.39876" lon="4.18519">
        <ele>780.3</ele>
        <time>2014-01-12T13:45:40Z</time>
      </trkpt>
      <trkpt lat="45.39892" lon="4.18515">
        <ele>782.3</ele>
        <time>2014-01-12T13:45:46Z</time>
      </trkpt>
      <trkpt lat="45.39913" lon="4.18509">
        <ele>783.6</ele>
        <time>2014-01-12T13:45:53Z</time>
      </trkpt>
      <trkpt lat="45.39931" lon="4.18505">
        <ele>784.6</ele>
        <time>2014-01-12T13:45:59Z</time>
      </trkpt>
      <trkpt lat="45.39957" lon="4.18495">
        <ele>785.2</ele>
        <time>2014-01-12T13:46:06Z</time>
      </trkpt>
      <trkpt lat="45.39977" lon="4.18489">
        <ele>786.5</ele>
        <time>2014-01-12T13:46:11Z</time>
      </trkpt>
      <trkpt lat="45.39999" lon="4.18491">
        <ele>788</ele>
        <time>2014-01-12T13:46:16Z</time>
      </trkpt>
      <trkpt lat="45.40033" lon="4.18501">
        <ele>789.6</ele>
        <time>2014-01-12T13:46:23Z</time>
      </trkpt>
      <trkpt lat="45.40056" lon="4.18521">
        <ele>790.4</ele>
        <time>2014-01-12T13:46:29Z</time>
      </trkpt>
      <trkpt lat="45.40068" lon="4.18532">
        <ele>790.7</ele>
        <time>2014-01-12T13:46:32Z</time>
      </trkpt>
      <trkpt lat="45.40092" lon="4.18557">
        <ele>790.6</ele>
        <time>2014-01-12T13:46:38Z</time>
      </trkpt>
      <trkpt lat="45.40132" lon="4.18574">
        <ele>790</ele>
        <time>2014-01-12T13:46:45Z</time>
      </trkpt>
      <trkpt lat="45.40164" lon="4.18599">
        <ele>788.7</ele>
        <time>2014-01-12T13:46:51Z</time>
      </trkpt>
      <trkpt lat="45.40173" lon="4.18645">
        <ele>786.5</ele>
        <time>2014-01-12T13:46:57Z</time>
      </trkpt>
      <trkpt lat="45.40183" lon="4.18688">
        <ele>783.9</ele>
        <time>2014-01-12T13:47:03Z</time>
      </trkpt>
      <trkpt lat="45.40199" lon="4.18725">
        <ele>782.7</ele>
        <time>2014-01-12T13:47:09Z</time>
      </trkpt>
      <trkpt lat="45.40214" lon="4.18764">
        <ele>781.7</ele>
        <time>2014-01-12T13:47:15Z</time>
      </trkpt>
      <trkpt lat="45.4023" lon="4.18802">
        <ele>780.9</ele>
        <time>2014-01-12T13:47:21Z</time>
      </trkpt>
      <trkpt lat="45.40246" lon="4.18828">
        <ele>781</ele>
        <time>2014-01-12T13:47:26Z</time>
      </trkpt>
      <trkpt lat="45.40269" lon="4.18846">
        <ele>779.9</ele>
        <time>2014-01-12T13:47:32Z</time>
      </trkpt>
      <trkpt lat="45.40281" lon="4.18853">
        <ele>779.1</ele>
        <time>2014-01-12T13:47:35Z</time>
      </trkpt>
      <trkpt lat="45.40311" lon="4.18857">
        <ele>778.6</ele>
        <time>2014-01-12T13:47:42Z</time>
      </trkpt>
      <trkpt lat="45.40332" lon="4.18886">
        <ele>777.1</ele>
        <time>2014-01-12T13:47:47Z</time>
      </trkpt>
      <trkpt lat="45.40346" lon="4.18906">
        <ele>776.1</ele>
        <time>2014-01-12T13:47:50Z</time>
      </trkpt>
      <trkpt lat="45.40366" lon="4.18918">
        <ele>775.1</ele>
        <time>2014-01-12T13:47:54Z</time>
      </trkpt>
      <trkpt lat="45.4038" lon="4.18936">
        <ele>774.9</ele>
        <time>2014-01-12T13:47:59Z</time>
      </trkpt>
      <trkpt lat="45.40393" lon="4.18976">
        <ele>774.4</ele>
        <time>2014-01-12T13:48:04Z</time>
      </trkpt>
      <trkpt lat="45.40402" lon="4.19001">
        <ele>773.9</ele>
        <time>2014-01-12T13:48:07Z</time>
      </trkpt>
      <trkpt lat="45.4042" lon="4.19054">
        <ele>773.4</ele>
        <time>2014-01-12T13:48:13Z</time>
      </trkpt>
      <trkpt lat="45.40439" lon="4.19107">
        <ele>772.6</ele>
        <time>2014-01-12T13:48:19Z</time>
      </trkpt>
      <trkpt lat="45.40464" lon="4.19156">
        <ele>771.2</ele>
        <time>2014-01-12T13:48:25Z</time>
      </trkpt>
      <trkpt lat="45.40487" lon="4.19192">
        <ele>769.9</ele>
        <time>2014-01-12T13:48:30Z</time>
      </trkpt>
      <trkpt lat="45.40516" lon="4.19233">
        <ele>769.1</ele>
        <time>2014-01-12T13:48:36Z</time>
      </trkpt>
      <trkpt lat="45.40539" lon="4.19265">
        <ele>768.6</ele>
        <time>2014-01-12T13:48:41Z</time>
      </trkpt>
      <trkpt lat="45.40562" lon="4.19296">
        <ele>769.4</ele>
        <time>2014-01-12T13:48:46Z</time>
      </trkpt>
      <trkpt lat="45.40574" lon="4.19314">
        <ele>769.6</ele>
        <time>2014-01-12T13:48:49Z</time>
      </trkpt>
      <trkpt lat="45.40599" lon="4.1935">
        <ele>769.9</ele>
        <time>2014-01-12T13:48:55Z</time>
      </trkpt>
      <trkpt lat="45.40625" lon="4.19387">
        <ele>770.6</ele>
        <time>2014-01-12T13:49:01Z</time>
      </trkpt>
      <trkpt lat="45.40652" lon="4.19424">
        <ele>769.7</ele>
        <time>2014-01-12T13:49:07Z</time>
      </trkpt>
      <trkpt lat="45.40678" lon="4.19462">
        <ele>769.3</ele>
        <time>2014-01-12T13:49:13Z</time>
      </trkpt>
      <trkpt lat="45.40706" lon="4.195">
        <ele>769.1</ele>
        <time>2014-01-12T13:49:19Z</time>
      </trkpt>
      <trkpt lat="45.40734" lon="4.1954">
        <ele>768.9</ele>
        <time>2014-01-12T13:49:25Z</time>
      </trkpt>
      <trkpt lat="45.4076" lon="4.1958">
        <ele>768.3</ele>
        <time>2014-01-12T13:49:31Z</time>
      </trkpt>
      <trkpt lat="45.40782" lon="4.19624">
        <ele>768.7</ele>
        <time>2014-01-12T13:49:37Z</time>
      </trkpt>
      <trkpt lat="45.40774" lon="4.19672">
        <ele>769.6</ele>
        <time>2014-01-12T13:49:43Z</time>
      </trkpt>
      <trkpt lat="45.40757" lon="4.19714">
        <ele>770.6</ele>
        <time>2014-01-12T13:49:49Z</time>
      </trkpt>
      <trkpt lat="45.40747" lon="4.19764">
        <ele>770.4</ele>
        <time>2014-01-12T13:49:56Z</time>
      </trkpt>
      <trkpt lat="45.40747" lon="4.198">
        <ele>769.6</ele>
        <time>2014-01-12T13:50:01Z</time>
      </trkpt>
      <trkpt lat="45.40758" lon="4.19845">
        <ele>768.4</ele>
        <time>2014-01-12T13:50:07Z</time>
      </trkpt>
      <trkpt lat="45.40746" lon="4.1988">
        <ele>768.1</ele>
        <time>2014-01-12T13:50:13Z</time>
      </trkpt>
      <trkpt lat="45.40719" lon="4.19895">
        <ele>767.8</ele>
        <time>2014-01-12T13:50:20Z</time>
      </trkpt>
      <trkpt lat="45.40698" lon="4.19904">
        <ele>766.8</ele>
        <time>2014-01-12T13:50:25Z</time>
      </trkpt>
      <trkpt lat="45.40676" lon="4.19914">
        <ele>766.7</ele>
        <time>2014-01-12T13:50:32Z</time>
      </trkpt>
      <trkpt lat="45.40651" lon="4.19935">
        <ele>766.6</ele>
        <time>2014-01-12T13:50:42Z</time>
      </trkpt>
      <trkpt lat="45.4065" lon="4.19973">
        <ele>765.7</ele>
        <time>2014-01-12T13:50:48Z</time>
      </trkpt>
      <trkpt lat="45.4065" lon="4.20005">
        <ele>765</ele>
        <time>2014-01-12T13:50:54Z</time>
      </trkpt>
      <trkpt lat="45.40649" lon="4.20027">
        <ele>765</ele>
        <time>2014-01-12T13:50:59Z</time>
      </trkpt>
      <trkpt lat="45.40645" lon="4.20061">
        <ele>765.2</ele>
        <time>2014-01-12T13:51:05Z</time>
      </trkpt>
      <trkpt lat="45.40639" lon="4.20095">
        <ele>764.2</ele>
        <time>2014-01-12T13:51:11Z</time>
      </trkpt>
      <trkpt lat="45.40637" lon="4.20122">
        <ele>763.7</ele>
        <time>2014-01-12T13:51:16Z</time>
      </trkpt>
      <trkpt lat="45.40631" lon="4.20156">
        <ele>763.7</ele>
        <time>2014-01-12T13:51:23Z</time>
      </trkpt>
      <trkpt lat="45.40615" lon="4.20195">
        <ele>762.8</ele>
        <time>2014-01-12T13:51:29Z</time>
      </trkpt>
      <trkpt lat="45.406" lon="4.20229">
        <ele>762.1</ele>
        <time>2014-01-12T13:51:34Z</time>
      </trkpt>
      <trkpt lat="45.40587" lon="4.20254">
        <ele>761.3</ele>
        <time>2014-01-12T13:51:40Z</time>
      </trkpt>
      <trkpt lat="45.40572" lon="4.20281">
        <ele>760.7</ele>
        <time>2014-01-12T13:51:48Z</time>
      </trkpt>
      <trkpt lat="45.4055" lon="4.20308">
        <ele>759.6</ele>
        <time>2014-01-12T13:51:54Z</time>
      </trkpt>
      <trkpt lat="45.40527" lon="4.20329">
        <ele>757.9</ele>
        <time>2014-01-12T13:51:59Z</time>
      </trkpt>
      <trkpt lat="45.40509" lon="4.20352">
        <ele>756</ele>
        <time>2014-01-12T13:52:04Z</time>
      </trkpt>
      <trkpt lat="45.40498" lon="4.20389">
        <ele>754.1</ele>
        <time>2014-01-12T13:52:10Z</time>
      </trkpt>
      <trkpt lat="45.40494" lon="4.20428">
        <ele>752.3</ele>
        <time>2014-01-12T13:52:15Z</time>
      </trkpt>
      <trkpt lat="45.40479" lon="4.20459">
        <ele>750.1</ele>
        <time>2014-01-12T13:52:21Z</time>
      </trkpt>
      <trkpt lat="45.40458" lon="4.20502">
        <ele>747.7</ele>
        <time>2014-01-12T13:52:27Z</time>
      </trkpt>
      <trkpt lat="45.40447" lon="4.20547">
        <ele>745.1</ele>
        <time>2014-01-12T13:52:33Z</time>
      </trkpt>
      <trkpt lat="45.40457" lon="4.2061">
        <ele>742.6</ele>
        <time>2014-01-12T13:52:39Z</time>
      </trkpt>
      <trkpt lat="45.40442" lon="4.20666">
        <ele>740</ele>
        <time>2014-01-12T13:52:46Z</time>
      </trkpt>
      <trkpt lat="45.40417" lon="4.20695">
        <ele>737.7</ele>
        <time>2014-01-12T13:52:52Z</time>
      </trkpt>
      <trkpt lat="45.40378" lon="4.20728">
        <ele>734.7</ele>
        <time>2014-01-12T13:52:59Z</time>
      </trkpt>
      <trkpt lat="45.40345" lon="4.20768">
        <ele>732.1</ele>
        <time>2014-01-12T13:53:05Z</time>
      </trkpt>
      <trkpt lat="45.40326" lon="4.20806">
        <ele>728.7</ele>
        <time>2014-01-12T13:53:10Z</time>
      </trkpt>
      <trkpt lat="45.40314" lon="4.20832">
        <ele>726.9</ele>
        <time>2014-01-12T13:53:13Z</time>
      </trkpt>
      <trkpt lat="45.40292" lon="4.20892">
        <ele>722.4</ele>
        <time>2014-01-12T13:53:19Z</time>
      </trkpt>
      <trkpt lat="45.40284" lon="4.20957">
        <ele>717.3</ele>
        <time>2014-01-12T13:53:25Z</time>
      </trkpt>
      <trkpt lat="45.40293" lon="4.21001">
        <ele>712</ele>
        <time>2014-01-12T13:53:31Z</time>
      </trkpt>
      <trkpt lat="45.40301" lon="4.21011">
        <ele>709.5</ele>
        <time>2014-01-12T13:53:34Z</time>
      </trkpt>
      <trkpt lat="45.40301" lon="4.21011">
        <ele>685.3</ele>
        <time>2014-01-12T13:53:39Z</time>
      </trkpt>
      <trkpt lat="45.40301" lon="4.21011">
        <ele>685.3</ele>
        <time>2014-01-12T13:54:52Z</time>
      </trkpt>
      <trkpt lat="45.40306" lon="4.2103">
        <ele>701.3</ele>
        <time>2014-01-12T13:54:52Z</time>
      </trkpt>
      <trkpt lat="45.403" lon="4.21062">
        <ele>700.6</ele>
        <time>2014-01-12T13:54:57Z</time>
      </trkpt>
      <trkpt lat="45.40264" lon="4.2108">
        <ele>698.9</ele>
        <time>2014-01-12T13:55:03Z</time>
      </trkpt>
      <trkpt lat="45.40228" lon="4.21097">
        <ele>697.7</ele>
        <time>2014-01-12T13:55:08Z</time>
      </trkpt>
      <trkpt lat="45.40186" lon="4.21124">
        <ele>696.1</ele>
        <time>2014-01-12T13:55:14Z</time>
      </trkpt>
      <trkpt lat="45.40157" lon="4.2115">
        <ele>694.5</ele>
        <time>2014-01-12T13:55:21Z</time>
      </trkpt>
      <trkpt lat="45.40172" lon="4.21192">
        <ele>692.2</ele>
        <time>2014-01-12T13:55:27Z</time>
      </trkpt>
      <trkpt lat="45.40156" lon="4.21236">
        <ele>690.2</ele>
        <time>2014-01-12T13:55:33Z</time>
      </trkpt>
      <trkpt lat="45.40156" lon="4.21273">
        <ele>688.3</ele>
        <time>2014-01-12T13:55:38Z</time>
      </trkpt>
      <trkpt lat="45.40172" lon="4.21319">
        <ele>685.9</ele>
        <time>2014-01-12T13:55:44Z</time>
      </trkpt>
      <trkpt lat="45.40178" lon="4.21353">
        <ele>682.6</ele>
        <time>2014-01-12T13:55:51Z</time>
      </trkpt>
      <trkpt lat="45.40132" lon="4.2137">
        <ele>679.3</ele>
        <time>2014-01-12T13:55:59Z</time>
      </trkpt>
      <trkpt lat="45.4009" lon="4.21367">
        <ele>676.5</ele>
        <time>2014-01-12T13:56:05Z</time>
      </trkpt>
      <trkpt lat="45.4006" lon="4.21383">
        <ele>674.4</ele>
        <time>2014-01-12T13:56:10Z</time>
      </trkpt>
      <trkpt lat="45.40047" lon="4.21396">
        <ele>673.4</ele>
        <time>2014-01-12T13:56:13Z</time>
      </trkpt>
      <trkpt lat="45.40043" lon="4.21411">
        <ele>661.5</ele>
        <time>2014-01-12T13:56:19Z</time>
      </trkpt>
      <trkpt lat="45.40044" lon="4.21454">
        <ele>649.3</ele>
        <time>2014-01-12T13:56:34Z</time>
      </trkpt>
      <trkpt lat="45.40049" lon="4.21513">
        <ele>639.4</ele>
        <time>2014-01-12T13:56:46Z</time>
      </trkpt>
      <trkpt lat="45.40038" lon="4.21539">
        <ele>633.9</ele>
        <time>2014-01-12T13:56:54Z</time>
      </trkpt>
      <trkpt lat="45.40051" lon="4.21568">
        <ele>623.5</ele>
        <time>2014-01-12T13:57:00Z</time>
      </trkpt>
      <trkpt lat="45.40055" lon="4.21596">
        <ele>613.8</ele>
        <time>2014-01-12T13:57:09Z</time>
      </trkpt>
      <trkpt lat="45.40045" lon="4.21612">
        <ele>607.5</ele>
        <time>2014-01-12T13:57:18Z</time>
      </trkpt>
      <trkpt lat="45.40045" lon="4.21612">
        <ele>607.5</ele>
        <time>2014-01-12T13:57:27Z</time>
      </trkpt>
      <trkpt lat="45.40045" lon="4.21612">
        <ele>562.9</ele>
        <time>2014-01-12T13:57:27Z</time>
      </trkpt>
      <trkpt lat="45.40045" lon="4.21612">
        <ele>562.9</ele>
        <time>2014-01-12T13:57:37Z</time>
      </trkpt>
      <trkpt lat="45.40032" lon="4.21615">
        <ele>601.7</ele>
        <time>2014-01-12T13:57:37Z</time>
      </trkpt>
      <trkpt lat="45.40011" lon="4.21625">
        <ele>599.2</ele>
        <time>2014-01-12T13:57:43Z</time>
      </trkpt>
      <trkpt lat="45.39984" lon="4.21635">
        <ele>595.6</ele>
        <time>2014-01-12T13:57:49Z</time>
      </trkpt>
      <trkpt lat="45.39963" lon="4.21642">
        <ele>592.1</ele>
        <time>2014-01-12T13:57:55Z</time>
      </trkpt>
      <trkpt lat="45.39929" lon="4.2166">
        <ele>589.3</ele>
        <time>2014-01-12T13:58:02Z</time>
      </trkpt>
      <trkpt lat="45.39907" lon="4.21675">
        <ele>586.9</ele>
        <time>2014-01-12T13:58:09Z</time>
      </trkpt>
      <trkpt lat="45.39872" lon="4.21673">
        <ele>583.5</ele>
        <time>2014-01-12T13:58:18Z</time>
      </trkpt>
      <trkpt lat="45.39842" lon="4.21684">
        <ele>581.1</ele>
        <time>2014-01-12T13:58:25Z</time>
      </trkpt>
      <trkpt lat="45.39824" lon="4.21706">
        <ele>578.5</ele>
        <time>2014-01-12T13:58:30Z</time>
      </trkpt>
      <trkpt lat="45.39803" lon="4.21732">
        <ele>575.1</ele>
        <time>2014-01-12T13:58:36Z</time>
      </trkpt>
      <trkpt lat="45.398" lon="4.21744">
        <ele>573.9</ele>
        <time>2014-01-12T13:58:38Z</time>
      </trkpt>
      <trkpt lat="45.398" lon="4.21744">
        <ele>512.3</ele>
        <time>2014-01-12T13:58:43Z</time>
      </trkpt>
      <trkpt lat="45.398" lon="4.21744">
        <ele>512.3</ele>
        <time>2014-01-12T13:58:47Z</time>
      </trkpt>
      <trkpt lat="45.39792" lon="4.21723">
        <ele>560.9</ele>
        <time>2014-01-12T13:58:47Z</time>
      </trkpt>
      <trkpt lat="45.39802" lon="4.21694">
        <ele>557.7</ele>
        <time>2014-01-12T13:58:52Z</time>
      </trkpt>
      <trkpt lat="45.39809" lon="4.21664">
        <ele>554.7</ele>
        <time>2014-01-12T13:58:57Z</time>
      </trkpt>
      <trkpt lat="45.3982" lon="4.2164">
        <ele>551.6</ele>
        <time>2014-01-12T13:59:02Z</time>
      </trkpt>
      <trkpt lat="45.39814" lon="4.21604">
        <ele>547.5</ele>
        <time>2014-01-12T13:59:09Z</time>
      </trkpt>
      <trkpt lat="45.39812" lon="4.21576">
        <ele>544.6</ele>
        <time>2014-01-12T13:59:14Z</time>
      </trkpt>
      <trkpt lat="45.39809" lon="4.21529">
        <ele>540.5</ele>
        <time>2014-01-12T13:59:21Z</time>
      </trkpt>
      <trkpt lat="45.398" lon="4.21528">
        <ele>537.1</ele>
        <time>2014-01-12T13:59:27Z</time>
      </trkpt>
      <trkpt lat="45.39777" lon="4.2157">
        <ele>530.3</ele>
        <time>2014-01-12T13:59:37Z</time>
      </trkpt>
      <trkpt lat="45.39769" lon="4.216">
        <ele>522.7</ele>
        <time>2014-01-12T13:59:44Z</time>
      </trkpt>
      <trkpt lat="45.39752" lon="4.21626">
        <ele>518.5</ele>
        <time>2014-01-12T13:59:50Z</time>
      </trkpt>
      <trkpt lat="45.39733" lon="4.21645">
        <ele>515.2</ele>
        <time>2014-01-12T13:59:55Z</time>
      </trkpt>
      <trkpt lat="45.39716" lon="4.21666">
        <ele>511.9</ele>
        <time>2014-01-12T14:00:00Z</time>
      </trkpt>
      <trkpt lat="45.39714" lon="4.21695">
        <ele>505.3</ele>
        <time>2014-01-12T14:00:07Z</time>
      </trkpt>
      <trkpt lat="45.39709" lon="4.21728">
        <ele>499.2</ele>
        <time>2014-01-12T14:00:15Z</time>
      </trkpt>
      <trkpt lat="45.3971" lon="4.21757">
        <ele>494.5</ele>
        <time>2014-01-12T14:00:21Z</time>
      </trkpt>
      <trkpt lat="45.39704" lon="4.21774">
        <ele>490.5</ele>
        <time>2014-01-12T14:00:26Z</time>
      </trkpt>
      <trkpt lat="45.39701" lon="4.21798">
        <ele>484.5</ele>
        <time>2014-01-12T14:00:35Z</time>
      </trkpt>
      <trkpt lat="45.39696" lon="4.21817">
        <ele>480.8</ele>
        <time>2014-01-12T14:00:42Z</time>
      </trkpt>
      <trkpt lat="45.39696" lon="4.2183">
        <ele>473.6</ele>
        <time>2014-01-12T14:00:54Z</time>
      </trkpt>
      <trkpt lat="45.3969" lon="4.21871">
        <ele>462.4</ele>
        <time>2014-01-12T14:01:08Z</time>
      </trkpt>
      <trkpt lat="45.3968" lon="4.21879">
        <ele>458</ele>
        <time>2014-01-12T14:01:14Z</time>
      </trkpt>
      <trkpt lat="45.39667" lon="4.2189">
        <ele>451.4</ele>
        <time>2014-01-12T14:01:23Z</time>
      </trkpt>
      <trkpt lat="45.39652" lon="4.21907">
        <ele>444.7</ele>
        <time>2014-01-12T14:01:34Z</time>
      </trkpt>
      <trkpt lat="45.39632" lon="4.21922">
        <ele>438.9</ele>
        <time>2014-01-12T14:01:44Z</time>
      </trkpt>
      <trkpt lat="45.39626" lon="4.2194">
        <ele>435.1</ele>
        <time>2014-01-12T14:01:52Z</time>
      </trkpt>
      <trkpt lat="45.39611" lon="4.2196">
        <ele>429.5</ele>
        <time>2014-01-12T14:02:05Z</time>
      </trkpt>
      <trkpt lat="45.39592" lon="4.21993">
        <ele>426.8</ele>
        <time>2014-01-12T14:02:15Z</time>
      </trkpt>
      <trkpt lat="45.3958" lon="4.22016">
        <ele>424.4</ele>
        <time>2014-01-12T14:02:22Z</time>
      </trkpt>
      <trkpt lat="45.39575" lon="4.22031">
        <ele>422.7</ele>
        <time>2014-01-12T14:02:27Z</time>
      </trkpt>
      <trkpt lat="45.39563" lon="4.22056">
        <ele>419.8</ele>
        <time>2014-01-12T14:02:39Z</time>
      </trkpt>
      <trkpt lat="45.39544" lon="4.2208">
        <ele>416.9</ele>
        <time>2014-01-12T14:02:48Z</time>
      </trkpt>
      <trkpt lat="45.39532" lon="4.22102">
        <ele>415.1</ele>
        <time>2014-01-12T14:02:54Z</time>
      </trkpt>
      <trkpt lat="45.39516" lon="4.22129">
        <ele>413.8</ele>
        <time>2014-01-12T14:03:03Z</time>
      </trkpt>
      <trkpt lat="45.39501" lon="4.22151">
        <ele>411.9</ele>
        <time>2014-01-12T14:03:13Z</time>
      </trkpt>
      <trkpt lat="45.3949" lon="4.22176">
        <ele>411.5</ele>
        <time>2014-01-12T14:03:24Z</time>
      </trkpt>
      <trkpt lat="45.39478" lon="4.22209">
        <ele>411.9</ele>
        <time>2014-01-12T14:03:36Z</time>
      </trkpt>
      <trkpt lat="45.39474" lon="4.22215">
        <ele>412.3</ele>
        <time>2014-01-12T14:03:38Z</time>
      </trkpt>
      <trkpt lat="45.39474" lon="4.22215">
        <ele>424.2</ele>
        <time>2014-01-12T14:03:43Z</time>
      </trkpt>
      <trkpt lat="45.39474" lon="4.22215">
        <ele>424.2</ele>
        <time>2014-01-12T14:04:15Z</time>
      </trkpt>
      <trkpt lat="45.39463" lon="4.22228">
        <ele>415.1</ele>
        <time>2014-01-12T14:04:15Z</time>
      </trkpt>
      <trkpt lat="45.39458" lon="4.22236">
        <ele>417.6</ele>
        <time>2014-01-12T14:04:28Z</time>
      </trkpt>
      <trkpt lat="45.39456" lon="4.22257">
        <ele>419.5</ele>
        <time>2014-01-12T14:04:41Z</time>
      </trkpt>
      <trkpt lat="45.39452" lon="4.22261">
        <ele>419.7</ele>
        <time>2014-01-12T14:04:46Z</time>
      </trkpt>
      <trkpt lat="45.39452" lon="4.22261">
        <ele>426.7</ele>
        <time>2014-01-12T14:04:53Z</time>
      </trkpt>
      <trkpt lat="45.39452" lon="4.22261">
        <ele>426.7</ele>
        <time>2014-01-12T14:05:04Z</time>
      </trkpt>
      <trkpt lat="45.39448" lon="4.22266">
        <ele>420.7</ele>
        <time>2014-01-12T14:05:04Z</time>
      </trkpt>
      <trkpt lat="45.39431" lon="4.22236">
        <ele>426.4</ele>
        <time>2014-01-12T14:05:56Z</time>
      </trkpt>
      <trkpt lat="45.3944" lon="4.22205">
        <ele>430.5</ele>
        <time>2014-01-12T14:06:12Z</time>
      </trkpt>
      <trkpt lat="45.39442" lon="4.22191">
        <ele>431.9</ele>
        <time>2014-01-12T14:06:18Z</time>
      </trkpt>
      <trkpt lat="45.39445" lon="4.22164">
        <ele>435.4</ele>
        <time>2014-01-12T14:06:30Z</time>
      </trkpt>
      <trkpt lat="45.39445" lon="4.2215">
        <ele>436.9</ele>
        <time>2014-01-12T14:06:37Z</time>
      </trkpt>
      <trkpt lat="45.39445" lon="4.2215">
        <ele>446.7</ele>
        <time>2014-01-12T14:06:45Z</time>
      </trkpt>
      <trkpt lat="45.39445" lon="4.2215">
        <ele>446.7</ele>
        <time>2014-01-12T14:07:08Z</time>
      </trkpt>
      <trkpt lat="45.39435" lon="4.22184">
        <ele>440.8</ele>
        <time>2014-01-12T14:07:08Z</time>
      </trkpt>
      <trkpt lat="45.39421" lon="4.22195">
        <ele>441.3</ele>
        <time>2014-01-12T14:07:20Z</time>
      </trkpt>
      <trkpt lat="45.394" lon="4.22212">
        <ele>442.9</ele>
        <time>2014-01-12T14:07:40Z</time>
      </trkpt>
      <trkpt lat="45.39397" lon="4.22214">
        <ele>443.1</ele>
        <time>2014-01-12T14:07:42Z</time>
      </trkpt>
      <trkpt lat="45.39397" lon="4.22214">
        <ele>457.9</ele>
        <time>2014-01-12T14:07:49Z</time>
      </trkpt>
      <trkpt lat="45.39397" lon="4.22214">
        <ele>457.9</ele>
        <time>2014-01-12T14:07:56Z</time>
      </trkpt>
      <trkpt lat="45.39386" lon="4.22217">
        <ele>445</ele>
        <time>2014-01-12T14:07:56Z</time>
      </trkpt>
      <trkpt lat="45.39386" lon="4.22217">
        <ele>445</ele>
        <time>2014-01-12T14:08:04Z</time>
      </trkpt>
      <trkpt lat="45.39386" lon="4.22217">
        <ele>460.9</ele>
        <time>2014-01-12T14:08:04Z</time>
      </trkpt>
      <trkpt lat="45.39386" lon="4.22217">
        <ele>460.9</ele>
        <time>2014-01-12T14:08:28Z</time>
      </trkpt>
      <trkpt lat="45.39369" lon="4.22231">
        <ele>449.9</ele>
        <time>2014-01-12T14:08:28Z</time>
      </trkpt>
      <trkpt lat="45.39356" lon="4.22259">
        <ele>453.6</ele>
        <time>2014-01-12T14:08:44Z</time>
      </trkpt>
      <trkpt lat="45.39347" lon="4.22288">
        <ele>458.2</ele>
        <time>2014-01-12T14:09:01Z</time>
      </trkpt>
      <trkpt lat="45.39336" lon="4.22304">
        <ele>460.2</ele>
        <time>2014-01-12T14:09:14Z</time>
      </trkpt>
      <trkpt lat="45.39316" lon="4.22321">
        <ele>463.9</ele>
        <time>2014-01-12T14:09:29Z</time>
      </trkpt>
      <trkpt lat="45.39293" lon="4.22337">
        <ele>467.3</ele>
        <time>2014-01-12T14:09:43Z</time>
      </trkpt>
      <trkpt lat="45.39275" lon="4.22348">
        <ele>470.2</ele>
        <time>2014-01-12T14:09:55Z</time>
      </trkpt>
      <trkpt lat="45.39257" lon="4.22358">
        <ele>474.5</ele>
        <time>2014-01-12T14:10:08Z</time>
      </trkpt>
      <trkpt lat="45.39242" lon="4.22363">
        <ele>478.1</ele>
        <time>2014-01-12T14:10:19Z</time>
      </trkpt>
      <trkpt lat="45.39211" lon="4.22369">
        <ele>484.3</ele>
        <time>2014-01-12T14:10:36Z</time>
      </trkpt>
      <trkpt lat="45.39197" lon="4.22371">
        <ele>488.1</ele>
        <time>2014-01-12T14:10:45Z</time>
      </trkpt>
      <trkpt lat="45.39182" lon="4.22366">
        <ele>491</ele>
        <time>2014-01-12T14:10:56Z</time>
      </trkpt>
      <trkpt lat="45.39166" lon="4.22361">
        <ele>493.1</ele>
        <time>2014-01-12T14:11:06Z</time>
      </trkpt>
      <trkpt lat="45.39148" lon="4.22354">
        <ele>494.9</ele>
        <time>2014-01-12T14:11:15Z</time>
      </trkpt>
      <trkpt lat="45.3913" lon="4.22344">
        <ele>497.3</ele>
        <time>2014-01-12T14:11:26Z</time>
      </trkpt>
      <trkpt lat="45.39114" lon="4.2233">
        <ele>501.4</ele>
        <time>2014-01-12T14:11:38Z</time>
      </trkpt>
      <trkpt lat="45.39106" lon="4.22322">
        <ele>502.9</ele>
        <time>2014-01-12T14:11:44Z</time>
      </trkpt>
      <trkpt lat="45.39096" lon="4.22304">
        <ele>505.6</ele>
        <time>2014-01-12T14:11:54Z</time>
      </trkpt>
      <trkpt lat="45.39076" lon="4.22289">
        <ele>510.1</ele>
        <time>2014-01-12T14:12:11Z</time>
      </trkpt>
      <trkpt lat="45.39076" lon="4.22289">
        <ele>510.1</ele>
        <time>2014-01-12T14:12:18Z</time>
      </trkpt>
      <trkpt lat="45.39076" lon="4.22289">
        <ele>505.1</ele>
        <time>2014-01-12T14:12:18Z</time>
      </trkpt>
      <trkpt lat="45.39076" lon="4.22289">
        <ele>505.1</ele>
        <time>2014-01-12T14:12:24Z</time>
      </trkpt>
      <trkpt lat="45.39092" lon="4.22282">
        <ele>513.3</ele>
        <time>2014-01-12T14:12:24Z</time>
      </trkpt>
      <trkpt lat="45.39107" lon="4.2229">
        <ele>513</ele>
        <time>2014-01-12T14:12:34Z</time>
      </trkpt>
      <trkpt lat="45.39124" lon="4.22295">
        <ele>515.6</ele>
        <time>2014-01-12T14:12:46Z</time>
      </trkpt>
      <trkpt lat="45.39144" lon="4.22297">
        <ele>520.4</ele>
        <time>2014-01-12T14:13:02Z</time>
      </trkpt>
      <trkpt lat="45.39162" lon="4.22304">
        <ele>527.4</ele>
        <time>2014-01-12T14:13:16Z</time>
      </trkpt>
      <trkpt lat="45.39177" lon="4.22309">
        <ele>529.5</ele>
        <time>2014-01-12T14:13:25Z</time>
      </trkpt>
      <trkpt lat="45.39192" lon="4.22299">
        <ele>533.1</ele>
        <time>2014-01-12T14:13:38Z</time>
      </trkpt>
      <trkpt lat="45.39181" lon="4.22286">
        <ele>537.7</ele>
        <time>2014-01-12T14:13:56Z</time>
      </trkpt>
      <trkpt lat="45.39172" lon="4.22278">
        <ele>540.3</ele>
        <time>2014-01-12T14:14:04Z</time>
      </trkpt>
      <trkpt lat="45.3916" lon="4.22267">
        <ele>542.8</ele>
        <time>2014-01-12T14:14:13Z</time>
      </trkpt>
      <trkpt lat="45.39142" lon="4.22247">
        <ele>546</ele>
        <time>2014-01-12T14:14:27Z</time>
      </trkpt>
      <trkpt lat="45.39129" lon="4.22232">
        <ele>549.3</ele>
        <time>2014-01-12T14:14:39Z</time>
      </trkpt>
      <trkpt lat="45.3911" lon="4.22211">
        <ele>553.8</ele>
        <time>2014-01-12T14:14:53Z</time>
      </trkpt>
      <trkpt lat="45.39103" lon="4.22201">
        <ele>556</ele>
        <time>2014-01-12T14:15:00Z</time>
      </trkpt>
      <trkpt lat="45.39086" lon="4.22197">
        <ele>558.8</ele>
        <time>2014-01-12T14:15:12Z</time>
      </trkpt>
      <trkpt lat="45.39069" lon="4.22191">
        <ele>561.5</ele>
        <time>2014-01-12T14:15:24Z</time>
      </trkpt>
      <trkpt lat="45.39054" lon="4.22182">
        <ele>562.8</ele>
        <time>2014-01-12T14:15:37Z</time>
      </trkpt>
      <trkpt lat="45.3905" lon="4.22169">
        <ele>564.7</ele>
        <time>2014-01-12T14:15:45Z</time>
      </trkpt>
      <trkpt lat="45.3905" lon="4.22169">
        <ele>548.8</ele>
        <time>2014-01-12T14:15:53Z</time>
      </trkpt>
      <trkpt lat="45.3905" lon="4.22169">
        <ele>548.8</ele>
        <time>2014-01-12T14:16:25Z</time>
      </trkpt>
      <trkpt lat="45.39065" lon="4.22166">
        <ele>562.7</ele>
        <time>2014-01-12T14:16:25Z</time>
      </trkpt>
      <trkpt lat="45.39084" lon="4.22156">
        <ele>563.4</ele>
        <time>2014-01-12T14:16:40Z</time>
      </trkpt>
      <trkpt lat="45.39104" lon="4.22151">
        <ele>564</ele>
        <time>2014-01-12T14:16:54Z</time>
      </trkpt>
      <trkpt lat="45.39124" lon="4.22149">
        <ele>566.2</ele>
        <time>2014-01-12T14:17:09Z</time>
      </trkpt>
      <trkpt lat="45.39143" lon="4.2215">
        <ele>569.2</ele>
        <time>2014-01-12T14:17:20Z</time>
      </trkpt>
      <trkpt lat="45.39161" lon="4.22151">
        <ele>572.6</ele>
        <time>2014-01-12T14:17:34Z</time>
      </trkpt>
      <trkpt lat="45.39181" lon="4.22146">
        <ele>576.9</ele>
        <time>2014-01-12T14:17:51Z</time>
      </trkpt>
      <trkpt lat="45.39194" lon="4.22134">
        <ele>578.2</ele>
        <time>2014-01-12T14:18:02Z</time>
      </trkpt>
      <trkpt lat="45.39197" lon="4.22114">
        <ele>582.2</ele>
        <time>2014-01-12T14:18:15Z</time>
      </trkpt>
      <trkpt lat="45.39195" lon="4.22094">
        <ele>585.7</ele>
        <time>2014-01-12T14:18:27Z</time>
      </trkpt>
      <trkpt lat="45.39195" lon="4.22094">
        <ele>583.7</ele>
        <time>2014-01-12T14:18:34Z</time>
      </trkpt>
      <trkpt lat="45.39195" lon="4.22094">
        <ele>583.7</ele>
        <time>2014-01-12T14:18:52Z</time>
      </trkpt>
      <trkpt lat="45.39185" lon="4.2211">
        <ele>590.2</ele>
        <time>2014-01-12T14:18:52Z</time>
      </trkpt>
      <trkpt lat="45.39173" lon="4.22102">
        <ele>591.7</ele>
        <time>2014-01-12T14:19:01Z</time>
      </trkpt>
      <trkpt lat="45.39158" lon="4.22091">
        <ele>594.3</ele>
        <time>2014-01-12T14:19:14Z</time>
      </trkpt>
      <trkpt lat="45.39142" lon="4.2207">
        <ele>598.4</ele>
        <time>2014-01-12T14:19:29Z</time>
      </trkpt>
      <trkpt lat="45.39135" lon="4.22066">
        <ele>599.8</ele>
        <time>2014-01-12T14:19:34Z</time>
      </trkpt>
      <trkpt lat="45.39135" lon="4.22066">
        <ele>593.8</ele>
        <time>2014-01-12T14:19:41Z</time>
      </trkpt>
      <trkpt lat="45.39135" lon="4.22066">
        <ele>593.8</ele>
        <time>2014-01-12T14:19:48Z</time>
      </trkpt>
      <trkpt lat="45.39129" lon="4.22054">
        <ele>602.6</ele>
        <time>2014-01-12T14:19:48Z</time>
      </trkpt>
      <trkpt lat="45.39128" lon="4.22051">
        <ele>603.4</ele>
        <time>2014-01-12T14:19:52Z</time>
      </trkpt>
      <trkpt lat="45.39128" lon="4.22051">
        <ele>595.8</ele>
        <time>2014-01-12T14:19:59Z</time>
      </trkpt>
      <trkpt lat="45.39128" lon="4.22051">
        <ele>595.8</ele>
        <time>2014-01-12T14:20:43Z</time>
      </trkpt>
      <trkpt lat="45.39118" lon="4.22017">
        <ele>602.6</ele>
        <time>2014-01-12T14:20:43Z</time>
      </trkpt>
      <trkpt lat="45.39107" lon="4.2199">
        <ele>600.9</ele>
        <time>2014-01-12T14:20:55Z</time>
      </trkpt>
      <trkpt lat="45.39092" lon="4.21987">
        <ele>598</ele>
        <time>2014-01-12T14:21:08Z</time>
      </trkpt>
      <trkpt lat="45.39092" lon="4.21987">
        <ele>598</ele>
        <time>2014-01-12T14:21:15Z</time>
      </trkpt>
      <trkpt lat="45.39092" lon="4.21987">
        <ele>575.4</ele>
        <time>2014-01-12T14:21:15Z</time>
      </trkpt>
      <trkpt lat="45.39092" lon="4.21987">
        <ele>575.4</ele>
        <time>2014-01-12T14:21:22Z</time>
      </trkpt>
      <trkpt lat="45.39082" lon="4.21976">
        <ele>594.8</ele>
        <time>2014-01-12T14:21:22Z</time>
      </trkpt>
      <trkpt lat="45.39064" lon="4.2197">
        <ele>592.6</ele>
        <time>2014-01-12T14:21:32Z</time>
      </trkpt>
      <trkpt lat="45.39038" lon="4.21985">
        <ele>588.5</ele>
        <time>2014-01-12T14:21:42Z</time>
      </trkpt>
      <trkpt lat="45.39031" lon="4.21982">
        <ele>587.2</ele>
        <time>2014-01-12T14:21:45Z</time>
      </trkpt>
      <trkpt lat="45.39031" lon="4.21982">
        <ele>550.5</ele>
        <time>2014-01-12T14:21:50Z</time>
      </trkpt>
      <trkpt lat="45.39031" lon="4.21982">
        <ele>550.5</ele>
        <time>2014-01-12T14:21:55Z</time>
      </trkpt>
      <trkpt lat="45.39025" lon="4.21985">
        <ele>583</ele>
        <time>2014-01-12T14:21:55Z</time>
      </trkpt>
      <trkpt lat="45.38994" lon="4.21988">
        <ele>574.6</ele>
        <time>2014-01-12T14:22:07Z</time>
      </trkpt>
      <trkpt lat="45.38999" lon="4.21938">
        <ele>567.5</ele>
        <time>2014-01-12T14:22:21Z</time>
      </trkpt>
      <trkpt lat="45.39001" lon="4.21918">
        <ele>565</ele>
        <time>2014-01-12T14:22:27Z</time>
      </trkpt>
      <trkpt lat="45.39" lon="4.2189">
        <ele>558.1</ele>
        <time>2014-01-12T14:22:37Z</time>
      </trkpt>
      <trkpt lat="45.38986" lon="4.2188">
        <ele>552</ele>
        <time>2014-01-12T14:22:46Z</time>
      </trkpt>
      <trkpt lat="45.38963" lon="4.21871">
        <ele>547.1</ele>
        <time>2014-01-12T14:22:55Z</time>
      </trkpt>
      <trkpt lat="45.38935" lon="4.21865">
        <ele>543.2</ele>
        <time>2014-01-12T14:23:05Z</time>
      </trkpt>
      <trkpt lat="45.3891" lon="4.21861">
        <ele>540.4</ele>
        <time>2014-01-12T14:23:12Z</time>
      </trkpt>
      <trkpt lat="45.38885" lon="4.21844">
        <ele>536.5</ele>
        <time>2014-01-12T14:23:20Z</time>
      </trkpt>
      <trkpt lat="45.38877" lon="4.21832">
        <ele>533.5</ele>
        <time>2014-01-12T14:23:27Z</time>
      </trkpt>
      <trkpt lat="45.38847" lon="4.21811">
        <ele>526.4</ele>
        <time>2014-01-12T14:23:43Z</time>
      </trkpt>
      <trkpt lat="45.38823" lon="4.21811">
        <ele>524.1</ele>
        <time>2014-01-12T14:23:49Z</time>
      </trkpt>
      <trkpt lat="45.38795" lon="4.21802">
        <ele>520.2</ele>
        <time>2014-01-12T14:23:56Z</time>
      </trkpt>
      <trkpt lat="45.38777" lon="4.21806">
        <ele>517</ele>
        <time>2014-01-12T14:24:01Z</time>
      </trkpt>
      <trkpt lat="45.38759" lon="4.21804">
        <ele>512.8</ele>
        <time>2014-01-12T14:24:08Z</time>
      </trkpt>
      <trkpt lat="45.38732" lon="4.21814">
        <ele>508.2</ele>
        <time>2014-01-12T14:24:14Z</time>
      </trkpt>
      <trkpt lat="45.38718" lon="4.21811">
        <ele>502.8</ele>
        <time>2014-01-12T14:24:18Z</time>
      </trkpt>
      <trkpt lat="45.38699" lon="4.21801">
        <ele>494.5</ele>
        <time>2014-01-12T14:24:23Z</time>
      </trkpt>
      <trkpt lat="45.38704" lon="4.21786">
        <ele>486.9</ele>
        <time>2014-01-12T14:24:28Z</time>
      </trkpt>
      <trkpt lat="45.38706" lon="4.2177">
        <ele>480.8</ele>
        <time>2014-01-12T14:24:33Z</time>
      </trkpt>
      <trkpt lat="45.38678" lon="4.21746">
        <ele>475</ele>
        <time>2014-01-12T14:24:39Z</time>
      </trkpt>
      <trkpt lat="45.38656" lon="4.2175">
        <ele>462.8</ele>
        <time>2014-01-12T14:24:46Z</time>
      </trkpt>
      <trkpt lat="45.38638" lon="4.21776">
        <ele>453.7</ele>
        <time>2014-01-12T14:24:53Z</time>
      </trkpt>
      <trkpt lat="45.38623" lon="4.21789">
        <ele>448.7</ele>
        <time>2014-01-12T14:24:57Z</time>
      </trkpt>
      <trkpt lat="45.38616" lon="4.21804">
        <ele>443.2</ele>
        <time>2014-01-12T14:25:01Z</time>
      </trkpt>
      <trkpt lat="45.38616" lon="4.21804">
        <ele>427.7</ele>
        <time>2014-01-12T14:25:07Z</time>
      </trkpt>
      <trkpt lat="45.38616" lon="4.21804">
        <ele>427.7</ele>
        <time>2014-01-12T14:25:12Z</time>
      </trkpt>
      <trkpt lat="45.38615" lon="4.21779">
        <ele>430.8</ele>
        <time>2014-01-12T14:25:12Z</time>
      </trkpt>
      <trkpt lat="45.3861" lon="4.21764">
        <ele>425.6</ele>
        <time>2014-01-12T14:25:18Z</time>
      </trkpt>
      <trkpt lat="45.3861" lon="4.21764">
        <ele>423.2</ele>
        <time>2014-01-12T14:25:25Z</time>
      </trkpt>
      <trkpt lat="45.3861" lon="4.21764">
        <ele>423.2</ele>
        <time>2014-01-12T14:25:35Z</time>
      </trkpt>
      <trkpt lat="45.38602" lon="4.21785">
        <ele>415.3</ele>
        <time>2014-01-12T14:25:35Z</time>
      </trkpt>
      <trkpt lat="45.38594" lon="4.21811">
        <ele>410.2</ele>
        <time>2014-01-12T14:25:48Z</time>
      </trkpt>
      <trkpt lat="45.38574" lon="4.21813">
        <ele>408.5</ele>
        <time>2014-01-12T14:25:56Z</time>
      </trkpt>
      <trkpt lat="45.38567" lon="4.2181">
        <ele>407.8</ele>
        <time>2014-01-12T14:25:59Z</time>
      </trkpt>
      <trkpt lat="45.38567" lon="4.2181">
        <ele>430.2</ele>
        <time>2014-01-12T14:26:06Z</time>
      </trkpt>
      <trkpt lat="45.38567" lon="4.2181">
        <ele>430.2</ele>
        <time>2014-01-12T14:28:34Z</time>
      </trkpt>
      <trkpt lat="45.38547" lon="4.21793">
        <ele>406.6</ele>
        <time>2014-01-12T14:28:34Z</time>
      </trkpt>
      <trkpt lat="45.38532" lon="4.21793">
        <ele>407.2</ele>
        <time>2014-01-12T14:28:39Z</time>
      </trkpt>
      <trkpt lat="45.38513" lon="4.21791">
        <ele>408</ele>
        <time>2014-01-12T14:28:45Z</time>
      </trkpt>
      <trkpt lat="45.38496" lon="4.21779">
        <ele>408.7</ele>
        <time>2014-01-12T14:28:50Z</time>
      </trkpt>
      <trkpt lat="45.38473" lon="4.21772">
        <ele>410.4</ele>
        <time>2014-01-12T14:28:57Z</time>
      </trkpt>
      <trkpt lat="45.3845" lon="4.21767">
        <ele>411.8</ele>
        <time>2014-01-12T14:29:04Z</time>
      </trkpt>
      <trkpt lat="45.38429" lon="4.21765">
        <ele>414.1</ele>
        <time>2014-01-12T14:29:10Z</time>
      </trkpt>
      <trkpt lat="45.38403" lon="4.21774">
        <ele>415.6</ele>
        <time>2014-01-12T14:29:16Z</time>
      </trkpt>
      <trkpt lat="45.38379" lon="4.21772">
        <ele>416.7</ele>
        <time>2014-01-12T14:29:20Z</time>
      </trkpt>
      <trkpt lat="45.38358" lon="4.21774">
        <ele>417.4</ele>
        <time>2014-01-12T14:29:23Z</time>
      </trkpt>
      <trkpt lat="45.38326" lon="4.21777">
        <ele>417.2</ele>
        <time>2014-01-12T14:29:29Z</time>
      </trkpt>
      <trkpt lat="45.38315" lon="4.21762">
        <ele>417.9</ele>
        <time>2014-01-12T14:29:33Z</time>
      </trkpt>
      <trkpt lat="45.38302" lon="4.21746">
        <ele>420</ele>
        <time>2014-01-12T14:29:39Z</time>
      </trkpt>
      <trkpt lat="45.38287" lon="4.21727">
        <ele>421.9</ele>
        <time>2014-01-12T14:29:48Z</time>
      </trkpt>
      <trkpt lat="45.38272" lon="4.21707">
        <ele>422.9</ele>
        <time>2014-01-12T14:29:57Z</time>
      </trkpt>
      <trkpt lat="45.38237" lon="4.21718">
        <ele>424.1</ele>
        <time>2014-01-12T14:30:05Z</time>
      </trkpt>
      <trkpt lat="45.3822" lon="4.21737">
        <ele>424</ele>
        <time>2014-01-12T14:30:09Z</time>
      </trkpt>
      <trkpt lat="45.38188" lon="4.21727">
        <ele>423.5</ele>
        <time>2014-01-12T14:30:17Z</time>
      </trkpt>
      <trkpt lat="45.38168" lon="4.21706">
        <ele>423.5</ele>
        <time>2014-01-12T14:30:22Z</time>
      </trkpt>
      <trkpt lat="45.38146" lon="4.21684">
        <ele>423.6</ele>
        <time>2014-01-12T14:30:28Z</time>
      </trkpt>
      <trkpt lat="45.38126" lon="4.21661">
        <ele>423.3</ele>
        <time>2014-01-12T14:30:33Z</time>
      </trkpt>
      <trkpt lat="45.38098" lon="4.21634">
        <ele>423.6</ele>
        <time>2014-01-12T14:30:40Z</time>
      </trkpt>
      <trkpt lat="45.38079" lon="4.21614">
        <ele>423.8</ele>
        <time>2014-01-12T14:30:45Z</time>
      </trkpt>
      <trkpt lat="45.38063" lon="4.2158">
        <ele>424.4</ele>
        <time>2014-01-12T14:30:51Z</time>
      </trkpt>
      <trkpt lat="45.38047" lon="4.21528">
        <ele>422.3</ele>
        <time>2014-01-12T14:30:59Z</time>
      </trkpt>
      <trkpt lat="45.38038" lon="4.21495">
        <ele>421.1</ele>
        <time>2014-01-12T14:31:04Z</time>
      </trkpt>
      <trkpt lat="45.38033" lon="4.21476">
        <ele>420.8</ele>
        <time>2014-01-12T14:31:07Z</time>
      </trkpt>
      <trkpt lat="45.38028" lon="4.21437">
        <ele>420.8</ele>
        <time>2014-01-12T14:31:14Z</time>
      </trkpt>
      <trkpt lat="45.38038" lon="4.21414">
        <ele>423.1</ele>
        <time>2014-01-12T14:31:21Z</time>
      </trkpt>
      <trkpt lat="45.38054" lon="4.21392">
        <ele>424.9</ele>
        <time>2014-01-12T14:31:33Z</time>
      </trkpt>
      <trkpt lat="45.38053" lon="4.21371">
        <ele>427.4</ele>
        <time>2014-01-12T14:31:42Z</time>
      </trkpt>
      <trkpt lat="45.3805" lon="4.21336">
        <ele>429.5</ele>
        <time>2014-01-12T14:31:55Z</time>
      </trkpt>
      <trkpt lat="45.38051" lon="4.21308">
        <ele>431.4</ele>
        <time>2014-01-12T14:32:06Z</time>
      </trkpt>
      <trkpt lat="45.38052" lon="4.21283">
        <ele>432.8</ele>
        <time>2014-01-12T14:32:15Z</time>
      </trkpt>
      <trkpt lat="45.3805" lon="4.21263">
        <ele>434.7</ele>
        <time>2014-01-12T14:32:23Z</time>
      </trkpt>
      <trkpt lat="45.38034" lon="4.21212">
        <ele>436.2</ele>
        <time>2014-01-12T14:32:34Z</time>
      </trkpt>
      <trkpt lat="45.38021" lon="4.21182">
        <ele>437</ele>
        <time>2014-01-12T14:32:40Z</time>
      </trkpt>
      <trkpt lat="45.38005" lon="4.21155">
        <ele>437.7</ele>
        <time>2014-01-12T14:32:45Z</time>
      </trkpt>
      <trkpt lat="45.3799" lon="4.21118">
        <ele>436.9</ele>
        <time>2014-01-12T14:32:51Z</time>
      </trkpt>
      <trkpt lat="45.37976" lon="4.21083">
        <ele>436.1</ele>
        <time>2014-01-12T14:32:57Z</time>
      </trkpt>
      <trkpt lat="45.37959" lon="4.21048">
        <ele>435.7</ele>
        <time>2014-01-12T14:33:03Z</time>
      </trkpt>
      <trkpt lat="45.37945" lon="4.21009">
        <ele>435.3</ele>
        <time>2014-01-12T14:33:09Z</time>
      </trkpt>
      <trkpt lat="45.37932" lon="4.20969">
        <ele>434.2</ele>
        <time>2014-01-12T14:33:15Z</time>
      </trkpt>
      <trkpt lat="45.37927" lon="4.20935">
        <ele>433.3</ele>
        <time>2014-01-12T14:33:20Z</time>
      </trkpt>
      <trkpt lat="45.37924" lon="4.20914">
        <ele>433.2</ele>
        <time>2014-01-12T14:33:23Z</time>
      </trkpt>
      <trkpt lat="45.37917" lon="4.20882">
        <ele>432.8</ele>
        <time>2014-01-12T14:33:28Z</time>
      </trkpt>
      <trkpt lat="45.37907" lon="4.2085">
        <ele>433.4</ele>
        <time>2014-01-12T14:33:35Z</time>
      </trkpt>
      <trkpt lat="45.37904" lon="4.20836">
        <ele>434.1</ele>
        <time>2014-01-12T14:33:39Z</time>
      </trkpt>
      <trkpt lat="45.37911" lon="4.20814">
        <ele>435.9</ele>
        <time>2014-01-12T14:33:46Z</time>
      </trkpt>
      <trkpt lat="45.37915" lon="4.20793">
        <ele>437.3</ele>
        <time>2014-01-12T14:33:52Z</time>
      </trkpt>
      <trkpt lat="45.37913" lon="4.20766">
        <ele>439.4</ele>
        <time>2014-01-12T14:34:00Z</time>
      </trkpt>
      <trkpt lat="45.37917" lon="4.20736">
        <ele>439.9</ele>
        <time>2014-01-12T14:34:05Z</time>
      </trkpt>
      <trkpt lat="45.37929" lon="4.20711">
        <ele>439.8</ele>
        <time>2014-01-12T14:34:10Z</time>
      </trkpt>
      <trkpt lat="45.37952" lon="4.2069">
        <ele>439.6</ele>
        <time>2014-01-12T14:34:17Z</time>
      </trkpt>
      <trkpt lat="45.37952" lon="4.2069">
        <ele>439.6</ele>
        <time>2014-01-12T14:34:23Z</time>
      </trkpt>
      <trkpt lat="45.37952" lon="4.2069">
        <ele>444.6</ele>
        <time>2014-01-12T14:34:23Z</time>
      </trkpt>
      <trkpt lat="45.37952" lon="4.2069">
        <ele>444.6</ele>
        <time>2014-01-12T14:34:46Z</time>
      </trkpt>
      <trkpt lat="45.37961" lon="4.20665">
        <ele>439.9</ele>
        <time>2014-01-12T14:34:46Z</time>
      </trkpt>
      <trkpt lat="45.3797" lon="4.20641">
        <ele>439.2</ele>
        <time>2014-01-12T14:34:49Z</time>
      </trkpt>
      <trkpt lat="45.37953" lon="4.20597">
        <ele>437.9</ele>
        <time>2014-01-12T14:34:55Z</time>
      </trkpt>
      <trkpt lat="45.37929" lon="4.20597">
        <ele>436.4</ele>
        <time>2014-01-12T14:35:01Z</time>
      </trkpt>
      <trkpt lat="45.37908" lon="4.2058">
        <ele>436.4</ele>
        <time>2014-01-12T14:35:08Z</time>
      </trkpt>
      <trkpt lat="45.37897" lon="4.20555">
        <ele>436.8</ele>
        <time>2014-01-12T14:35:14Z</time>
      </trkpt>
      <trkpt lat="45.37885" lon="4.20528">
        <ele>436.9</ele>
        <time>2014-01-12T14:35:20Z</time>
      </trkpt>
      <trkpt lat="45.37877" lon="4.20513">
        <ele>437.4</ele>
        <time>2014-01-12T14:35:23Z</time>
      </trkpt>
      <trkpt lat="45.3787" lon="4.20498">
        <ele>437.8</ele>
        <time>2014-01-12T14:35:26Z</time>
      </trkpt>
      <trkpt lat="45.37864" lon="4.20485">
        <ele>438.4</ele>
        <time>2014-01-12T14:35:29Z</time>
      </trkpt>
      <trkpt lat="45.37853" lon="4.20453">
        <ele>439.6</ele>
        <time>2014-01-12T14:35:35Z</time>
      </trkpt>
      <trkpt lat="45.37846" lon="4.20426">
        <ele>440.3</ele>
        <time>2014-01-12T14:35:40Z</time>
      </trkpt>
      <trkpt lat="45.37838" lon="4.20391">
        <ele>441.4</ele>
        <time>2014-01-12T14:35:46Z</time>
      </trkpt>
      <trkpt lat="45.37829" lon="4.20365">
        <ele>442.2</ele>
        <time>2014-01-12T14:35:51Z</time>
      </trkpt>
      <trkpt lat="45.37814" lon="4.20329">
        <ele>442.2</ele>
        <time>2014-01-12T14:35:57Z</time>
      </trkpt>
      <trkpt lat="45.37801" lon="4.20288">
        <ele>442.2</ele>
        <time>2014-01-12T14:36:03Z</time>
      </trkpt>
      <trkpt lat="45.37785" lon="4.20239">
        <ele>443</ele>
        <time>2014-01-12T14:36:10Z</time>
      </trkpt>
      <trkpt lat="45.37767" lon="4.20189">
        <ele>444</ele>
        <time>2014-01-12T14:36:17Z</time>
      </trkpt>
      <trkpt lat="45.37753" lon="4.20154">
        <ele>444.7</ele>
        <time>2014-01-12T14:36:22Z</time>
      </trkpt>
      <trkpt lat="45.37745" lon="4.20135">
        <ele>445.2</ele>
        <time>2014-01-12T14:36:25Z</time>
      </trkpt>
      <trkpt lat="45.37733" lon="4.20104">
        <ele>445.7</ele>
        <time>2014-01-12T14:36:30Z</time>
      </trkpt>
      <trkpt lat="45.37714" lon="4.20071">
        <ele>446.5</ele>
        <time>2014-01-12T14:36:36Z</time>
      </trkpt>
      <trkpt lat="45.37691" lon="4.20037">
        <ele>447</ele>
        <time>2014-01-12T14:36:42Z</time>
      </trkpt>
      <trkpt lat="45.3767" lon="4.20006">
        <ele>447.2</ele>
        <time>2014-01-12T14:36:47Z</time>
      </trkpt>
      <trkpt lat="45.37645" lon="4.19965">
        <ele>447</ele>
        <time>2014-01-12T14:36:53Z</time>
      </trkpt>
      <trkpt lat="45.37626" lon="4.19923">
        <ele>445.2</ele>
        <time>2014-01-12T14:36:58Z</time>
      </trkpt>
      <trkpt lat="45.37618" lon="4.19897">
        <ele>444.4</ele>
        <time>2014-01-12T14:37:01Z</time>
      </trkpt>
      <trkpt lat="45.37599" lon="4.19833">
        <ele>442.8</ele>
        <time>2014-01-12T14:37:08Z</time>
      </trkpt>
      <trkpt lat="45.37565" lon="4.19796">
        <ele>441.9</ele>
        <time>2014-01-12T14:37:14Z</time>
      </trkpt>
      <trkpt lat="45.37539" lon="4.19767">
        <ele>440.3</ele>
        <time>2014-01-12T14:37:19Z</time>
      </trkpt>
      <trkpt lat="45.37506" lon="4.19727">
        <ele>439.8</ele>
        <time>2014-01-12T14:37:25Z</time>
      </trkpt>
      <trkpt lat="45.37469" lon="4.19691">
        <ele>438.9</ele>
        <time>2014-01-12T14:37:31Z</time>
      </trkpt>
      <trkpt lat="45.37433" lon="4.19655">
        <ele>438.5</ele>
        <time>2014-01-12T14:37:37Z</time>
      </trkpt>
      <trkpt lat="45.37395" lon="4.19622">
        <ele>437.5</ele>
        <time>2014-01-12T14:37:43Z</time>
      </trkpt>
      <trkpt lat="45.37356" lon="4.19587">
        <ele>435.7</ele>
        <time>2014-01-12T14:37:49Z</time>
      </trkpt>
      <trkpt lat="45.37306" lon="4.19568">
        <ele>433.5</ele>
        <time>2014-01-12T14:37:55Z</time>
      </trkpt>
      <trkpt lat="45.37251" lon="4.19565">
        <ele>430.6</ele>
        <time>2014-01-12T14:38:01Z</time>
      </trkpt>
      <trkpt lat="45.372" lon="4.19563">
        <ele>427.5</ele>
        <time>2014-01-12T14:38:07Z</time>
      </trkpt>
      <trkpt lat="45.37134" lon="4.19568">
        <ele>423.9</ele>
        <time>2014-01-12T14:38:15Z</time>
      </trkpt>
      <trkpt lat="45.37095" lon="4.19573">
        <ele>422.8</ele>
        <time>2014-01-12T14:38:21Z</time>
      </trkpt>
      <trkpt lat="45.37047" lon="4.19569">
        <ele>420.9</ele>
        <time>2014-01-12T14:38:28Z</time>
      </trkpt>
      <trkpt lat="45.37015" lon="4.19561">
        <ele>419.9</ele>
        <time>2014-01-12T14:38:33Z</time>
      </trkpt>
      <trkpt lat="45.3698" lon="4.19542">
        <ele>418.7</ele>
        <time>2014-01-12T14:38:39Z</time>
      </trkpt>
      <trkpt lat="45.36949" lon="4.19513">
        <ele>418.2</ele>
        <time>2014-01-12T14:38:46Z</time>
      </trkpt>
      <trkpt lat="45.36936" lon="4.19481">
        <ele>417</ele>
        <time>2014-01-12T14:38:52Z</time>
      </trkpt>
      <trkpt lat="45.36932" lon="4.19463">
        <ele>415.9</ele>
        <time>2014-01-12T14:38:57Z</time>
      </trkpt>
      <trkpt lat="45.36927" lon="4.19431">
        <ele>416.5</ele>
        <time>2014-01-12T14:39:06Z</time>
      </trkpt>
      <trkpt lat="45.36931" lon="4.19404">
        <ele>420.7</ele>
        <time>2014-01-12T14:39:16Z</time>
      </trkpt>
      <trkpt lat="45.36949" lon="4.19395">
        <ele>422.2</ele>
        <time>2014-01-12T14:39:24Z</time>
      </trkpt>
      <trkpt lat="45.36972" lon="4.19404">
        <ele>423.1</ele>
        <time>2014-01-12T14:39:33Z</time>
      </trkpt>
      <trkpt lat="45.36987" lon="4.19412">
        <ele>423.5</ele>
        <time>2014-01-12T14:39:39Z</time>
      </trkpt>
      <trkpt lat="45.37007" lon="4.19419">
        <ele>424.7</ele>
        <time>2014-01-12T14:39:47Z</time>
      </trkpt>
      <trkpt lat="45.37003" lon="4.1939">
        <ele>427</ele>
        <time>2014-01-12T14:39:55Z</time>
      </trkpt>
      <trkpt lat="45.36985" lon="4.19369">
        <ele>429</ele>
        <time>2014-01-12T14:40:01Z</time>
      </trkpt>
      <trkpt lat="45.36966" lon="4.19348">
        <ele>430.3</ele>
        <time>2014-01-12T14:40:08Z</time>
      </trkpt>
      <trkpt lat="45.36938" lon="4.19326">
        <ele>433.5</ele>
        <time>2014-01-12T14:40:18Z</time>
      </trkpt>
      <trkpt lat="45.36923" lon="4.19318">
        <ele>434.6</ele>
        <time>2014-01-12T14:40:23Z</time>
      </trkpt>
      <trkpt lat="45.36904" lon="4.19305">
        <ele>436.2</ele>
        <time>2014-01-12T14:40:29Z</time>
      </trkpt>
      <trkpt lat="45.36886" lon="4.19297">
        <ele>438.9</ele>
        <time>2014-01-12T14:40:35Z</time>
      </trkpt>
      <trkpt lat="45.36879" lon="4.19279">
        <ele>441.1</ele>
        <time>2014-01-12T14:40:41Z</time>
      </trkpt>
      <trkpt lat="45.36879" lon="4.19259">
        <ele>442.6</ele>
        <time>2014-01-12T14:40:50Z</time>
      </trkpt>
      <trkpt lat="45.36879" lon="4.19238">
        <ele>444.5</ele>
        <time>2014-01-12T14:41:01Z</time>
      </trkpt>
      <trkpt lat="45.3688" lon="4.19208">
        <ele>447.4</ele>
        <time>2014-01-12T14:41:15Z</time>
      </trkpt>
      <trkpt lat="45.36878" lon="4.19182">
        <ele>450.4</ele>
        <time>2014-01-12T14:41:27Z</time>
      </trkpt>
      <trkpt lat="45.36866" lon="4.19162">
        <ele>454.7</ele>
        <time>2014-01-12T14:41:40Z</time>
      </trkpt>
      <trkpt lat="45.36852" lon="4.19144">
        <ele>458</ele>
        <time>2014-01-12T14:41:52Z</time>
      </trkpt>
      <trkpt lat="45.36835" lon="4.19128">
        <ele>462.7</ele>
        <time>2014-01-12T14:42:05Z</time>
      </trkpt>
      <trkpt lat="45.36821" lon="4.19116">
        <ele>464.8</ele>
        <time>2014-01-12T14:42:15Z</time>
      </trkpt>
      <trkpt lat="45.36806" lon="4.19108">
        <ele>467.6</ele>
        <time>2014-01-12T14:42:22Z</time>
      </trkpt>
      <trkpt lat="45.36793" lon="4.19096">
        <ele>471.5</ele>
        <time>2014-01-12T14:42:29Z</time>
      </trkpt>
      <trkpt lat="45.3678" lon="4.19088">
        <ele>475.2</ele>
        <time>2014-01-12T14:42:37Z</time>
      </trkpt>
      <trkpt lat="45.36766" lon="4.19069">
        <ele>479.1</ele>
        <time>2014-01-12T14:42:48Z</time>
      </trkpt>
      <trkpt lat="45.36758" lon="4.19053">
        <ele>480.3</ele>
        <time>2014-01-12T14:42:55Z</time>
      </trkpt>
      <trkpt lat="45.36747" lon="4.19029">
        <ele>480.9</ele>
        <time>2014-01-12T14:43:05Z</time>
      </trkpt>
      <trkpt lat="45.36739" lon="4.19004">
        <ele>481.6</ele>
        <time>2014-01-12T14:43:16Z</time>
      </trkpt>
      <trkpt lat="45.36741" lon="4.18976">
        <ele>482</ele>
        <time>2014-01-12T14:43:25Z</time>
      </trkpt>
      <trkpt lat="45.3674" lon="4.18948">
        <ele>480.9</ele>
        <time>2014-01-12T14:43:34Z</time>
      </trkpt>
      <trkpt lat="45.36737" lon="4.1893">
        <ele>480.9</ele>
        <time>2014-01-12T14:43:39Z</time>
      </trkpt>
      <trkpt lat="45.36745" lon="4.18898">
        <ele>480.2</ele>
        <time>2014-01-12T14:43:48Z</time>
      </trkpt>
      <trkpt lat="45.36745" lon="4.18879">
        <ele>480.8</ele>
        <time>2014-01-12T14:43:53Z</time>
      </trkpt>
      <trkpt lat="45.36744" lon="4.18861">
        <ele>480.8</ele>
        <time>2014-01-12T14:43:59Z</time>
      </trkpt>
      <trkpt lat="45.36738" lon="4.18829">
        <ele>482.1</ele>
        <time>2014-01-12T14:44:09Z</time>
      </trkpt>
      <trkpt lat="45.3673" lon="4.18811">
        <ele>483.8</ele>
        <time>2014-01-12T14:44:18Z</time>
      </trkpt>
      <trkpt lat="45.36712" lon="4.18787">
        <ele>486.8</ele>
        <time>2014-01-12T14:44:31Z</time>
      </trkpt>
      <trkpt lat="45.36704" lon="4.18766">
        <ele>490.8</ele>
        <time>2014-01-12T14:44:41Z</time>
      </trkpt>
      <trkpt lat="45.36707" lon="4.1874">
        <ele>493.9</ele>
        <time>2014-01-12T14:44:53Z</time>
      </trkpt>
      <trkpt lat="45.36714" lon="4.18709">
        <ele>497.5</ele>
        <time>2014-01-12T14:45:06Z</time>
      </trkpt>
      <trkpt lat="45.36738" lon="4.18682">
        <ele>499.8</ele>
        <time>2014-01-12T14:45:16Z</time>
      </trkpt>
      <trkpt lat="45.36761" lon="4.18661">
        <ele>499.8</ele>
        <time>2014-01-12T14:45:21Z</time>
      </trkpt>
      <trkpt lat="45.36802" lon="4.18639">
        <ele>499.3</ele>
        <time>2014-01-12T14:45:28Z</time>
      </trkpt>
      <trkpt lat="45.36835" lon="4.18622">
        <ele>498.3</ele>
        <time>2014-01-12T14:45:33Z</time>
      </trkpt>
      <trkpt lat="45.36864" lon="4.18608">
        <ele>498.1</ele>
        <time>2014-01-12T14:45:38Z</time>
      </trkpt>
      <trkpt lat="45.36889" lon="4.18596">
        <ele>498.4</ele>
        <time>2014-01-12T14:45:44Z</time>
      </trkpt>
      <trkpt lat="45.36908" lon="4.18589">
        <ele>498.8</ele>
        <time>2014-01-12T14:45:49Z</time>
      </trkpt>
      <trkpt lat="45.36926" lon="4.1857">
        <ele>499.4</ele>
        <time>2014-01-12T14:45:56Z</time>
      </trkpt>
      <trkpt lat="45.36939" lon="4.18545">
        <ele>499.9</ele>
        <time>2014-01-12T14:46:02Z</time>
      </trkpt>
      <trkpt lat="45.3695" lon="4.18517">
        <ele>500.5</ele>
        <time>2014-01-12T14:46:08Z</time>
      </trkpt>
      <trkpt lat="45.36957" lon="4.18501">
        <ele>501</ele>
        <time>2014-01-12T14:46:12Z</time>
      </trkpt>
      <trkpt lat="45.36972" lon="4.18461">
        <ele>501.6</ele>
        <time>2014-01-12T14:46:20Z</time>
      </trkpt>
      <trkpt lat="45.36988" lon="4.1844">
        <ele>502.2</ele>
        <time>2014-01-12T14:46:26Z</time>
      </trkpt>
      <trkpt lat="45.37006" lon="4.18423">
        <ele>503.3</ele>
        <time>2014-01-12T14:46:32Z</time>
      </trkpt>
      <trkpt lat="45.37024" lon="4.18405">
        <ele>503.8</ele>
        <time>2014-01-12T14:46:37Z</time>
      </trkpt>
      <trkpt lat="45.37031" lon="4.1839">
        <ele>504.5</ele>
        <time>2014-01-12T14:46:42Z</time>
      </trkpt>
      <trkpt lat="45.37031" lon="4.1839">
        <ele>493.4</ele>
        <time>2014-01-12T14:46:48Z</time>
      </trkpt>
      <trkpt lat="45.37031" lon="4.1839">
        <ele>493.4</ele>
        <time>2014-01-12T14:47:15Z</time>
      </trkpt>
      <trkpt lat="45.37036" lon="4.18374">
        <ele>501.3</ele>
        <time>2014-01-12T14:47:15Z</time>
      </trkpt>
      <trkpt lat="45.37011" lon="4.18377">
        <ele>502.8</ele>
        <time>2014-01-12T14:47:31Z</time>
      </trkpt>
      <trkpt lat="45.36994" lon="4.1837">
        <ele>505</ele>
        <time>2014-01-12T14:47:46Z</time>
      </trkpt>
      <trkpt lat="45.36976" lon="4.18375">
        <ele>505.4</ele>
        <time>2014-01-12T14:47:58Z</time>
      </trkpt>
      <trkpt lat="45.36963" lon="4.18384">
        <ele>507.1</ele>
        <time>2014-01-12T14:48:08Z</time>
      </trkpt>
      <trkpt lat="45.36939" lon="4.18396">
        <ele>510.5</ele>
        <time>2014-01-12T14:48:25Z</time>
      </trkpt>
      <trkpt lat="45.36921" lon="4.18402">
        <ele>512.4</ele>
        <time>2014-01-12T14:48:37Z</time>
      </trkpt>
      <trkpt lat="45.36906" lon="4.18406">
        <ele>515.3</ele>
        <time>2014-01-12T14:48:50Z</time>
      </trkpt>
      <trkpt lat="45.36878" lon="4.18408">
        <ele>518.5</ele>
        <time>2014-01-12T14:49:03Z</time>
      </trkpt>
      <trkpt lat="45.36859" lon="4.18406">
        <ele>521.1</ele>
        <time>2014-01-12T14:49:13Z</time>
      </trkpt>
      <trkpt lat="45.36838" lon="4.18415">
        <ele>523</ele>
        <time>2014-01-12T14:49:26Z</time>
      </trkpt>
      <trkpt lat="45.36833" lon="4.18432">
        <ele>526.7</ele>
        <time>2014-01-12T14:49:38Z</time>
      </trkpt>
      <trkpt lat="45.36804" lon="4.1847">
        <ele>529.6</ele>
        <time>2014-01-12T14:49:53Z</time>
      </trkpt>
      <trkpt lat="45.36786" lon="4.1848">
        <ele>530.9</ele>
        <time>2014-01-12T14:49:59Z</time>
      </trkpt>
      <trkpt lat="45.36765" lon="4.18494">
        <ele>531.8</ele>
        <time>2014-01-12T14:50:06Z</time>
      </trkpt>
      <trkpt lat="45.36747" lon="4.18502">
        <ele>534.4</ele>
        <time>2014-01-12T14:50:12Z</time>
      </trkpt>
      <trkpt lat="45.36736" lon="4.18507">
        <ele>536.8</ele>
        <time>2014-01-12T14:50:18Z</time>
      </trkpt>
      <trkpt lat="45.36736" lon="4.18507">
        <ele>519</ele>
        <time>2014-01-12T14:50:24Z</time>
      </trkpt>
      <trkpt lat="45.36736" lon="4.18507">
        <ele>519</ele>
        <time>2014-01-12T14:50:43Z</time>
      </trkpt>
      <trkpt lat="45.36752" lon="4.18478">
        <ele>544.2</ele>
        <time>2014-01-12T14:50:43Z</time>
      </trkpt>
      <trkpt lat="45.36763" lon="4.18461">
        <ele>547.7</ele>
        <time>2014-01-12T14:50:52Z</time>
      </trkpt>
      <trkpt lat="45.36765" lon="4.18458">
        <ele>548.6</ele>
        <time>2014-01-12T14:50:54Z</time>
      </trkpt>
      <trkpt lat="45.36765" lon="4.18458">
        <ele>532.3</ele>
        <time>2014-01-12T14:50:59Z</time>
      </trkpt>
      <trkpt lat="45.36765" lon="4.18458">
        <ele>532.3</ele>
        <time>2014-01-12T14:51:17Z</time>
      </trkpt>
      <trkpt lat="45.36783" lon="4.18438">
        <ele>553</ele>
        <time>2014-01-12T14:51:17Z</time>
      </trkpt>
      <trkpt lat="45.36788" lon="4.18418">
        <ele>556.6</ele>
        <time>2014-01-12T14:51:29Z</time>
      </trkpt>
      <trkpt lat="45.36787" lon="4.18385">
        <ele>562</ele>
        <time>2014-01-12T14:51:49Z</time>
      </trkpt>
      <trkpt lat="45.36786" lon="4.18346">
        <ele>566.5</ele>
        <time>2014-01-12T14:52:06Z</time>
      </trkpt>
      <trkpt lat="45.36785" lon="4.1832">
        <ele>568.2</ele>
        <time>2014-01-12T14:52:17Z</time>
      </trkpt>
      <trkpt lat="45.36785" lon="4.1832">
        <ele>554.7</ele>
        <time>2014-01-12T14:52:24Z</time>
      </trkpt>
      <trkpt lat="45.36785" lon="4.1832">
        <ele>554.7</ele>
        <time>2014-01-12T14:52:29Z</time>
      </trkpt>
      <trkpt lat="45.36791" lon="4.18308">
        <ele>571.4</ele>
        <time>2014-01-12T14:52:29Z</time>
      </trkpt>
      <trkpt lat="45.36802" lon="4.18292">
        <ele>574.4</ele>
        <time>2014-01-12T14:52:39Z</time>
      </trkpt>
      <trkpt lat="45.36815" lon="4.18275">
        <ele>577.7</ele>
        <time>2014-01-12T14:52:48Z</time>
      </trkpt>
      <trkpt lat="45.36825" lon="4.18272">
        <ele>580.6</ele>
        <time>2014-01-12T14:52:56Z</time>
      </trkpt>
      <trkpt lat="45.36841" lon="4.18267">
        <ele>583.9</ele>
        <time>2014-01-12T14:53:09Z</time>
      </trkpt>
      <trkpt lat="45.36857" lon="4.18267">
        <ele>584.9</ele>
        <time>2014-01-12T14:53:20Z</time>
      </trkpt>
      <trkpt lat="45.36873" lon="4.18258">
        <ele>586.6</ele>
        <time>2014-01-12T14:53:32Z</time>
      </trkpt>
      <trkpt lat="45.36897" lon="4.1824">
        <ele>588.2</ele>
        <time>2014-01-12T14:53:48Z</time>
      </trkpt>
      <trkpt lat="45.36911" lon="4.18229">
        <ele>590</ele>
        <time>2014-01-12T14:54:02Z</time>
      </trkpt>
      <trkpt lat="45.36926" lon="4.18217">
        <ele>593.4</ele>
        <time>2014-01-12T14:54:19Z</time>
      </trkpt>
      <trkpt lat="45.36934" lon="4.18204">
        <ele>594.6</ele>
        <time>2014-01-12T14:54:28Z</time>
      </trkpt>
      <trkpt lat="45.36944" lon="4.18181">
        <ele>598.9</ele>
        <time>2014-01-12T14:54:43Z</time>
      </trkpt>
      <trkpt lat="45.36955" lon="4.18153">
        <ele>601.9</ele>
        <time>2014-01-12T14:54:58Z</time>
      </trkpt>
      <trkpt lat="45.36958" lon="4.18135">
        <ele>603.6</ele>
        <time>2014-01-12T14:55:09Z</time>
      </trkpt>
      <trkpt lat="45.36953" lon="4.1811">
        <ele>607</ele>
        <time>2014-01-12T14:55:26Z</time>
      </trkpt>
      <trkpt lat="45.36936" lon="4.18096">
        <ele>610.9</ele>
        <time>2014-01-12T14:55:41Z</time>
      </trkpt>
      <trkpt lat="45.36924" lon="4.18079">
        <ele>614.7</ele>
        <time>2014-01-12T14:55:53Z</time>
      </trkpt>
      <trkpt lat="45.36919" lon="4.18047">
        <ele>617.6</ele>
        <time>2014-01-12T14:56:02Z</time>
      </trkpt>
      <trkpt lat="45.36921" lon="4.18018">
        <ele>619.7</ele>
        <time>2014-01-12T14:56:13Z</time>
      </trkpt>
      <trkpt lat="45.3693" lon="4.17999">
        <ele>621.8</ele>
        <time>2014-01-12T14:56:25Z</time>
      </trkpt>
      <trkpt lat="45.36945" lon="4.17966">
        <ele>622.4</ele>
        <time>2014-01-12T14:56:42Z</time>
      </trkpt>
      <trkpt lat="45.36952" lon="4.1795">
        <ele>624</ele>
        <time>2014-01-12T14:56:50Z</time>
      </trkpt>
      <trkpt lat="45.36963" lon="4.17922">
        <ele>624.9</ele>
        <time>2014-01-12T14:57:04Z</time>
      </trkpt>
      <trkpt lat="45.3697" lon="4.17894">
        <ele>625.3</ele>
        <time>2014-01-12T14:57:15Z</time>
      </trkpt>
      <trkpt lat="45.36973" lon="4.17866">
        <ele>623.1</ele>
        <time>2014-01-12T14:57:26Z</time>
      </trkpt>
      <trkpt lat="45.36973" lon="4.17842">
        <ele>623.4</ele>
        <time>2014-01-12T14:57:36Z</time>
      </trkpt>
      <trkpt lat="45.36977" lon="4.17815">
        <ele>623.9</ele>
        <time>2014-01-12T14:57:50Z</time>
      </trkpt>
      <trkpt lat="45.36985" lon="4.17778">
        <ele>624.3</ele>
        <time>2014-01-12T14:58:04Z</time>
      </trkpt>
      <trkpt lat="45.36987" lon="4.17757">
        <ele>624.4</ele>
        <time>2014-01-12T14:58:13Z</time>
      </trkpt>
      <trkpt lat="45.36988" lon="4.17738">
        <ele>625.1</ele>
        <time>2014-01-12T14:58:22Z</time>
      </trkpt>
      <trkpt lat="45.36988" lon="4.17712">
        <ele>626.5</ele>
        <time>2014-01-12T14:58:33Z</time>
      </trkpt>
      <trkpt lat="45.36992" lon="4.17689">
        <ele>627.2</ele>
        <time>2014-01-12T14:58:44Z</time>
      </trkpt>
      <trkpt lat="45.36995" lon="4.17662">
        <ele>628.7</ele>
        <time>2014-01-12T14:59:00Z</time>
      </trkpt>
      <trkpt lat="45.37002" lon="4.1763">
        <ele>631.6</ele>
        <time>2014-01-12T14:59:16Z</time>
      </trkpt>
      <trkpt lat="45.3701" lon="4.17603">
        <ele>634.1</ele>
        <time>2014-01-12T14:59:28Z</time>
      </trkpt>
      <trkpt lat="45.37011" lon="4.17581">
        <ele>637.3</ele>
        <time>2014-01-12T14:59:38Z</time>
      </trkpt>
      <trkpt lat="45.37013" lon="4.17562">
        <ele>641.6</ele>
        <time>2014-01-12T14:59:50Z</time>
      </trkpt>
      <trkpt lat="45.37017" lon="4.17541">
        <ele>645.1</ele>
        <time>2014-01-12T15:00:02Z</time>
      </trkpt>
      <trkpt lat="45.37017" lon="4.17522">
        <ele>648.4</ele>
        <time>2014-01-12T15:00:14Z</time>
      </trkpt>
      <trkpt lat="45.3702" lon="4.17501">
        <ele>653.3</ele>
        <time>2014-01-12T15:00:29Z</time>
      </trkpt>
      <trkpt lat="45.37035" lon="4.17489">
        <ele>658.7</ele>
        <time>2014-01-12T15:00:44Z</time>
      </trkpt>
      <trkpt lat="45.37046" lon="4.17472">
        <ele>662.2</ele>
        <time>2014-01-12T15:00:57Z</time>
      </trkpt>
      <trkpt lat="45.37035" lon="4.17454">
        <ele>666.4</ele>
        <time>2014-01-12T15:01:15Z</time>
      </trkpt>
      <trkpt lat="45.3703" lon="4.17428">
        <ele>673.5</ele>
        <time>2014-01-12T15:01:32Z</time>
      </trkpt>
      <trkpt lat="45.37037" lon="4.17397">
        <ele>677.9</ele>
        <time>2014-01-12T15:01:46Z</time>
      </trkpt>
      <trkpt lat="45.37041" lon="4.17371">
        <ele>680.8</ele>
        <time>2014-01-12T15:02:00Z</time>
      </trkpt>
      <trkpt lat="45.37043" lon="4.17336">
        <ele>684.8</ele>
        <time>2014-01-12T15:02:18Z</time>
      </trkpt>
      <trkpt lat="45.37051" lon="4.17309">
        <ele>686.6</ele>
        <time>2014-01-12T15:02:31Z</time>
      </trkpt>
      <trkpt lat="45.37053" lon="4.17292">
        <ele>687.7</ele>
        <time>2014-01-12T15:02:36Z</time>
      </trkpt>
      <trkpt lat="45.37051" lon="4.17274">
        <ele>688.1</ele>
        <time>2014-01-12T15:02:42Z</time>
      </trkpt>
      <trkpt lat="45.3705" lon="4.17258">
        <ele>688.1</ele>
        <time>2014-01-12T15:02:46Z</time>
      </trkpt>
      <trkpt lat="45.3705" lon="4.1724">
        <ele>688.2</ele>
        <time>2014-01-12T15:02:50Z</time>
      </trkpt>
      <trkpt lat="45.37046" lon="4.17211">
        <ele>688.6</ele>
        <time>2014-01-12T15:02:56Z</time>
      </trkpt>
      <trkpt lat="45.37041" lon="4.17186">
        <ele>689.5</ele>
        <time>2014-01-12T15:03:02Z</time>
      </trkpt>
      <trkpt lat="45.37037" lon="4.17155">
        <ele>690</ele>
        <time>2014-01-12T15:03:09Z</time>
      </trkpt>
      <trkpt lat="45.37028" lon="4.17126">
        <ele>690.6</ele>
        <time>2014-01-12T15:03:17Z</time>
      </trkpt>
      <trkpt lat="45.37021" lon="4.17103">
        <ele>692.3</ele>
        <time>2014-01-12T15:03:27Z</time>
      </trkpt>
      <trkpt lat="45.37013" lon="4.17076">
        <ele>693.5</ele>
        <time>2014-01-12T15:03:37Z</time>
      </trkpt>
      <trkpt lat="45.3702" lon="4.17043">
        <ele>693.8</ele>
        <time>2014-01-12T15:03:48Z</time>
      </trkpt>
      <trkpt lat="45.37038" lon="4.17024">
        <ele>692.7</ele>
        <time>2014-01-12T15:03:58Z</time>
      </trkpt>
      <trkpt lat="45.37045" lon="4.17006">
        <ele>693</ele>
        <time>2014-01-12T15:04:05Z</time>
      </trkpt>
      <trkpt lat="45.37049" lon="4.16991">
        <ele>693.6</ele>
        <time>2014-01-12T15:04:10Z</time>
      </trkpt>
      <trkpt lat="45.37055" lon="4.16967">
        <ele>694.4</ele>
        <time>2014-01-12T15:04:18Z</time>
      </trkpt>
      <trkpt lat="45.37054" lon="4.16945">
        <ele>695.3</ele>
        <time>2014-01-12T15:04:25Z</time>
      </trkpt>
      <trkpt lat="45.37042" lon="4.16909">
        <ele>696.1</ele>
        <time>2014-01-12T15:04:36Z</time>
      </trkpt>
      <trkpt lat="45.37032" lon="4.16886">
        <ele>696.2</ele>
        <time>2014-01-12T15:04:42Z</time>
      </trkpt>
      <trkpt lat="45.37019" lon="4.16854">
        <ele>695.7</ele>
        <time>2014-01-12T15:04:48Z</time>
      </trkpt>
      <trkpt lat="45.37006" lon="4.16833">
        <ele>694.4</ele>
        <time>2014-01-12T15:04:53Z</time>
      </trkpt>
      <trkpt lat="45.36999" lon="4.16799">
        <ele>693.2</ele>
        <time>2014-01-12T15:04:59Z</time>
      </trkpt>
      <trkpt lat="45.36998" lon="4.16759">
        <ele>692.8</ele>
        <time>2014-01-12T15:05:06Z</time>
      </trkpt>
      <trkpt lat="45.37002" lon="4.16735">
        <ele>692.1</ele>
        <time>2014-01-12T15:05:11Z</time>
      </trkpt>
      <trkpt lat="45.37014" lon="4.16696">
        <ele>693.1</ele>
        <time>2014-01-12T15:05:19Z</time>
      </trkpt>
      <trkpt lat="45.37028" lon="4.16671">
        <ele>692.9</ele>
        <time>2014-01-12T15:05:25Z</time>
      </trkpt>
      <trkpt lat="45.3704" lon="4.16643">
        <ele>693.7</ele>
        <time>2014-01-12T15:05:32Z</time>
      </trkpt>
      <trkpt lat="45.37057" lon="4.16625">
        <ele>695.3</ele>
        <time>2014-01-12T15:05:39Z</time>
      </trkpt>
      <trkpt lat="45.37077" lon="4.16601">
        <ele>697.9</ele>
        <time>2014-01-12T15:05:47Z</time>
      </trkpt>
      <trkpt lat="45.37089" lon="4.16585">
        <ele>700.3</ele>
        <time>2014-01-12T15:05:53Z</time>
      </trkpt>
      <trkpt lat="45.37109" lon="4.16558">
        <ele>702.8</ele>
        <time>2014-01-12T15:06:02Z</time>
      </trkpt>
      <trkpt lat="45.37121" lon="4.16537">
        <ele>704.6</ele>
        <time>2014-01-12T15:06:08Z</time>
      </trkpt>
      <trkpt lat="45.37124" lon="4.16508">
        <ele>707.1</ele>
        <time>2014-01-12T15:06:17Z</time>
      </trkpt>
      <trkpt lat="45.37128" lon="4.16477">
        <ele>709.1</ele>
        <time>2014-01-12T15:06:25Z</time>
      </trkpt>
      <trkpt lat="45.37132" lon="4.16454">
        <ele>710.2</ele>
        <time>2014-01-12T15:06:31Z</time>
      </trkpt>
      <trkpt lat="45.37139" lon="4.16429">
        <ele>712.2</ele>
        <time>2014-01-12T15:06:39Z</time>
      </trkpt>
      <trkpt lat="45.37147" lon="4.16393">
        <ele>712.4</ele>
        <time>2014-01-12T15:06:49Z</time>
      </trkpt>
      <trkpt lat="45.3715" lon="4.16371">
        <ele>713</ele>
        <time>2014-01-12T15:06:55Z</time>
      </trkpt>
      <trkpt lat="45.37156" lon="4.16341">
        <ele>714.4</ele>
        <time>2014-01-12T15:07:03Z</time>
      </trkpt>
      <trkpt lat="45.37163" lon="4.16312">
        <ele>715.7</ele>
        <time>2014-01-12T15:07:12Z</time>
      </trkpt>
      <trkpt lat="45.37171" lon="4.16283">
        <ele>714.8</ele>
        <time>2014-01-12T15:07:20Z</time>
      </trkpt>
      <trkpt lat="45.3718" lon="4.1626">
        <ele>715.4</ele>
        <time>2014-01-12T15:07:26Z</time>
      </trkpt>
      <trkpt lat="45.37192" lon="4.16235">
        <ele>716.3</ele>
        <time>2014-01-12T15:07:33Z</time>
      </trkpt>
      <trkpt lat="45.37203" lon="4.16196">
        <ele>717.5</ele>
        <time>2014-01-12T15:07:41Z</time>
      </trkpt>
      <trkpt lat="45.37212" lon="4.16167">
        <ele>717.8</ele>
        <time>2014-01-12T15:07:46Z</time>
      </trkpt>
      <trkpt lat="45.3722" lon="4.16129">
        <ele>717.1</ele>
        <time>2014-01-12T15:07:52Z</time>
      </trkpt>
      <trkpt lat="45.37224" lon="4.16109">
        <ele>717.6</ele>
        <time>2014-01-12T15:07:55Z</time>
      </trkpt>
      <trkpt lat="45.37234" lon="4.16076">
        <ele>718.5</ele>
        <time>2014-01-12T15:08:00Z</time>
      </trkpt>
      <trkpt lat="45.37249" lon="4.16038">
        <ele>718.3</ele>
        <time>2014-01-12T15:08:06Z</time>
      </trkpt>
      <trkpt lat="45.37265" lon="4.16005">
        <ele>718</ele>
        <time>2014-01-12T15:08:12Z</time>
      </trkpt>
      <trkpt lat="45.37267" lon="4.16001">
        <ele>718.1</ele>
        <time>2014-01-12T15:08:13Z</time>
      </trkpt>
      <trkpt lat="45.37267" lon="4.16001">
        <ele>715.4</ele>
        <time>2014-01-12T15:08:19Z</time>
      </trkpt>
      <trkpt lat="45.37267" lon="4.16001">
        <ele>715.4</ele>
        <time>2014-01-12T15:12:33Z</time>
      </trkpt>
      <trkpt lat="45.37282" lon="4.15961">
        <ele>712.5</ele>
        <time>2014-01-12T15:12:33Z</time>
      </trkpt>
      <trkpt lat="45.37293" lon="4.15934">
        <ele>713.1</ele>
        <time>2014-01-12T15:12:38Z</time>
      </trkpt>
      <trkpt lat="45.37299" lon="4.15922">
        <ele>713.6</ele>
        <time>2014-01-12T15:12:41Z</time>
      </trkpt>
      <trkpt lat="45.3731" lon="4.15901">
        <ele>714</ele>
        <time>2014-01-12T15:12:47Z</time>
      </trkpt>
      <trkpt lat="45.3732" lon="4.15876">
        <ele>713.8</ele>
        <time>2014-01-12T15:12:53Z</time>
      </trkpt>
      <trkpt lat="45.37329" lon="4.15859">
        <ele>714.2</ele>
        <time>2014-01-12T15:12:59Z</time>
      </trkpt>
      <trkpt lat="45.37342" lon="4.15832">
        <ele>715.2</ele>
        <time>2014-01-12T15:13:07Z</time>
      </trkpt>
      <trkpt lat="45.3735" lon="4.1581">
        <ele>715.5</ele>
        <time>2014-01-12T15:13:13Z</time>
      </trkpt>
      <trkpt lat="45.37362" lon="4.15782">
        <ele>716.3</ele>
        <time>2014-01-12T15:13:22Z</time>
      </trkpt>
      <trkpt lat="45.3737" lon="4.15763">
        <ele>716.8</ele>
        <time>2014-01-12T15:13:28Z</time>
      </trkpt>
      <trkpt lat="45.37375" lon="4.15732">
        <ele>718.1</ele>
        <time>2014-01-12T15:13:35Z</time>
      </trkpt>
      <trkpt lat="45.37376" lon="4.15711">
        <ele>719.4</ele>
        <time>2014-01-12T15:13:40Z</time>
      </trkpt>
      <trkpt lat="45.37386" lon="4.15687">
        <ele>719.6</ele>
        <time>2014-01-12T15:13:47Z</time>
      </trkpt>
      <trkpt lat="45.37398" lon="4.15663">
        <ele>720</ele>
        <time>2014-01-12T15:13:54Z</time>
      </trkpt>
      <trkpt lat="45.37404" lon="4.15626">
        <ele>719.6</ele>
        <time>2014-01-12T15:14:02Z</time>
      </trkpt>
      <trkpt lat="45.37402" lon="4.15594">
        <ele>719.1</ele>
        <time>2014-01-12T15:14:11Z</time>
      </trkpt>
      <trkpt lat="45.37394" lon="4.15575">
        <ele>720.5</ele>
        <time>2014-01-12T15:14:18Z</time>
      </trkpt>
      <trkpt lat="45.37391" lon="4.1555">
        <ele>721.2</ele>
        <time>2014-01-12T15:14:24Z</time>
      </trkpt>
      <trkpt lat="45.37384" lon="4.15518">
        <ele>722.1</ele>
        <time>2014-01-12T15:14:33Z</time>
      </trkpt>
      <trkpt lat="45.3738" lon="4.15485">
        <ele>723.6</ele>
        <time>2014-01-12T15:14:45Z</time>
      </trkpt>
      <trkpt lat="45.37373" lon="4.1545">
        <ele>724.8</ele>
        <time>2014-01-12T15:14:58Z</time>
      </trkpt>
      <trkpt lat="45.3737" lon="4.15419">
        <ele>725.3</ele>
        <time>2014-01-12T15:15:08Z</time>
      </trkpt>
      <trkpt lat="45.37374" lon="4.15402">
        <ele>726.1</ele>
        <time>2014-01-12T15:15:15Z</time>
      </trkpt>
      <trkpt lat="45.37374" lon="4.15402">
        <ele>737.6</ele>
        <time>2014-01-12T15:15:22Z</time>
      </trkpt>
      <trkpt lat="45.37374" lon="4.15402">
        <ele>737.6</ele>
        <time>2014-01-12T15:15:37Z</time>
      </trkpt>
      <trkpt lat="45.37377" lon="4.15374">
        <ele>727.6</ele>
        <time>2014-01-12T15:15:37Z</time>
      </trkpt>
      <trkpt lat="45.37379" lon="4.15351">
        <ele>728.6</ele>
        <time>2014-01-12T15:15:48Z</time>
      </trkpt>
      <trkpt lat="45.37386" lon="4.15325">
        <ele>728.5</ele>
        <time>2014-01-12T15:16:00Z</time>
      </trkpt>
      <trkpt lat="45.37391" lon="4.1531">
        <ele>729</ele>
        <time>2014-01-12T15:16:07Z</time>
      </trkpt>
      <trkpt lat="45.37401" lon="4.15279">
        <ele>730.4</ele>
        <time>2014-01-12T15:16:19Z</time>
      </trkpt>
      <trkpt lat="45.37408" lon="4.15257">
        <ele>731.5</ele>
        <time>2014-01-12T15:16:28Z</time>
      </trkpt>
      <trkpt lat="45.37416" lon="4.15238">
        <ele>732.8</ele>
        <time>2014-01-12T15:16:37Z</time>
      </trkpt>
      <trkpt lat="45.37436" lon="4.15207">
        <ele>733.8</ele>
        <time>2014-01-12T15:16:47Z</time>
      </trkpt>
      <trkpt lat="45.37445" lon="4.15197">
        <ele>734.4</ele>
        <time>2014-01-12T15:16:52Z</time>
      </trkpt>
      <trkpt lat="45.37461" lon="4.15173">
        <ele>736.6</ele>
        <time>2014-01-12T15:17:03Z</time>
      </trkpt>
      <trkpt lat="45.37476" lon="4.15151">
        <ele>737.5</ele>
        <time>2014-01-12T15:17:15Z</time>
      </trkpt>
      <trkpt lat="45.37488" lon="4.15102">
        <ele>739.5</ele>
        <time>2014-01-12T15:17:33Z</time>
      </trkpt>
      <trkpt lat="45.37489" lon="4.15081">
        <ele>742.3</ele>
        <time>2014-01-12T15:17:42Z</time>
      </trkpt>
      <trkpt lat="45.37508" lon="4.15063">
        <ele>744.7</ele>
        <time>2014-01-12T15:17:54Z</time>
      </trkpt>
      <trkpt lat="45.37515" lon="4.1505">
        <ele>746.5</ele>
        <time>2014-01-12T15:18:01Z</time>
      </trkpt>
      <trkpt lat="45.37532" lon="4.15034">
        <ele>749.9</ele>
        <time>2014-01-12T15:18:14Z</time>
      </trkpt>
      <trkpt lat="45.37545" lon="4.15036">
        <ele>752.8</ele>
        <time>2014-01-12T15:18:22Z</time>
      </trkpt>
      <trkpt lat="45.37557" lon="4.15041">
        <ele>756.5</ele>
        <time>2014-01-12T15:18:30Z</time>
      </trkpt>
      <trkpt lat="45.37568" lon="4.15043">
        <ele>759.6</ele>
        <time>2014-01-12T15:18:38Z</time>
      </trkpt>
      <trkpt lat="45.37586" lon="4.15044">
        <ele>765.1</ele>
        <time>2014-01-12T15:18:52Z</time>
      </trkpt>
      <trkpt lat="45.37611" lon="4.15034">
        <ele>767.4</ele>
        <time>2014-01-12T15:19:07Z</time>
      </trkpt>
      <trkpt lat="45.37629" lon="4.15039">
        <ele>770.5</ele>
        <time>2014-01-12T15:19:21Z</time>
      </trkpt>
      <trkpt lat="45.37646" lon="4.15058">
        <ele>773.5</ele>
        <time>2014-01-12T15:19:34Z</time>
      </trkpt>
      <trkpt lat="45.37655" lon="4.15068">
        <ele>774.4</ele>
        <time>2014-01-12T15:19:41Z</time>
      </trkpt>
      <trkpt lat="45.37655" lon="4.15068">
        <ele>775.9</ele>
        <time>2014-01-12T15:19:49Z</time>
      </trkpt>
      <trkpt lat="45.37655" lon="4.15068">
        <ele>775.9</ele>
        <time>2014-01-12T15:20:16Z</time>
      </trkpt>
      <trkpt lat="45.37657" lon="4.15038">
        <ele>774.2</ele>
        <time>2014-01-12T15:20:16Z</time>
      </trkpt>
      <trkpt lat="45.37656" lon="4.15017">
        <ele>773.9</ele>
        <time>2014-01-12T15:20:24Z</time>
      </trkpt>
      <trkpt lat="45.37658" lon="4.14988">
        <ele>773.7</ele>
        <time>2014-01-12T15:20:33Z</time>
      </trkpt>
      <trkpt lat="45.37657" lon="4.14951">
        <ele>773.7</ele>
        <time>2014-01-12T15:20:42Z</time>
      </trkpt>
      <trkpt lat="45.37659" lon="4.14924">
        <ele>772.7</ele>
        <time>2014-01-12T15:20:48Z</time>
      </trkpt>
      <trkpt lat="45.37663" lon="4.14896">
        <ele>771.5</ele>
        <time>2014-01-12T15:20:55Z</time>
      </trkpt>
      <trkpt lat="45.3767" lon="4.14867">
        <ele>771.5</ele>
        <time>2014-01-12T15:21:03Z</time>
      </trkpt>
      <trkpt lat="45.37672" lon="4.1486">
        <ele>771.3</ele>
        <time>2014-01-12T15:21:05Z</time>
      </trkpt>
      <trkpt lat="45.37672" lon="4.1486">
        <ele>779.3</ele>
        <time>2014-01-12T15:21:10Z</time>
      </trkpt>
      <trkpt lat="45.37672" lon="4.1486">
        <ele>779.3</ele>
        <time>2014-01-12T15:21:43Z</time>
      </trkpt>
      <trkpt lat="45.37677" lon="4.14833">
        <ele>771.8</ele>
        <time>2014-01-12T15:21:43Z</time>
      </trkpt>
      <trkpt lat="45.37689" lon="4.14799">
        <ele>770.8</ele>
        <time>2014-01-12T15:21:49Z</time>
      </trkpt>
      <trkpt lat="45.37698" lon="4.14779">
        <ele>770.7</ele>
        <time>2014-01-12T15:21:53Z</time>
      </trkpt>
      <trkpt lat="45.37708" lon="4.14755">
        <ele>770.4</ele>
        <time>2014-01-12T15:21:58Z</time>
      </trkpt>
      <trkpt lat="45.37714" lon="4.1474">
        <ele>770.6</ele>
        <time>2014-01-12T15:22:01Z</time>
      </trkpt>
      <trkpt lat="45.3772" lon="4.14721">
        <ele>771.4</ele>
        <time>2014-01-12T15:22:05Z</time>
      </trkpt>
      <trkpt lat="45.37726" lon="4.14691">
        <ele>771.5</ele>
        <time>2014-01-12T15:22:11Z</time>
      </trkpt>
      <trkpt lat="45.3773" lon="4.14665">
        <ele>772</ele>
        <time>2014-01-12T15:22:17Z</time>
      </trkpt>
      <trkpt lat="45.37734" lon="4.14646">
        <ele>772.5</ele>
        <time>2014-01-12T15:22:22Z</time>
      </trkpt>
      <trkpt lat="45.37741" lon="4.14627">
        <ele>772.9</ele>
        <time>2014-01-12T15:22:28Z</time>
      </trkpt>
      <trkpt lat="45.37753" lon="4.14603">
        <ele>774.1</ele>
        <time>2014-01-12T15:22:36Z</time>
      </trkpt>
      <trkpt lat="45.37758" lon="4.14572">
        <ele>776.1</ele>
        <time>2014-01-12T15:22:44Z</time>
      </trkpt>
      <trkpt lat="45.3776" lon="4.14545">
        <ele>776.6</ele>
        <time>2014-01-12T15:22:50Z</time>
      </trkpt>
      <trkpt lat="45.3776" lon="4.14524">
        <ele>777.1</ele>
        <time>2014-01-12T15:22:55Z</time>
      </trkpt>
      <trkpt lat="45.37763" lon="4.14498">
        <ele>778.6</ele>
        <time>2014-01-12T15:23:03Z</time>
      </trkpt>
      <trkpt lat="45.37781" lon="4.14489">
        <ele>780.7</ele>
        <time>2014-01-12T15:23:10Z</time>
      </trkpt>
      <trkpt lat="45.37796" lon="4.14481">
        <ele>781.1</ele>
        <time>2014-01-12T15:23:15Z</time>
      </trkpt>
      <trkpt lat="45.37815" lon="4.14475">
        <ele>782.5</ele>
        <time>2014-01-12T15:23:21Z</time>
      </trkpt>
      <trkpt lat="45.37839" lon="4.1447">
        <ele>782.4</ele>
        <time>2014-01-12T15:23:29Z</time>
      </trkpt>
      <trkpt lat="45.37862" lon="4.14465">
        <ele>781.7</ele>
        <time>2014-01-12T15:23:36Z</time>
      </trkpt>
      <trkpt lat="45.37883" lon="4.1446">
        <ele>781.2</ele>
        <time>2014-01-12T15:23:43Z</time>
      </trkpt>
      <trkpt lat="45.37908" lon="4.1445">
        <ele>780.2</ele>
        <time>2014-01-12T15:23:51Z</time>
      </trkpt>
      <trkpt lat="45.37926" lon="4.14442">
        <ele>780.6</ele>
        <time>2014-01-12T15:23:57Z</time>
      </trkpt>
      <trkpt lat="45.37944" lon="4.14434">
        <ele>781.6</ele>
        <time>2014-01-12T15:24:03Z</time>
      </trkpt>
      <trkpt lat="45.37968" lon="4.14423">
        <ele>784.7</ele>
        <time>2014-01-12T15:24:11Z</time>
      </trkpt>
      <trkpt lat="45.3799" lon="4.14415">
        <ele>787.7</ele>
        <time>2014-01-12T15:24:18Z</time>
      </trkpt>
      <trkpt lat="45.38008" lon="4.14401">
        <ele>789.4</ele>
        <time>2014-01-12T15:24:24Z</time>
      </trkpt>
      <trkpt lat="45.38029" lon="4.14382">
        <ele>790.9</ele>
        <time>2014-01-12T15:24:30Z</time>
      </trkpt>
      <trkpt lat="45.38052" lon="4.14363">
        <ele>791.9</ele>
        <time>2014-01-12T15:24:36Z</time>
      </trkpt>
      <trkpt lat="45.38067" lon="4.14357">
        <ele>791.9</ele>
        <time>2014-01-12T15:24:42Z</time>
      </trkpt>
      <trkpt lat="45.38079" lon="4.14336">
        <ele>792.3</ele>
        <time>2014-01-12T15:24:48Z</time>
      </trkpt>
      <trkpt lat="45.38099" lon="4.14315">
        <ele>793.3</ele>
        <time>2014-01-12T15:24:55Z</time>
      </trkpt>
      <trkpt lat="45.38112" lon="4.14292">
        <ele>794.7</ele>
        <time>2014-01-12T15:25:02Z</time>
      </trkpt>
      <trkpt lat="45.38122" lon="4.14266">
        <ele>795.5</ele>
        <time>2014-01-12T15:25:08Z</time>
      </trkpt>
      <trkpt lat="45.38132" lon="4.1425">
        <ele>795.6</ele>
        <time>2014-01-12T15:25:12Z</time>
      </trkpt>
      <trkpt lat="45.38151" lon="4.1422">
        <ele>796.8</ele>
        <time>2014-01-12T15:25:19Z</time>
      </trkpt>
      <trkpt lat="45.38167" lon="4.14194">
        <ele>797</ele>
        <time>2014-01-12T15:25:25Z</time>
      </trkpt>
      <trkpt lat="45.38184" lon="4.14165">
        <ele>797.4</ele>
        <time>2014-01-12T15:25:31Z</time>
      </trkpt>
      <trkpt lat="45.38205" lon="4.14134">
        <ele>797.5</ele>
        <time>2014-01-12T15:25:38Z</time>
      </trkpt>
      <trkpt lat="45.38219" lon="4.14112">
        <ele>798.5</ele>
        <time>2014-01-12T15:25:43Z</time>
      </trkpt>
      <trkpt lat="45.38241" lon="4.14083">
        <ele>798.7</ele>
        <time>2014-01-12T15:25:50Z</time>
      </trkpt>
      <trkpt lat="45.38259" lon="4.14066">
        <ele>798.6</ele>
        <time>2014-01-12T15:25:55Z</time>
      </trkpt>
      <trkpt lat="45.38279" lon="4.14046">
        <ele>799</ele>
        <time>2014-01-12T15:26:01Z</time>
      </trkpt>
      <trkpt lat="45.38297" lon="4.14026">
        <ele>798.8</ele>
        <time>2014-01-12T15:26:06Z</time>
      </trkpt>
      <trkpt lat="45.3832" lon="4.13999">
        <ele>798.5</ele>
        <time>2014-01-12T15:26:12Z</time>
      </trkpt>
      <trkpt lat="45.3835" lon="4.13964">
        <ele>798.1</ele>
        <time>2014-01-12T15:26:19Z</time>
      </trkpt>
      <trkpt lat="45.38376" lon="4.13927">
        <ele>797.8</ele>
        <time>2014-01-12T15:26:25Z</time>
      </trkpt>
      <trkpt lat="45.38401" lon="4.13891">
        <ele>797.7</ele>
        <time>2014-01-12T15:26:31Z</time>
      </trkpt>
      <trkpt lat="45.38423" lon="4.13855">
        <ele>797.4</ele>
        <time>2014-01-12T15:26:37Z</time>
      </trkpt>
      <trkpt lat="45.38442" lon="4.13819">
        <ele>796.8</ele>
        <time>2014-01-12T15:26:43Z</time>
      </trkpt>
      <trkpt lat="45.38463" lon="4.13794">
        <ele>796.9</ele>
        <time>2014-01-12T15:26:50Z</time>
      </trkpt>
      <trkpt lat="45.38476" lon="4.1378">
        <ele>797.5</ele>
        <time>2014-01-12T15:26:59Z</time>
      </trkpt>
      <trkpt lat="45.38497" lon="4.13766">
        <ele>797.7</ele>
        <time>2014-01-12T15:27:04Z</time>
      </trkpt>
      <trkpt lat="45.38525" lon="4.13748">
        <ele>798.2</ele>
        <time>2014-01-12T15:27:10Z</time>
      </trkpt>
      <trkpt lat="45.38559" lon="4.13728">
        <ele>797.9</ele>
        <time>2014-01-12T15:27:16Z</time>
      </trkpt>
      <trkpt lat="45.38608" lon="4.13703">
        <ele>796.1</ele>
        <time>2014-01-12T15:27:21Z</time>
      </trkpt>
      <trkpt lat="45.38647" lon="4.13687">
        <ele>795.1</ele>
        <time>2014-01-12T15:27:26Z</time>
      </trkpt>
      <trkpt lat="45.38689" lon="4.13664">
        <ele>793.9</ele>
        <time>2014-01-12T15:27:32Z</time>
      </trkpt>
      <trkpt lat="45.38708" lon="4.13652">
        <ele>793.1</ele>
        <time>2014-01-12T15:27:35Z</time>
      </trkpt>
      <trkpt lat="45.38726" lon="4.13638">
        <ele>792.5</ele>
        <time>2014-01-12T15:27:38Z</time>
      </trkpt>
      <trkpt lat="45.38743" lon="4.13624">
        <ele>792</ele>
        <time>2014-01-12T15:27:41Z</time>
      </trkpt>
      <trkpt lat="45.3878" lon="4.13602">
        <ele>792.2</ele>
        <time>2014-01-12T15:27:48Z</time>
      </trkpt>
      <trkpt lat="45.38816" lon="4.1358">
        <ele>792.1</ele>
        <time>2014-01-12T15:27:55Z</time>
      </trkpt>
      <trkpt lat="45.38857" lon="4.13547">
        <ele>791.7</ele>
        <time>2014-01-12T15:28:01Z</time>
      </trkpt>
      <trkpt lat="45.38917" lon="4.13537">
        <ele>790.3</ele>
        <time>2014-01-12T15:28:07Z</time>
      </trkpt>
      <trkpt lat="45.38969" lon="4.13539">
        <ele>788.1</ele>
        <time>2014-01-12T15:28:12Z</time>
      </trkpt>
      <trkpt lat="45.39032" lon="4.1354">
        <ele>785.1</ele>
        <time>2014-01-12T15:28:19Z</time>
      </trkpt>
      <trkpt lat="45.39085" lon="4.13526">
        <ele>782</ele>
        <time>2014-01-12T15:28:26Z</time>
      </trkpt>
      <trkpt lat="45.3912" lon="4.13519">
        <ele>779</ele>
        <time>2014-01-12T15:28:31Z</time>
      </trkpt>
      <trkpt lat="45.39164" lon="4.13504">
        <ele>775.3</ele>
        <time>2014-01-12T15:28:37Z</time>
      </trkpt>
      <trkpt lat="45.39191" lon="4.13474">
        <ele>771.2</ele>
        <time>2014-01-12T15:28:43Z</time>
      </trkpt>
      <trkpt lat="45.39187" lon="4.13454">
        <ele>769</ele>
        <time>2014-01-12T15:28:48Z</time>
      </trkpt>
      <trkpt lat="45.39178" lon="4.13409">
        <ele>766.4</ele>
        <time>2014-01-12T15:28:58Z</time>
      </trkpt>
      <trkpt lat="45.39171" lon="4.1339">
        <ele>766</ele>
        <time>2014-01-12T15:29:03Z</time>
      </trkpt>
      <trkpt lat="45.39171" lon="4.13356">
        <ele>765.2</ele>
        <time>2014-01-12T15:29:11Z</time>
      </trkpt>
      <trkpt lat="45.39172" lon="4.13342">
        <ele>765.4</ele>
        <time>2014-01-12T15:29:14Z</time>
      </trkpt>
      <trkpt lat="45.39173" lon="4.13324">
        <ele>765.8</ele>
        <time>2014-01-12T15:29:18Z</time>
      </trkpt>
      <trkpt lat="45.39173" lon="4.13287">
        <ele>765.6</ele>
        <time>2014-01-12T15:29:25Z</time>
      </trkpt>
      <trkpt lat="45.39172" lon="4.13255">
        <ele>765.4</ele>
        <time>2014-01-12T15:29:31Z</time>
      </trkpt>
      <trkpt lat="45.39171" lon="4.13211">
        <ele>765.3</ele>
        <time>2014-01-12T15:29:37Z</time>
      </trkpt>
      <trkpt lat="45.39168" lon="4.13161">
        <ele>763.3</ele>
        <time>2014-01-12T15:29:42Z</time>
      </trkpt>
      <trkpt lat="45.39163" lon="4.13093">
        <ele>761</ele>
        <time>2014-01-12T15:29:48Z</time>
      </trkpt>
      <trkpt lat="45.39154" lon="4.13055">
        <ele>758.2</ele>
        <time>2014-01-12T15:29:53Z</time>
      </trkpt>
      <trkpt lat="45.39136" lon="4.13026">
        <ele>755.1</ele>
        <time>2014-01-12T15:29:59Z</time>
      </trkpt>
      <trkpt lat="45.39121" lon="4.12999">
        <ele>754.2</ele>
        <time>2014-01-12T15:30:04Z</time>
      </trkpt>
      <trkpt lat="45.39112" lon="4.12979">
        <ele>752.6</ele>
        <time>2014-01-12T15:30:07Z</time>
      </trkpt>
      <trkpt lat="45.39113" lon="4.12925">
        <ele>749.9</ele>
        <time>2014-01-12T15:30:13Z</time>
      </trkpt>
      <trkpt lat="45.39137" lon="4.12878">
        <ele>747.5</ele>
        <time>2014-01-12T15:30:19Z</time>
      </trkpt>
      <trkpt lat="45.39161" lon="4.12836">
        <ele>745.5</ele>
        <time>2014-01-12T15:30:25Z</time>
      </trkpt>
      <trkpt lat="45.39205" lon="4.12828">
        <ele>744.5</ele>
        <time>2014-01-12T15:30:31Z</time>
      </trkpt>
      <trkpt lat="45.39224" lon="4.12804">
        <ele>744</ele>
        <time>2014-01-12T15:30:37Z</time>
      </trkpt>
      <trkpt lat="45.39233" lon="4.12775">
        <ele>744.3</ele>
        <time>2014-01-12T15:30:43Z</time>
      </trkpt>
      <trkpt lat="45.39238" lon="4.12746">
        <ele>744.4</ele>
        <time>2014-01-12T15:30:49Z</time>
      </trkpt>
      <trkpt lat="45.39241" lon="4.12721">
        <ele>744.6</ele>
        <time>2014-01-12T15:30:55Z</time>
      </trkpt>
      <trkpt lat="45.39245" lon="4.1269">
        <ele>746</ele>
        <time>2014-01-12T15:31:03Z</time>
      </trkpt>
      <trkpt lat="45.39251" lon="4.12658">
        <ele>747.2</ele>
        <time>2014-01-12T15:31:12Z</time>
      </trkpt>
      <trkpt lat="45.39253" lon="4.12632">
        <ele>749.4</ele>
        <time>2014-01-12T15:31:19Z</time>
      </trkpt>
      <trkpt lat="45.39252" lon="4.12601">
        <ele>752.8</ele>
        <time>2014-01-12T15:31:27Z</time>
      </trkpt>
      <trkpt lat="45.39246" lon="4.12574">
        <ele>755.2</ele>
        <time>2014-01-12T15:31:33Z</time>
      </trkpt>
      <trkpt lat="45.39237" lon="4.12551">
        <ele>756.8</ele>
        <time>2014-01-12T15:31:39Z</time>
      </trkpt>
      <trkpt lat="45.39214" lon="4.12544">
        <ele>758.5</ele>
        <time>2014-01-12T15:31:46Z</time>
      </trkpt>
      <trkpt lat="45.39192" lon="4.12544">
        <ele>760.2</ele>
        <time>2014-01-12T15:31:53Z</time>
      </trkpt>
      <trkpt lat="45.39179" lon="4.12545">
        <ele>761.1</ele>
        <time>2014-01-12T15:31:58Z</time>
      </trkpt>
      <trkpt lat="45.39162" lon="4.12549">
        <ele>763.1</ele>
        <time>2014-01-12T15:32:05Z</time>
      </trkpt>
      <trkpt lat="45.39141" lon="4.12557">
        <ele>766.7</ele>
        <time>2014-01-12T15:32:13Z</time>
      </trkpt>
      <trkpt lat="45.39125" lon="4.12564">
        <ele>769.4</ele>
        <time>2014-01-12T15:32:20Z</time>
      </trkpt>
      <trkpt lat="45.39114" lon="4.12566">
        <ele>771.3</ele>
        <time>2014-01-12T15:32:25Z</time>
      </trkpt>
      <trkpt lat="45.39085" lon="4.12569">
        <ele>772.8</ele>
        <time>2014-01-12T15:32:35Z</time>
      </trkpt>
      <trkpt lat="45.3907" lon="4.12565">
        <ele>774.2</ele>
        <time>2014-01-12T15:32:40Z</time>
      </trkpt>
      <trkpt lat="45.39045" lon="4.12558">
        <ele>775.6</ele>
        <time>2014-01-12T15:32:48Z</time>
      </trkpt>
      <trkpt lat="45.39024" lon="4.12551">
        <ele>775.8</ele>
        <time>2014-01-12T15:32:54Z</time>
      </trkpt>
      <trkpt lat="45.39003" lon="4.12543">
        <ele>776.2</ele>
        <time>2014-01-12T15:33:00Z</time>
      </trkpt>
      <trkpt lat="45.38983" lon="4.12531">
        <ele>776.2</ele>
        <time>2014-01-12T15:33:06Z</time>
      </trkpt>
      <trkpt lat="45.38958" lon="4.12514">
        <ele>776.1</ele>
        <time>2014-01-12T15:33:14Z</time>
      </trkpt>
      <trkpt lat="45.38937" lon="4.12507">
        <ele>777.7</ele>
        <time>2014-01-12T15:33:20Z</time>
      </trkpt>
      <trkpt lat="45.38919" lon="4.125">
        <ele>779.1</ele>
        <time>2014-01-12T15:33:26Z</time>
      </trkpt>
      <trkpt lat="45.38903" lon="4.12489">
        <ele>780.7</ele>
        <time>2014-01-12T15:33:32Z</time>
      </trkpt>
      <trkpt lat="45.38881" lon="4.12476">
        <ele>781.2</ele>
        <time>2014-01-12T15:33:40Z</time>
      </trkpt>
      <trkpt lat="45.3886" lon="4.12465">
        <ele>782.4</ele>
        <time>2014-01-12T15:33:48Z</time>
      </trkpt>
      <trkpt lat="45.38843" lon="4.12457">
        <ele>782.6</ele>
        <time>2014-01-12T15:33:54Z</time>
      </trkpt>
      <trkpt lat="45.38823" lon="4.12445">
        <ele>784</ele>
        <time>2014-01-12T15:34:02Z</time>
      </trkpt>
      <trkpt lat="45.3881" lon="4.12433">
        <ele>784.7</ele>
        <time>2014-01-12T15:34:07Z</time>
      </trkpt>
      <trkpt lat="45.38791" lon="4.12413">
        <ele>786.9</ele>
        <time>2014-01-12T15:34:14Z</time>
      </trkpt>
      <trkpt lat="45.38775" lon="4.12388">
        <ele>788.3</ele>
        <time>2014-01-12T15:34:21Z</time>
      </trkpt>
      <trkpt lat="45.38757" lon="4.12364">
        <ele>788.2</ele>
        <time>2014-01-12T15:34:27Z</time>
      </trkpt>
      <trkpt lat="45.38736" lon="4.12341">
        <ele>788.2</ele>
        <time>2014-01-12T15:34:33Z</time>
      </trkpt>
      <trkpt lat="45.3871" lon="4.1232">
        <ele>785.8</ele>
        <time>2014-01-12T15:34:40Z</time>
      </trkpt>
      <trkpt lat="45.38691" lon="4.12313">
        <ele>783.6</ele>
        <time>2014-01-12T15:34:45Z</time>
      </trkpt>
      <trkpt lat="45.38672" lon="4.12307">
        <ele>783.3</ele>
        <time>2014-01-12T15:34:50Z</time>
      </trkpt>
      <trkpt lat="45.3865" lon="4.123">
        <ele>783.2</ele>
        <time>2014-01-12T15:34:56Z</time>
      </trkpt>
      <trkpt lat="45.38634" lon="4.12294">
        <ele>782.6</ele>
        <time>2014-01-12T15:35:01Z</time>
      </trkpt>
      <trkpt lat="45.38608" lon="4.1229">
        <ele>781.6</ele>
        <time>2014-01-12T15:35:08Z</time>
      </trkpt>
      <trkpt lat="45.38588" lon="4.12286">
        <ele>782.1</ele>
        <time>2014-01-12T15:35:14Z</time>
      </trkpt>
      <trkpt lat="45.38575" lon="4.12284">
        <ele>782.7</ele>
        <time>2014-01-12T15:35:18Z</time>
      </trkpt>
      <trkpt lat="45.38566" lon="4.12283">
        <ele>783.1</ele>
        <time>2014-01-12T15:35:21Z</time>
      </trkpt>
      <trkpt lat="45.38547" lon="4.1228">
        <ele>785.3</ele>
        <time>2014-01-12T15:35:27Z</time>
      </trkpt>
      <trkpt lat="45.38527" lon="4.12276">
        <ele>787.5</ele>
        <time>2014-01-12T15:35:33Z</time>
      </trkpt>
      <trkpt lat="45.38507" lon="4.12271">
        <ele>788.6</ele>
        <time>2014-01-12T15:35:39Z</time>
      </trkpt>
      <trkpt lat="45.38506" lon="4.12246">
        <ele>788.6</ele>
        <time>2014-01-12T15:35:46Z</time>
      </trkpt>
      <trkpt lat="45.38514" lon="4.12211">
        <ele>788.7</ele>
        <time>2014-01-12T15:35:54Z</time>
      </trkpt>
      <trkpt lat="45.38515" lon="4.12177">
        <ele>787.2</ele>
        <time>2014-01-12T15:36:01Z</time>
      </trkpt>
      <trkpt lat="45.38535" lon="4.12137">
        <ele>786.9</ele>
        <time>2014-01-12T15:36:10Z</time>
      </trkpt>
      <trkpt lat="45.38546" lon="4.12117">
        <ele>786.3</ele>
        <time>2014-01-12T15:36:15Z</time>
      </trkpt>
      <trkpt lat="45.38557" lon="4.12094">
        <ele>785.4</ele>
        <time>2014-01-12T15:36:20Z</time>
      </trkpt>
      <trkpt lat="45.38572" lon="4.12062">
        <ele>784.1</ele>
        <time>2014-01-12T15:36:27Z</time>
      </trkpt>
      <trkpt lat="45.38591" lon="4.1202">
        <ele>782.5</ele>
        <time>2014-01-12T15:36:33Z</time>
      </trkpt>
      <trkpt lat="45.3859" lon="4.11955">
        <ele>779.4</ele>
        <time>2014-01-12T15:36:40Z</time>
      </trkpt>
      <trkpt lat="45.38591" lon="4.11913">
        <ele>777.5</ele>
        <time>2014-01-12T15:36:45Z</time>
      </trkpt>
      <trkpt lat="45.38589" lon="4.1186">
        <ele>774.7</ele>
        <time>2014-01-12T15:36:52Z</time>
      </trkpt>
      <trkpt lat="45.38602" lon="4.11805">
        <ele>771.9</ele>
        <time>2014-01-12T15:36:57Z</time>
      </trkpt>
      <trkpt lat="45.38614" lon="4.11769">
        <ele>766.2</ele>
        <time>2014-01-12T15:37:06Z</time>
      </trkpt>
      <trkpt lat="45.38634" lon="4.11753">
        <ele>761.8</ele>
        <time>2014-01-12T15:37:18Z</time>
      </trkpt>
      <trkpt lat="45.38642" lon="4.11718">
        <ele>760.4</ele>
        <time>2014-01-12T15:37:30Z</time>
      </trkpt>
      <trkpt lat="45.38649" lon="4.11689">
        <ele>760.4</ele>
        <time>2014-01-12T15:37:40Z</time>
      </trkpt>
      <trkpt lat="45.38651" lon="4.11668">
        <ele>761.1</ele>
        <time>2014-01-12T15:37:46Z</time>
      </trkpt>
      <trkpt lat="45.38658" lon="4.11647">
        <ele>761.8</ele>
        <time>2014-01-12T15:37:52Z</time>
      </trkpt>
      <trkpt lat="45.38662" lon="4.1163">
        <ele>761.8</ele>
        <time>2014-01-12T15:37:59Z</time>
      </trkpt>
      <trkpt lat="45.38669" lon="4.1161">
        <ele>762.3</ele>
        <time>2014-01-12T15:38:07Z</time>
      </trkpt>
      <trkpt lat="45.38683" lon="4.11576">
        <ele>762.8</ele>
        <time>2014-01-12T15:38:17Z</time>
      </trkpt>
      <trkpt lat="45.38691" lon="4.11549">
        <ele>762.3</ele>
        <time>2014-01-12T15:38:24Z</time>
      </trkpt>
      <trkpt lat="45.38694" lon="4.11519">
        <ele>761.9</ele>
        <time>2014-01-12T15:38:32Z</time>
      </trkpt>
      <trkpt lat="45.38705" lon="4.11487">
        <ele>761.5</ele>
        <time>2014-01-12T15:38:39Z</time>
      </trkpt>
      <trkpt lat="45.38712" lon="4.11462">
        <ele>761.6</ele>
        <time>2014-01-12T15:38:45Z</time>
      </trkpt>
      <trkpt lat="45.38721" lon="4.11431">
        <ele>762.9</ele>
        <time>2014-01-12T15:38:52Z</time>
      </trkpt>
      <trkpt lat="45.3873" lon="4.11393">
        <ele>763.6</ele>
        <time>2014-01-12T15:38:59Z</time>
      </trkpt>
      <trkpt lat="45.38739" lon="4.11358">
        <ele>764.4</ele>
        <time>2014-01-12T15:39:05Z</time>
      </trkpt>
      <trkpt lat="45.38745" lon="4.11335">
        <ele>764.7</ele>
        <time>2014-01-12T15:39:09Z</time>
      </trkpt>
      <trkpt lat="45.3875" lon="4.11292">
        <ele>764.5</ele>
        <time>2014-01-12T15:39:15Z</time>
      </trkpt>
      <trkpt lat="45.38755" lon="4.11238">
        <ele>761.8</ele>
        <time>2014-01-12T15:39:21Z</time>
      </trkpt>
      <trkpt lat="45.38748" lon="4.11179">
        <ele>759.9</ele>
        <time>2014-01-12T15:39:27Z</time>
      </trkpt>
      <trkpt lat="45.38751" lon="4.11137">
        <ele>756.9</ele>
        <time>2014-01-12T15:39:32Z</time>
      </trkpt>
      <trkpt lat="45.38753" lon="4.11105">
        <ele>755.6</ele>
        <time>2014-01-12T15:39:39Z</time>
      </trkpt>
      <trkpt lat="45.38754" lon="4.11068">
        <ele>758.3</ele>
        <time>2014-01-12T15:39:50Z</time>
      </trkpt>
      <trkpt lat="45.38754" lon="4.11045">
        <ele>760.7</ele>
        <time>2014-01-12T15:39:57Z</time>
      </trkpt>
      <trkpt lat="45.38763" lon="4.11016">
        <ele>763.4</ele>
        <time>2014-01-12T15:40:07Z</time>
      </trkpt>
      <trkpt lat="45.38777" lon="4.1099">
        <ele>764.4</ele>
        <time>2014-01-12T15:40:17Z</time>
      </trkpt>
      <trkpt lat="45.38788" lon="4.10968">
        <ele>766.4</ele>
        <time>2014-01-12T15:40:25Z</time>
      </trkpt>
      <trkpt lat="45.38798" lon="4.10943">
        <ele>768.8</ele>
        <time>2014-01-12T15:40:36Z</time>
      </trkpt>
      <trkpt lat="45.38812" lon="4.10915">
        <ele>771.3</ele>
        <time>2014-01-12T15:40:48Z</time>
      </trkpt>
      <trkpt lat="45.38821" lon="4.10894">
        <ele>772.8</ele>
        <time>2014-01-12T15:40:56Z</time>
      </trkpt>
      <trkpt lat="45.38829" lon="4.10875">
        <ele>774</ele>
        <time>2014-01-12T15:41:04Z</time>
      </trkpt>
      <trkpt lat="45.38844" lon="4.10852">
        <ele>774.6</ele>
        <time>2014-01-12T15:41:16Z</time>
      </trkpt>
      <trkpt lat="45.38854" lon="4.1083">
        <ele>776.7</ele>
        <time>2014-01-12T15:41:26Z</time>
      </trkpt>
      <trkpt lat="45.38867" lon="4.1081">
        <ele>779</ele>
        <time>2014-01-12T15:41:37Z</time>
      </trkpt>
      <trkpt lat="45.38869" lon="4.10808">
        <ele>779.2</ele>
        <time>2014-01-12T15:41:39Z</time>
      </trkpt>
      <trkpt lat="45.38869" lon="4.10808">
        <ele>789.5</ele>
        <time>2014-01-12T15:41:47Z</time>
      </trkpt>
      <trkpt lat="45.38869" lon="4.10808">
        <ele>789.5</ele>
        <time>2014-01-12T15:43:15Z</time>
      </trkpt>
      <trkpt lat="45.38874" lon="4.10785">
        <ele>781.9</ele>
        <time>2014-01-12T15:43:15Z</time>
      </trkpt>
      <trkpt lat="45.38887" lon="4.10763">
        <ele>782</ele>
        <time>2014-01-12T15:43:22Z</time>
      </trkpt>
      <trkpt lat="45.389" lon="4.10731">
        <ele>783.5</ele>
        <time>2014-01-12T15:43:32Z</time>
      </trkpt>
      <trkpt lat="45.38908" lon="4.10703">
        <ele>784.6</ele>
        <time>2014-01-12T15:43:39Z</time>
      </trkpt>
      <trkpt lat="45.38912" lon="4.10672">
        <ele>786</ele>
        <time>2014-01-12T15:43:48Z</time>
      </trkpt>
      <trkpt lat="45.38908" lon="4.10641">
        <ele>790.6</ele>
        <time>2014-01-12T15:43:58Z</time>
      </trkpt>
      <trkpt lat="45.38902" lon="4.10612">
        <ele>794.5</ele>
        <time>2014-01-12T15:44:07Z</time>
      </trkpt>
      <trkpt lat="45.38896" lon="4.10587">
        <ele>796.7</ele>
        <time>2014-01-12T15:44:15Z</time>
      </trkpt>
      <trkpt lat="45.38897" lon="4.1056">
        <ele>798</ele>
        <time>2014-01-12T15:44:24Z</time>
      </trkpt>
      <trkpt lat="45.389" lon="4.10531">
        <ele>799.5</ele>
        <time>2014-01-12T15:44:32Z</time>
      </trkpt>
      <trkpt lat="45.389" lon="4.10499">
        <ele>799.8</ele>
        <time>2014-01-12T15:44:39Z</time>
      </trkpt>
      <trkpt lat="45.38898" lon="4.10472">
        <ele>800.7</ele>
        <time>2014-01-12T15:44:45Z</time>
      </trkpt>
      <trkpt lat="45.38893" lon="4.10445">
        <ele>800.8</ele>
        <time>2014-01-12T15:44:51Z</time>
      </trkpt>
      <trkpt lat="45.38887" lon="4.10414">
        <ele>801</ele>
        <time>2014-01-12T15:44:58Z</time>
      </trkpt>
      <trkpt lat="45.38887" lon="4.10377">
        <ele>800</ele>
        <time>2014-01-12T15:45:05Z</time>
      </trkpt>
      <trkpt lat="45.3889" lon="4.10346">
        <ele>799.3</ele>
        <time>2014-01-12T15:45:10Z</time>
      </trkpt>
      <trkpt lat="45.38892" lon="4.10328">
        <ele>799.3</ele>
        <time>2014-01-12T15:45:13Z</time>
      </trkpt>
      <trkpt lat="45.38895" lon="4.10297">
        <ele>798.7</ele>
        <time>2014-01-12T15:45:19Z</time>
      </trkpt>
      <trkpt lat="45.38898" lon="4.10264">
        <ele>798.4</ele>
        <time>2014-01-12T15:45:25Z</time>
      </trkpt>
      <trkpt lat="45.38901" lon="4.1025">
        <ele>798.4</ele>
        <time>2014-01-12T15:45:28Z</time>
      </trkpt>
      <trkpt lat="45.38907" lon="4.10221">
        <ele>799.2</ele>
        <time>2014-01-12T15:45:34Z</time>
      </trkpt>
      <trkpt lat="45.38916" lon="4.10188">
        <ele>798.7</ele>
        <time>2014-01-12T15:45:41Z</time>
      </trkpt>
      <trkpt lat="45.3893" lon="4.10157">
        <ele>798.1</ele>
        <time>2014-01-12T15:45:47Z</time>
      </trkpt>
      <trkpt lat="45.38952" lon="4.10113">
        <ele>796.9</ele>
        <time>2014-01-12T15:45:53Z</time>
      </trkpt>
      <trkpt lat="45.38981" lon="4.10067">
        <ele>795.3</ele>
        <time>2014-01-12T15:45:59Z</time>
      </trkpt>
      <trkpt lat="45.38996" lon="4.10047">
        <ele>794.1</ele>
        <time>2014-01-12T15:46:02Z</time>
      </trkpt>
      <trkpt lat="45.39012" lon="4.10031">
        <ele>792.3</ele>
        <time>2014-01-12T15:46:05Z</time>
      </trkpt>
      <trkpt lat="45.39037" lon="4.10014">
        <ele>790.3</ele>
        <time>2014-01-12T15:46:10Z</time>
      </trkpt>
      <trkpt lat="45.39062" lon="4.10004">
        <ele>788.3</ele>
        <time>2014-01-12T15:46:15Z</time>
      </trkpt>
      <trkpt lat="45.39103" lon="4.09991">
        <ele>786.3</ele>
        <time>2014-01-12T15:46:21Z</time>
      </trkpt>
      <trkpt lat="45.39137" lon="4.09957">
        <ele>786</ele>
        <time>2014-01-12T15:46:27Z</time>
      </trkpt>
      <trkpt lat="45.39163" lon="4.0994">
        <ele>784.3</ele>
        <time>2014-01-12T15:46:32Z</time>
      </trkpt>
      <trkpt lat="45.3918" lon="4.09935">
        <ele>785.1</ele>
        <time>2014-01-12T15:46:36Z</time>
      </trkpt>
      <trkpt lat="45.39195" lon="4.09926">
        <ele>786.5</ele>
        <time>2014-01-12T15:46:41Z</time>
      </trkpt>
      <trkpt lat="45.39211" lon="4.09912">
        <ele>786.5</ele>
        <time>2014-01-12T15:46:46Z</time>
      </trkpt>
      <trkpt lat="45.39228" lon="4.09901">
        <ele>785.6</ele>
        <time>2014-01-12T15:46:51Z</time>
      </trkpt>
      <trkpt lat="45.39247" lon="4.09889">
        <ele>786.5</ele>
        <time>2014-01-12T15:46:57Z</time>
      </trkpt>
      <trkpt lat="45.3927" lon="4.09878">
        <ele>789.5</ele>
        <time>2014-01-12T15:47:07Z</time>
      </trkpt>
      <trkpt lat="45.39283" lon="4.09869">
        <ele>790.9</ele>
        <time>2014-01-12T15:47:13Z</time>
      </trkpt>
      <trkpt lat="45.39306" lon="4.09847">
        <ele>795.3</ele>
        <time>2014-01-12T15:47:25Z</time>
      </trkpt>
      <trkpt lat="45.3933" lon="4.09819">
        <ele>796.9</ele>
        <time>2014-01-12T15:47:34Z</time>
      </trkpt>
      <trkpt lat="45.39342" lon="4.09808">
        <ele>796.8</ele>
        <time>2014-01-12T15:47:38Z</time>
      </trkpt>
      <trkpt lat="45.39354" lon="4.09795">
        <ele>795.7</ele>
        <time>2014-01-12T15:47:42Z</time>
      </trkpt>
      <trkpt lat="45.39361" lon="4.09767">
        <ele>795.9</ele>
        <time>2014-01-12T15:47:48Z</time>
      </trkpt>
      <trkpt lat="45.3935" lon="4.09739">
        <ele>796.8</ele>
        <time>2014-01-12T15:47:57Z</time>
      </trkpt>
      <trkpt lat="45.39338" lon="4.09728">
        <ele>801.2</ele>
        <time>2014-01-12T15:48:08Z</time>
      </trkpt>
      <trkpt lat="45.39299" lon="4.09761">
        <ele>805.5</ele>
        <time>2014-01-12T15:48:24Z</time>
      </trkpt>
      <trkpt lat="45.39278" lon="4.09753">
        <ele>805.9</ele>
        <time>2014-01-12T15:48:31Z</time>
      </trkpt>
      <trkpt lat="45.3926" lon="4.09737">
        <ele>806.4</ele>
        <time>2014-01-12T15:48:39Z</time>
      </trkpt>
      <trkpt lat="45.39244" lon="4.09719">
        <ele>805.7</ele>
        <time>2014-01-12T15:48:47Z</time>
      </trkpt>
      <trkpt lat="45.39237" lon="4.09709">
        <ele>805.9</ele>
        <time>2014-01-12T15:48:52Z</time>
      </trkpt>
      <trkpt lat="45.39227" lon="4.09689">
        <ele>807.6</ele>
        <time>2014-01-12T15:49:02Z</time>
      </trkpt>
      <trkpt lat="45.39217" lon="4.09667">
        <ele>810.2</ele>
        <time>2014-01-12T15:49:13Z</time>
      </trkpt>
      <trkpt lat="45.39222" lon="4.09641">
        <ele>813.8</ele>
        <time>2014-01-12T15:49:24Z</time>
      </trkpt>
      <trkpt lat="45.3923" lon="4.09616">
        <ele>816.7</ele>
        <time>2014-01-12T15:49:33Z</time>
      </trkpt>
      <trkpt lat="45.39233" lon="4.09602">
        <ele>818.6</ele>
        <time>2014-01-12T15:49:39Z</time>
      </trkpt>
      <trkpt lat="45.39239" lon="4.09577">
        <ele>821.8</ele>
        <time>2014-01-12T15:49:48Z</time>
      </trkpt>
      <trkpt lat="45.39243" lon="4.09559">
        <ele>823.7</ele>
        <time>2014-01-12T15:49:54Z</time>
      </trkpt>
      <trkpt lat="45.39244" lon="4.0953">
        <ele>826.7</ele>
        <time>2014-01-12T15:50:04Z</time>
      </trkpt>
      <trkpt lat="45.39243" lon="4.09513">
        <ele>828.8</ele>
        <time>2014-01-12T15:50:10Z</time>
      </trkpt>
      <trkpt lat="45.39248" lon="4.0948">
        <ele>833</ele>
        <time>2014-01-12T15:50:20Z</time>
      </trkpt>
      <trkpt lat="45.39247" lon="4.09455">
        <ele>835.2</ele>
        <time>2014-01-12T15:50:27Z</time>
      </trkpt>
      <trkpt lat="45.39241" lon="4.09432">
        <ele>837.6</ele>
        <time>2014-01-12T15:50:33Z</time>
      </trkpt>
      <trkpt lat="45.39233" lon="4.094">
        <ele>841.6</ele>
        <time>2014-01-12T15:50:42Z</time>
      </trkpt>
      <trkpt lat="45.39227" lon="4.0937">
        <ele>844.1</ele>
        <time>2014-01-12T15:50:48Z</time>
      </trkpt>
      <trkpt lat="45.39216" lon="4.09352">
        <ele>846.1</ele>
        <time>2014-01-12T15:50:54Z</time>
      </trkpt>
      <trkpt lat="45.39192" lon="4.09341">
        <ele>847.2</ele>
        <time>2014-01-12T15:51:02Z</time>
      </trkpt>
      <trkpt lat="45.39166" lon="4.09338">
        <ele>849.1</ele>
        <time>2014-01-12T15:51:10Z</time>
      </trkpt>
      <trkpt lat="45.39141" lon="4.09336">
        <ele>849.2</ele>
        <time>2014-01-12T15:51:17Z</time>
      </trkpt>
      <trkpt lat="45.39117" lon="4.09335">
        <ele>849.8</ele>
        <time>2014-01-12T15:51:24Z</time>
      </trkpt>
      <trkpt lat="45.39095" lon="4.09341">
        <ele>847.7</ele>
        <time>2014-01-12T15:51:31Z</time>
      </trkpt>
      <trkpt lat="45.39069" lon="4.09344">
        <ele>847.5</ele>
        <time>2014-01-12T15:51:38Z</time>
      </trkpt>
      <trkpt lat="45.39049" lon="4.09342">
        <ele>848</ele>
        <time>2014-01-12T15:51:45Z</time>
      </trkpt>
      <trkpt lat="45.39024" lon="4.0934">
        <ele>848.4</ele>
        <time>2014-01-12T15:51:52Z</time>
      </trkpt>
      <trkpt lat="45.38998" lon="4.09336">
        <ele>848.8</ele>
        <time>2014-01-12T15:51:58Z</time>
      </trkpt>
      <trkpt lat="45.38986" lon="4.09335">
        <ele>848.9</ele>
        <time>2014-01-12T15:52:01Z</time>
      </trkpt>
      <trkpt lat="45.38974" lon="4.09334">
        <ele>848.2</ele>
        <time>2014-01-12T15:52:04Z</time>
      </trkpt>
      <trkpt lat="45.38962" lon="4.09334">
        <ele>847.3</ele>
        <time>2014-01-12T15:52:07Z</time>
      </trkpt>
      <trkpt lat="45.38943" lon="4.09334">
        <ele>846.5</ele>
        <time>2014-01-12T15:52:12Z</time>
      </trkpt>
      <trkpt lat="45.38912" lon="4.09334">
        <ele>844</ele>
        <time>2014-01-12T15:52:20Z</time>
      </trkpt>
      <trkpt lat="45.38893" lon="4.09336">
        <ele>843.5</ele>
        <time>2014-01-12T15:52:25Z</time>
      </trkpt>
      <trkpt lat="45.38871" lon="4.09337">
        <ele>841.8</ele>
        <time>2014-01-12T15:52:31Z</time>
      </trkpt>
      <trkpt lat="45.38861" lon="4.09337">
        <ele>840.9</ele>
        <time>2014-01-12T15:52:34Z</time>
      </trkpt>
      <trkpt lat="45.38849" lon="4.09336">
        <ele>841.3</ele>
        <time>2014-01-12T15:52:38Z</time>
      </trkpt>
      <trkpt lat="45.38824" lon="4.09336">
        <ele>842.3</ele>
        <time>2014-01-12T15:52:46Z</time>
      </trkpt>
      <trkpt lat="45.38801" lon="4.09343">
        <ele>842.5</ele>
        <time>2014-01-12T15:52:53Z</time>
      </trkpt>
      <trkpt lat="45.38777" lon="4.09352">
        <ele>844.3</ele>
        <time>2014-01-12T15:53:01Z</time>
      </trkpt>
      <trkpt lat="45.38761" lon="4.09356">
        <ele>846</ele>
        <time>2014-01-12T15:53:07Z</time>
      </trkpt>
      <trkpt lat="45.38735" lon="4.09356">
        <ele>848.7</ele>
        <time>2014-01-12T15:53:15Z</time>
      </trkpt>
      <trkpt lat="45.38713" lon="4.09357">
        <ele>848.9</ele>
        <time>2014-01-12T15:53:21Z</time>
      </trkpt>
      <trkpt lat="45.38695" lon="4.09361">
        <ele>849.7</ele>
        <time>2014-01-12T15:53:27Z</time>
      </trkpt>
      <trkpt lat="45.38668" lon="4.09374">
        <ele>850.5</ele>
        <time>2014-01-12T15:53:35Z</time>
      </trkpt>
      <trkpt lat="45.38645" lon="4.09393">
        <ele>850.6</ele>
        <time>2014-01-12T15:53:42Z</time>
      </trkpt>
      <trkpt lat="45.38626" lon="4.09409">
        <ele>851.5</ele>
        <time>2014-01-12T15:53:48Z</time>
      </trkpt>
      <trkpt lat="45.3861" lon="4.09425">
        <ele>852.2</ele>
        <time>2014-01-12T15:53:53Z</time>
      </trkpt>
      <trkpt lat="45.38593" lon="4.09444">
        <ele>852.5</ele>
        <time>2014-01-12T15:53:59Z</time>
      </trkpt>
      <trkpt lat="45.38577" lon="4.0946">
        <ele>851.7</ele>
        <time>2014-01-12T15:54:04Z</time>
      </trkpt>
      <trkpt lat="45.38567" lon="4.09471">
        <ele>851</ele>
        <time>2014-01-12T15:54:07Z</time>
      </trkpt>
      <trkpt lat="45.38547" lon="4.09496">
        <ele>850.4</ele>
        <time>2014-01-12T15:54:13Z</time>
      </trkpt>
      <trkpt lat="45.3853" lon="4.09516">
        <ele>849.6</ele>
        <time>2014-01-12T15:54:18Z</time>
      </trkpt>
      <trkpt lat="45.3851" lon="4.09544">
        <ele>849.1</ele>
        <time>2014-01-12T15:54:24Z</time>
      </trkpt>
      <trkpt lat="45.38499" lon="4.0956">
        <ele>849.4</ele>
        <time>2014-01-12T15:54:28Z</time>
      </trkpt>
      <trkpt lat="45.3849" lon="4.09577">
        <ele>849.7</ele>
        <time>2014-01-12T15:54:32Z</time>
      </trkpt>
      <trkpt lat="45.38482" lon="4.09591">
        <ele>850</ele>
        <time>2014-01-12T15:54:35Z</time>
      </trkpt>
      <trkpt lat="45.38472" lon="4.09612">
        <ele>850.1</ele>
        <time>2014-01-12T15:54:39Z</time>
      </trkpt>
      <trkpt lat="45.38454" lon="4.09639">
        <ele>850.1</ele>
        <time>2014-01-12T15:54:45Z</time>
      </trkpt>
      <trkpt lat="45.38432" lon="4.09658">
        <ele>850.4</ele>
        <time>2014-01-12T15:54:51Z</time>
      </trkpt>
      <trkpt lat="45.38408" lon="4.09672">
        <ele>852.1</ele>
        <time>2014-01-12T15:54:57Z</time>
      </trkpt>
      <trkpt lat="45.3838" lon="4.09674">
        <ele>853.1</ele>
        <time>2014-01-12T15:55:04Z</time>
      </trkpt>
      <trkpt lat="45.38357" lon="4.09677">
        <ele>853.8</ele>
        <time>2014-01-12T15:55:09Z</time>
      </trkpt>
      <trkpt lat="45.38326" lon="4.09679">
        <ele>855</ele>
        <time>2014-01-12T15:55:16Z</time>
      </trkpt>
      <trkpt lat="45.383" lon="4.09684">
        <ele>856</ele>
        <time>2014-01-12T15:55:22Z</time>
      </trkpt>
      <trkpt lat="45.3828" lon="4.09683">
        <ele>856.9</ele>
        <time>2014-01-12T15:55:27Z</time>
      </trkpt>
      <trkpt lat="45.38252" lon="4.09679">
        <ele>858.1</ele>
        <time>2014-01-12T15:55:33Z</time>
      </trkpt>
      <trkpt lat="45.3823" lon="4.09678">
        <ele>859.2</ele>
        <time>2014-01-12T15:55:38Z</time>
      </trkpt>
      <trkpt lat="45.38202" lon="4.09675">
        <ele>860.8</ele>
        <time>2014-01-12T15:55:44Z</time>
      </trkpt>
      <trkpt lat="45.38187" lon="4.09674">
        <ele>860.9</ele>
        <time>2014-01-12T15:55:47Z</time>
      </trkpt>
      <trkpt lat="45.38161" lon="4.09675">
        <ele>861.1</ele>
        <time>2014-01-12T15:55:52Z</time>
      </trkpt>
      <trkpt lat="45.38141" lon="4.09677">
        <ele>860.8</ele>
        <time>2014-01-12T15:55:56Z</time>
      </trkpt>
      <trkpt lat="45.38115" lon="4.09681">
        <ele>861.5</ele>
        <time>2014-01-12T15:56:01Z</time>
      </trkpt>
      <trkpt lat="45.38083" lon="4.09686">
        <ele>860.7</ele>
        <time>2014-01-12T15:56:07Z</time>
      </trkpt>
      <trkpt lat="45.38048" lon="4.0969">
        <ele>860.4</ele>
        <time>2014-01-12T15:56:13Z</time>
      </trkpt>
      <trkpt lat="45.38013" lon="4.097">
        <ele>859.6</ele>
        <time>2014-01-12T15:56:19Z</time>
      </trkpt>
      <trkpt lat="45.37979" lon="4.09712">
        <ele>858.2</ele>
        <time>2014-01-12T15:56:25Z</time>
      </trkpt>
      <trkpt lat="45.37944" lon="4.09725">
        <ele>857.8</ele>
        <time>2014-01-12T15:56:31Z</time>
      </trkpt>
      <trkpt lat="45.3791" lon="4.09738">
        <ele>856.9</ele>
        <time>2014-01-12T15:56:37Z</time>
      </trkpt>
      <trkpt lat="45.37878" lon="4.0975">
        <ele>855.5</ele>
        <time>2014-01-12T15:56:43Z</time>
      </trkpt>
      <trkpt lat="45.37844" lon="4.09768">
        <ele>854.1</ele>
        <time>2014-01-12T15:56:49Z</time>
      </trkpt>
      <trkpt lat="45.378" lon="4.09804">
        <ele>851.7</ele>
        <time>2014-01-12T15:56:56Z</time>
      </trkpt>
      <trkpt lat="45.37769" lon="4.09834">
        <ele>850.9</ele>
        <time>2014-01-12T15:57:01Z</time>
      </trkpt>
      <trkpt lat="45.37728" lon="4.09872">
        <ele>848</ele>
        <time>2014-01-12T15:57:07Z</time>
      </trkpt>
      <trkpt lat="45.37689" lon="4.09906">
        <ele>845.6</ele>
        <time>2014-01-12T15:57:13Z</time>
      </trkpt>
      <trkpt lat="45.37662" lon="4.0995">
        <ele>843.5</ele>
        <time>2014-01-12T15:57:19Z</time>
      </trkpt>
      <trkpt lat="45.37639" lon="4.09998">
        <ele>841.4</ele>
        <time>2014-01-12T15:57:25Z</time>
      </trkpt>
      <trkpt lat="45.37615" lon="4.10043">
        <ele>839.3</ele>
        <time>2014-01-12T15:57:31Z</time>
      </trkpt>
      <trkpt lat="45.37591" lon="4.10078">
        <ele>838.2</ele>
        <time>2014-01-12T15:57:37Z</time>
      </trkpt>
      <trkpt lat="45.37573" lon="4.10107">
        <ele>837.8</ele>
        <time>2014-01-12T15:57:43Z</time>
      </trkpt>
      <trkpt lat="45.37551" lon="4.10137">
        <ele>837.3</ele>
        <time>2014-01-12T15:57:49Z</time>
      </trkpt>
      <trkpt lat="45.37525" lon="4.10155">
        <ele>837.4</ele>
        <time>2014-01-12T15:57:55Z</time>
      </trkpt>
      <trkpt lat="45.37497" lon="4.10166">
        <ele>838</ele>
        <time>2014-01-12T15:58:01Z</time>
      </trkpt>
      <trkpt lat="45.37466" lon="4.10177">
        <ele>838.3</ele>
        <time>2014-01-12T15:58:07Z</time>
      </trkpt>
      <trkpt lat="45.37437" lon="4.10191">
        <ele>839.5</ele>
        <time>2014-01-12T15:58:13Z</time>
      </trkpt>
      <trkpt lat="45.3741" lon="4.1021">
        <ele>840.7</ele>
        <time>2014-01-12T15:58:19Z</time>
      </trkpt>
      <trkpt lat="45.37386" lon="4.10232">
        <ele>842</ele>
        <time>2014-01-12T15:58:25Z</time>
      </trkpt>
      <trkpt lat="45.37359" lon="4.10244">
        <ele>844.4</ele>
        <time>2014-01-12T15:58:32Z</time>
      </trkpt>
      <trkpt lat="45.37339" lon="4.10243">
        <ele>846.4</ele>
        <time>2014-01-12T15:58:37Z</time>
      </trkpt>
      <trkpt lat="45.37314" lon="4.10248">
        <ele>849.7</ele>
        <time>2014-01-12T15:58:43Z</time>
      </trkpt>
      <trkpt lat="45.37284" lon="4.10256">
        <ele>852.3</ele>
        <time>2014-01-12T15:58:50Z</time>
      </trkpt>
      <trkpt lat="45.37266" lon="4.10279">
        <ele>853.9</ele>
        <time>2014-01-12T15:58:56Z</time>
      </trkpt>
      <trkpt lat="45.37238" lon="4.10303">
        <ele>857.1</ele>
        <time>2014-01-12T15:59:03Z</time>
      </trkpt>
      <trkpt lat="45.3721" lon="4.10323">
        <ele>859.4</ele>
        <time>2014-01-12T15:59:09Z</time>
      </trkpt>
      <trkpt lat="45.37181" lon="4.10345">
        <ele>862.1</ele>
        <time>2014-01-12T15:59:15Z</time>
      </trkpt>
      <trkpt lat="45.37153" lon="4.10354">
        <ele>865.1</ele>
        <time>2014-01-12T15:59:21Z</time>
      </trkpt>
      <trkpt lat="45.37124" lon="4.10367">
        <ele>865.4</ele>
        <time>2014-01-12T15:59:27Z</time>
      </trkpt>
      <trkpt lat="45.3709" lon="4.10376">
        <ele>866</ele>
        <time>2014-01-12T15:59:34Z</time>
      </trkpt>
      <trkpt lat="45.37056" lon="4.10377">
        <ele>866.8</ele>
        <time>2014-01-12T15:59:40Z</time>
      </trkpt>
      <trkpt lat="45.37038" lon="4.10384">
        <ele>866.2</ele>
        <time>2014-01-12T15:59:44Z</time>
      </trkpt>
      <trkpt lat="45.37013" lon="4.1039">
        <ele>865</ele>
        <time>2014-01-12T15:59:49Z</time>
      </trkpt>
      <trkpt lat="45.36984" lon="4.10401">
        <ele>862.8</ele>
        <time>2014-01-12T15:59:54Z</time>
      </trkpt>
      <trkpt lat="45.36947" lon="4.10426">
        <ele>860</ele>
        <time>2014-01-12T16:00:00Z</time>
      </trkpt>
      <trkpt lat="45.36912" lon="4.10471">
        <ele>856.2</ele>
        <time>2014-01-12T16:00:06Z</time>
      </trkpt>
      <trkpt lat="45.36885" lon="4.10509">
        <ele>853</ele>
        <time>2014-01-12T16:00:11Z</time>
      </trkpt>
      <trkpt lat="45.36858" lon="4.10541">
        <ele>850.9</ele>
        <time>2014-01-12T16:00:16Z</time>
      </trkpt>
      <trkpt lat="45.36833" lon="4.1057">
        <ele>849.1</ele>
        <time>2014-01-12T16:00:21Z</time>
      </trkpt>
      <trkpt lat="45.3681" lon="4.10601">
        <ele>847.8</ele>
        <time>2014-01-12T16:00:26Z</time>
      </trkpt>
      <trkpt lat="45.36788" lon="4.10635">
        <ele>846.5</ele>
        <time>2014-01-12T16:00:31Z</time>
      </trkpt>
      <trkpt lat="45.3676" lon="4.10681">
        <ele>843.5</ele>
        <time>2014-01-12T16:00:37Z</time>
      </trkpt>
      <trkpt lat="45.36723" lon="4.10729">
        <ele>841</ele>
        <time>2014-01-12T16:00:43Z</time>
      </trkpt>
      <trkpt lat="45.36676" lon="4.10781">
        <ele>838.9</ele>
        <time>2014-01-12T16:00:50Z</time>
      </trkpt>
      <trkpt lat="45.3665" lon="4.10826">
        <ele>838.4</ele>
        <time>2014-01-12T16:00:55Z</time>
      </trkpt>
      <trkpt lat="45.36627" lon="4.10886">
        <ele>837.2</ele>
        <time>2014-01-12T16:01:02Z</time>
      </trkpt>
      <trkpt lat="45.36613" lon="4.10936">
        <ele>837.7</ele>
        <time>2014-01-12T16:01:08Z</time>
      </trkpt>
      <trkpt lat="45.36609" lon="4.10983">
        <ele>837.9</ele>
        <time>2014-01-12T16:01:14Z</time>
      </trkpt>
      <trkpt lat="45.36607" lon="4.11009">
        <ele>837.9</ele>
        <time>2014-01-12T16:01:17Z</time>
      </trkpt>
      <trkpt lat="45.36603" lon="4.11054">
        <ele>837.3</ele>
        <time>2014-01-12T16:01:22Z</time>
      </trkpt>
      <trkpt lat="45.36597" lon="4.11079">
        <ele>836.2</ele>
        <time>2014-01-12T16:01:25Z</time>
      </trkpt>
      <trkpt lat="45.36587" lon="4.11119">
        <ele>835</ele>
        <time>2014-01-12T16:01:30Z</time>
      </trkpt>
      <trkpt lat="45.36575" lon="4.11156">
        <ele>833</ele>
        <time>2014-01-12T16:01:34Z</time>
      </trkpt>
      <trkpt lat="45.36556" lon="4.11199">
        <ele>831.4</ele>
        <time>2014-01-12T16:01:39Z</time>
      </trkpt>
      <trkpt lat="45.36539" lon="4.11241">
        <ele>830.3</ele>
        <time>2014-01-12T16:01:44Z</time>
      </trkpt>
      <trkpt lat="45.3653" lon="4.11265">
        <ele>829.7</ele>
        <time>2014-01-12T16:01:47Z</time>
      </trkpt>
      <trkpt lat="45.36518" lon="4.11307">
        <ele>828.3</ele>
        <time>2014-01-12T16:01:52Z</time>
      </trkpt>
      <trkpt lat="45.36508" lon="4.11345">
        <ele>828</ele>
        <time>2014-01-12T16:01:57Z</time>
      </trkpt>
      <trkpt lat="45.36505" lon="4.11369">
        <ele>827.7</ele>
        <time>2014-01-12T16:02:00Z</time>
      </trkpt>
      <trkpt lat="45.36502" lon="4.11402">
        <ele>827.2</ele>
        <time>2014-01-12T16:02:04Z</time>
      </trkpt>
      <trkpt lat="45.36499" lon="4.11443">
        <ele>825.9</ele>
        <time>2014-01-12T16:02:09Z</time>
      </trkpt>
      <trkpt lat="45.36496" lon="4.11495">
        <ele>824.3</ele>
        <time>2014-01-12T16:02:15Z</time>
      </trkpt>
      <trkpt lat="45.3649" lon="4.11553">
        <ele>820.6</ele>
        <time>2014-01-12T16:02:21Z</time>
      </trkpt>
      <trkpt lat="45.36496" lon="4.11624">
        <ele>814.8</ele>
        <time>2014-01-12T16:02:27Z</time>
      </trkpt>
      <trkpt lat="45.36498" lon="4.1169">
        <ele>808.6</ele>
        <time>2014-01-12T16:02:33Z</time>
      </trkpt>
      <trkpt lat="45.36484" lon="4.11746">
        <ele>803.4</ele>
        <time>2014-01-12T16:02:39Z</time>
      </trkpt>
      <trkpt lat="45.36467" lon="4.11792">
        <ele>798.5</ele>
        <time>2014-01-12T16:02:44Z</time>
      </trkpt>
      <trkpt lat="45.36448" lon="4.11856">
        <ele>791.9</ele>
        <time>2014-01-12T16:02:50Z</time>
      </trkpt>
      <trkpt lat="45.36441" lon="4.11891">
        <ele>789</ele>
        <time>2014-01-12T16:02:53Z</time>
      </trkpt>
      <trkpt lat="45.36437" lon="4.11927">
        <ele>786.3</ele>
        <time>2014-01-12T16:02:56Z</time>
      </trkpt>
      <trkpt lat="45.36436" lon="4.11964">
        <ele>783.7</ele>
        <time>2014-01-12T16:02:59Z</time>
      </trkpt>
      <trkpt lat="45.36437" lon="4.12007">
        <ele>780.2</ele>
        <time>2014-01-12T16:03:04Z</time>
      </trkpt>
      <trkpt lat="45.36436" lon="4.12041">
        <ele>776.3</ele>
        <time>2014-01-12T16:03:11Z</time>
      </trkpt>
      <trkpt lat="45.3643" lon="4.12076">
        <ele>774.1</ele>
        <time>2014-01-12T16:03:16Z</time>
      </trkpt>
      <trkpt lat="45.36426" lon="4.121">
        <ele>772.6</ele>
        <time>2014-01-12T16:03:19Z</time>
      </trkpt>
      <trkpt lat="45.3642" lon="4.12149">
        <ele>769.8</ele>
        <time>2014-01-12T16:03:25Z</time>
      </trkpt>
      <trkpt lat="45.36404" lon="4.12212">
        <ele>767.5</ele>
        <time>2014-01-12T16:03:31Z</time>
      </trkpt>
      <trkpt lat="45.36387" lon="4.12273">
        <ele>765.9</ele>
        <time>2014-01-12T16:03:37Z</time>
      </trkpt>
      <trkpt lat="45.36372" lon="4.12328">
        <ele>764.8</ele>
        <time>2014-01-12T16:03:43Z</time>
      </trkpt>
      <trkpt lat="45.36359" lon="4.1237">
        <ele>765.9</ele>
        <time>2014-01-12T16:03:49Z</time>
      </trkpt>
      <trkpt lat="45.36346" lon="4.12412">
        <ele>766</ele>
        <time>2014-01-12T16:03:55Z</time>
      </trkpt>
      <trkpt lat="45.36333" lon="4.12455">
        <ele>766.1</ele>
        <time>2014-01-12T16:04:01Z</time>
      </trkpt>
      <trkpt lat="45.3632" lon="4.12495">
        <ele>767.2</ele>
        <time>2014-01-12T16:04:07Z</time>
      </trkpt>
      <trkpt lat="45.36305" lon="4.12537">
        <ele>769.8</ele>
        <time>2014-01-12T16:04:14Z</time>
      </trkpt>
      <trkpt lat="45.36298" lon="4.12561">
        <ele>771.9</ele>
        <time>2014-01-12T16:04:19Z</time>
      </trkpt>
      <trkpt lat="45.36289" lon="4.12598">
        <ele>771.7</ele>
        <time>2014-01-12T16:04:25Z</time>
      </trkpt>
      <trkpt lat="45.3629" lon="4.12662">
        <ele>768.8</ele>
        <time>2014-01-12T16:04:31Z</time>
      </trkpt>
      <trkpt lat="45.36293" lon="4.12756">
        <ele>760</ele>
        <time>2014-01-12T16:04:38Z</time>
      </trkpt>
      <trkpt lat="45.36309" lon="4.12815">
        <ele>753.5</ele>
        <time>2014-01-12T16:04:44Z</time>
      </trkpt>
      <trkpt lat="45.36318" lon="4.12853">
        <ele>746.9</ele>
        <time>2014-01-12T16:04:49Z</time>
      </trkpt>
      <trkpt lat="45.36331" lon="4.12901">
        <ele>740.6</ele>
        <time>2014-01-12T16:04:55Z</time>
      </trkpt>
      <trkpt lat="45.36351" lon="4.12944">
        <ele>735.5</ele>
        <time>2014-01-12T16:05:01Z</time>
      </trkpt>
      <trkpt lat="45.36376" lon="4.1301">
        <ele>731</ele>
        <time>2014-01-12T16:05:08Z</time>
      </trkpt>
      <trkpt lat="45.36388" lon="4.13081">
        <ele>727.6</ele>
        <time>2014-01-12T16:05:15Z</time>
      </trkpt>
      <trkpt lat="45.36391" lon="4.13141">
        <ele>725.2</ele>
        <time>2014-01-12T16:05:21Z</time>
      </trkpt>
      <trkpt lat="45.36394" lon="4.13193">
        <ele>723.5</ele>
        <time>2014-01-12T16:05:26Z</time>
      </trkpt>
      <trkpt lat="45.36397" lon="4.13249">
        <ele>722.2</ele>
        <time>2014-01-12T16:05:31Z</time>
      </trkpt>
      <trkpt lat="45.36401" lon="4.13318">
        <ele>720.7</ele>
        <time>2014-01-12T16:05:37Z</time>
      </trkpt>
      <trkpt lat="45.36397" lon="4.13398">
        <ele>719.4</ele>
        <time>2014-01-12T16:05:45Z</time>
      </trkpt>
      <trkpt lat="45.36403" lon="4.13453">
        <ele>719.1</ele>
        <time>2014-01-12T16:05:51Z</time>
      </trkpt>
      <trkpt lat="45.36419" lon="4.13486">
        <ele>719.9</ele>
        <time>2014-01-12T16:05:56Z</time>
      </trkpt>
      <trkpt lat="45.36443" lon="4.13495">
        <ele>720.1</ele>
        <time>2014-01-12T16:06:03Z</time>
      </trkpt>
      <trkpt lat="45.36473" lon="4.13479">
        <ele>719</ele>
        <time>2014-01-12T16:06:09Z</time>
      </trkpt>
      <trkpt lat="45.36487" lon="4.13497">
        <ele>719.1</ele>
        <time>2014-01-12T16:06:13Z</time>
      </trkpt>
      <trkpt lat="45.36487" lon="4.13497">
        <ele>722.5</ele>
        <time>2014-01-12T16:06:19Z</time>
      </trkpt>
      <trkpt lat="45.36487" lon="4.13497">
        <ele>722.5</ele>
        <time>2014-01-12T16:06:41Z</time>
      </trkpt>
    </trkseg>
  </trk>
</gpx>